<?xml version="1.0" encoding="UTF-8" standalone="no" ?>
<gpx xmlns="http://www.topografix.com/GPX/1/1" xmlns:xsi="http://www.w3.org/2001/XMLSchema-instance" xsi:schemaLocation="http://www.topografix.com/GPX/1/1 http://www.topografix.com/GPX/1/1/gpx.xsd" version="1.1" creator="VisuGPX - https://www.visugpx.com">
  <metadata>
    <name>Chars - Hadancourt-Le-Haut-Clocher (91)</name>
    <desc><![CDATA[Randonnée de 20 km en boucle à partir de la gare de Chars]]></desc>
  </metadata>
  <trk>
    <name><![CDATA[Chars - Hadancourt_R]]></name>
    <trkseg>
      <trkpt lat="49.16226" lon="1.9366">
        <ele>64.59</ele>
        <time>2018-03-04T08:13:53Z</time>
      </trkpt>
      <trkpt lat="49.16228" lon="1.9366">
        <ele>64.63</ele>
        <time>2018-03-04T08:14:09Z</time>
      </trkpt>
      <trkpt lat="49.16228" lon="1.93659">
        <ele>64.71</ele>
        <time>2018-03-04T08:14:33Z</time>
      </trkpt>
      <trkpt lat="49.16239" lon="1.93658">
        <ele>64.78</ele>
        <time>2018-03-04T08:17:10Z</time>
      </trkpt>
      <trkpt lat="49.16246" lon="1.93658">
        <ele>64.11</ele>
        <time>2018-03-04T08:17:17Z</time>
      </trkpt>
      <trkpt lat="49.16258" lon="1.9366">
        <ele>64.35</ele>
        <time>2018-03-04T08:17:27Z</time>
      </trkpt>
      <trkpt lat="49.16269" lon="1.93658">
        <ele>64.65</ele>
        <time>2018-03-04T08:17:41Z</time>
      </trkpt>
      <trkpt lat="49.1627" lon="1.93658">
        <ele>64.51</ele>
        <time>2018-03-04T08:17:42Z</time>
      </trkpt>
      <trkpt lat="49.16279" lon="1.93655">
        <ele>64.13</ele>
        <time>2018-03-04T08:17:49Z</time>
      </trkpt>
      <trkpt lat="49.16283" lon="1.93642">
        <ele>63.09</ele>
        <time>2018-03-04T08:17:58Z</time>
      </trkpt>
      <trkpt lat="49.16276" lon="1.93614">
        <ele>62.91</ele>
        <time>2018-03-04T08:18:15Z</time>
      </trkpt>
      <trkpt lat="49.16274" lon="1.93589">
        <ele>63.06</ele>
        <time>2018-03-04T08:18:30Z</time>
      </trkpt>
      <trkpt lat="49.16271" lon="1.93578">
        <ele>63.8</ele>
        <time>2018-03-04T08:18:37Z</time>
      </trkpt>
      <trkpt lat="49.16266" lon="1.93557">
        <ele>65.97</ele>
        <time>2018-03-04T08:18:52Z</time>
      </trkpt>
      <trkpt lat="49.16256" lon="1.93547">
        <ele>66.66</ele>
        <time>2018-03-04T08:19:09Z</time>
      </trkpt>
      <trkpt lat="49.1626" lon="1.93534">
        <ele>67.55</ele>
        <time>2018-03-04T08:19:21Z</time>
      </trkpt>
      <trkpt lat="49.16274" lon="1.93516">
        <ele>68.41</ele>
        <time>2018-03-04T08:19:40Z</time>
      </trkpt>
      <trkpt lat="49.16288" lon="1.93505">
        <ele>69.05</ele>
        <time>2018-03-04T08:19:55Z</time>
      </trkpt>
      <trkpt lat="49.16301" lon="1.93494">
        <ele>69.49</ele>
        <time>2018-03-04T08:20:09Z</time>
      </trkpt>
      <trkpt lat="49.16308" lon="1.9349">
        <ele>69.64</ele>
        <time>2018-03-04T08:20:16Z</time>
      </trkpt>
      <trkpt lat="49.16317" lon="1.93483">
        <ele>69.87</ele>
        <time>2018-03-04T08:20:25Z</time>
      </trkpt>
      <trkpt lat="49.16336" lon="1.93475">
        <ele>71.03</ele>
        <time>2018-03-04T08:20:41Z</time>
      </trkpt>
      <trkpt lat="49.16351" lon="1.93465">
        <ele>73.27</ele>
        <time>2018-03-04T08:20:57Z</time>
      </trkpt>
      <trkpt lat="49.16363" lon="1.9346">
        <ele>74.72</ele>
        <time>2018-03-04T08:21:10Z</time>
      </trkpt>
      <trkpt lat="49.16376" lon="1.93455">
        <ele>76.39</ele>
        <time>2018-03-04T08:21:24Z</time>
      </trkpt>
      <trkpt lat="49.16388" lon="1.93449">
        <ele>77.35</ele>
        <time>2018-03-04T08:21:38Z</time>
      </trkpt>
      <trkpt lat="49.16392" lon="1.93447">
        <ele>77.92</ele>
        <time>2018-03-04T08:21:41Z</time>
      </trkpt>
      <trkpt lat="49.1641" lon="1.93439">
        <ele>80.56</ele>
        <time>2018-03-04T08:22:01Z</time>
      </trkpt>
      <trkpt lat="49.16429" lon="1.93436">
        <ele>81.87</ele>
        <time>2018-03-04T08:22:20Z</time>
      </trkpt>
      <trkpt lat="49.16444" lon="1.93437">
        <ele>82.37</ele>
        <time>2018-03-04T08:22:33Z</time>
      </trkpt>
      <trkpt lat="49.16461" lon="1.93438">
        <ele>82.67</ele>
        <time>2018-03-04T08:22:48Z</time>
      </trkpt>
      <trkpt lat="49.16471" lon="1.93436">
        <ele>83.67</ele>
        <time>2018-03-04T08:22:56Z</time>
      </trkpt>
      <trkpt lat="49.16489" lon="1.93435">
        <ele>84.08</ele>
        <time>2018-03-04T08:23:13Z</time>
      </trkpt>
      <trkpt lat="49.16499" lon="1.93433">
        <ele>84.59</ele>
        <time>2018-03-04T08:23:22Z</time>
      </trkpt>
      <trkpt lat="49.1652" lon="1.93427">
        <ele>85.37</ele>
        <time>2018-03-04T08:23:38Z</time>
      </trkpt>
      <trkpt lat="49.16539" lon="1.93419">
        <ele>86.58</ele>
        <time>2018-03-04T08:23:55Z</time>
      </trkpt>
      <trkpt lat="49.16555" lon="1.93411">
        <ele>87.33</ele>
        <time>2018-03-04T08:24:10Z</time>
      </trkpt>
      <trkpt lat="49.16573" lon="1.934">
        <ele>88.36</ele>
        <time>2018-03-04T08:24:27Z</time>
      </trkpt>
      <trkpt lat="49.16592" lon="1.93388">
        <ele>88.38</ele>
        <time>2018-03-04T08:24:45Z</time>
      </trkpt>
      <trkpt lat="49.16611" lon="1.93374">
        <ele>89.41</ele>
        <time>2018-03-04T08:25:04Z</time>
      </trkpt>
      <trkpt lat="49.16634" lon="1.93356">
        <ele>89.63</ele>
        <time>2018-03-04T08:25:26Z</time>
      </trkpt>
      <trkpt lat="49.16653" lon="1.93344">
        <ele>88.71</ele>
        <time>2018-03-04T08:25:45Z</time>
      </trkpt>
      <trkpt lat="49.16677" lon="1.93333">
        <ele>88.55</ele>
        <time>2018-03-04T08:26:07Z</time>
      </trkpt>
      <trkpt lat="49.16696" lon="1.93327">
        <ele>88.49</ele>
        <time>2018-03-04T08:26:25Z</time>
      </trkpt>
      <trkpt lat="49.16714" lon="1.93325">
        <ele>88.15</ele>
        <time>2018-03-04T08:26:41Z</time>
      </trkpt>
      <trkpt lat="49.16732" lon="1.93326">
        <ele>87.84</ele>
        <time>2018-03-04T08:26:57Z</time>
      </trkpt>
      <trkpt lat="49.16755" lon="1.93328">
        <ele>87.87</ele>
        <time>2018-03-04T08:27:18Z</time>
      </trkpt>
      <trkpt lat="49.16777" lon="1.93327">
        <ele>86.19</ele>
        <time>2018-03-04T08:27:37Z</time>
      </trkpt>
      <trkpt lat="49.16784" lon="1.93327">
        <ele>86.25</ele>
        <time>2018-03-04T08:27:45Z</time>
      </trkpt>
      <trkpt lat="49.16792" lon="1.93325">
        <ele>85.26</ele>
        <time>2018-03-04T08:27:51Z</time>
      </trkpt>
      <trkpt lat="49.16812" lon="1.93317">
        <ele>83.46</ele>
        <time>2018-03-04T08:28:09Z</time>
      </trkpt>
      <trkpt lat="49.16827" lon="1.93303">
        <ele>82.38</ele>
        <time>2018-03-04T08:28:26Z</time>
      </trkpt>
      <trkpt lat="49.16835" lon="1.93297">
        <ele>81.82</ele>
        <time>2018-03-04T08:28:35Z</time>
      </trkpt>
      <trkpt lat="49.16848" lon="1.93284">
        <ele>79.47</ele>
        <time>2018-03-04T08:28:53Z</time>
      </trkpt>
      <trkpt lat="49.16865" lon="1.93275">
        <ele>76.63</ele>
        <time>2018-03-04T08:29:13Z</time>
      </trkpt>
      <trkpt lat="49.1688" lon="1.93263">
        <ele>74.43</ele>
        <time>2018-03-04T08:29:33Z</time>
      </trkpt>
      <trkpt lat="49.16892" lon="1.93252">
        <ele>72.75</ele>
        <time>2018-03-04T08:29:47Z</time>
      </trkpt>
      <trkpt lat="49.16912" lon="1.93244">
        <ele>71.05</ele>
        <time>2018-03-04T08:30:09Z</time>
      </trkpt>
      <trkpt lat="49.16932" lon="1.93242">
        <ele>69.04</ele>
        <time>2018-03-04T08:30:29Z</time>
      </trkpt>
      <trkpt lat="49.16955" lon="1.93235">
        <ele>67.28</ele>
        <time>2018-03-04T08:30:51Z</time>
      </trkpt>
      <trkpt lat="49.16979" lon="1.93238">
        <ele>66.06</ele>
        <time>2018-03-04T08:31:13Z</time>
      </trkpt>
      <trkpt lat="49.17001" lon="1.93244">
        <ele>64.41</ele>
        <time>2018-03-04T08:31:30Z</time>
      </trkpt>
      <trkpt lat="49.17025" lon="1.93254">
        <ele>63.72</ele>
        <time>2018-03-04T08:31:49Z</time>
      </trkpt>
      <trkpt lat="49.1705" lon="1.93268">
        <ele>63.12</ele>
        <time>2018-03-04T08:32:08Z</time>
      </trkpt>
      <trkpt lat="49.17062" lon="1.93276">
        <ele>62.99</ele>
        <time>2018-03-04T08:32:18Z</time>
      </trkpt>
      <trkpt lat="49.17076" lon="1.93285">
        <ele>62.85</ele>
        <time>2018-03-04T08:32:31Z</time>
      </trkpt>
      <trkpt lat="49.17094" lon="1.93295">
        <ele>61.41</ele>
        <time>2018-03-04T08:32:46Z</time>
      </trkpt>
      <trkpt lat="49.17111" lon="1.93306">
        <ele>61.08</ele>
        <time>2018-03-04T08:33:04Z</time>
      </trkpt>
      <trkpt lat="49.17117" lon="1.93308">
        <ele>61.15</ele>
        <time>2018-03-04T08:33:08Z</time>
      </trkpt>
      <trkpt lat="49.17135" lon="1.93311">
        <ele>60.98</ele>
        <time>2018-03-04T08:33:24Z</time>
      </trkpt>
      <trkpt lat="49.17142" lon="1.93309">
        <ele>60.84</ele>
        <time>2018-03-04T08:33:32Z</time>
      </trkpt>
      <trkpt lat="49.17149" lon="1.93307">
        <ele>61.18</ele>
        <time>2018-03-04T08:33:38Z</time>
      </trkpt>
      <trkpt lat="49.17157" lon="1.93301">
        <ele>60.76</ele>
        <time>2018-03-04T08:33:45Z</time>
      </trkpt>
      <trkpt lat="49.17175" lon="1.93286">
        <ele>60.64</ele>
        <time>2018-03-04T08:34:02Z</time>
      </trkpt>
      <trkpt lat="49.17191" lon="1.93274">
        <ele>60.9</ele>
        <time>2018-03-04T08:34:18Z</time>
      </trkpt>
      <trkpt lat="49.17204" lon="1.93266">
        <ele>60.82</ele>
        <time>2018-03-04T08:34:30Z</time>
      </trkpt>
      <trkpt lat="49.17225" lon="1.93256">
        <ele>61.1</ele>
        <time>2018-03-04T08:34:50Z</time>
      </trkpt>
      <trkpt lat="49.17229" lon="1.93255">
        <ele>61.41</ele>
        <time>2018-03-04T08:34:54Z</time>
      </trkpt>
      <trkpt lat="49.17239" lon="1.93252">
        <ele>61.48</ele>
        <time>2018-03-04T08:35:03Z</time>
      </trkpt>
      <trkpt lat="49.17244" lon="1.93249">
        <ele>61.82</ele>
        <time>2018-03-04T08:35:09Z</time>
      </trkpt>
      <trkpt lat="49.17264" lon="1.93243">
        <ele>61.36</ele>
        <time>2018-03-04T08:35:25Z</time>
      </trkpt>
      <trkpt lat="49.17265" lon="1.93243">
        <ele>61.56</ele>
        <time>2018-03-04T08:35:26Z</time>
      </trkpt>
      <trkpt lat="49.17279" lon="1.93235">
        <ele>61</ele>
        <time>2018-03-04T08:35:39Z</time>
      </trkpt>
      <trkpt lat="49.1728" lon="1.93234">
        <ele>60.72</ele>
        <time>2018-03-04T08:35:40Z</time>
      </trkpt>
      <trkpt lat="49.17286" lon="1.93228">
        <ele>60.88</ele>
        <time>2018-03-04T08:35:48Z</time>
      </trkpt>
      <trkpt lat="49.17303" lon="1.93214">
        <ele>60.8</ele>
        <time>2018-03-04T08:36:07Z</time>
      </trkpt>
      <trkpt lat="49.17307" lon="1.93208">
        <ele>61.6</ele>
        <time>2018-03-04T08:36:12Z</time>
      </trkpt>
      <trkpt lat="49.17326" lon="1.93197">
        <ele>61.74</ele>
        <time>2018-03-04T08:36:28Z</time>
      </trkpt>
      <trkpt lat="49.17344" lon="1.93189">
        <ele>62.61</ele>
        <time>2018-03-04T08:36:47Z</time>
      </trkpt>
      <trkpt lat="49.17353" lon="1.93189">
        <ele>62.45</ele>
        <time>2018-03-04T08:36:56Z</time>
      </trkpt>
      <trkpt lat="49.17367" lon="1.93189">
        <ele>62.89</ele>
        <time>2018-03-04T08:37:12Z</time>
      </trkpt>
      <trkpt lat="49.17381" lon="1.9319">
        <ele>63.04</ele>
        <time>2018-03-04T08:37:32Z</time>
      </trkpt>
      <trkpt lat="49.17391" lon="1.93189">
        <ele>63.21</ele>
        <time>2018-03-04T08:37:53Z</time>
      </trkpt>
      <trkpt lat="49.17393" lon="1.9319">
        <ele>62.39</ele>
        <time>2018-03-04T08:38:01Z</time>
      </trkpt>
      <trkpt lat="49.17394" lon="1.93189">
        <ele>62.37</ele>
        <time>2018-03-04T08:38:11Z</time>
      </trkpt>
      <trkpt lat="49.17399" lon="1.93191">
        <ele>62.47</ele>
        <time>2018-03-04T08:38:30Z</time>
      </trkpt>
      <trkpt lat="49.17401" lon="1.93193">
        <ele>62.3</ele>
        <time>2018-03-04T08:38:49Z</time>
      </trkpt>
      <trkpt lat="49.17405" lon="1.93192">
        <ele>62.21</ele>
        <time>2018-03-04T08:38:53Z</time>
      </trkpt>
      <trkpt lat="49.17411" lon="1.9319">
        <ele>62.73</ele>
        <time>2018-03-04T08:39:09Z</time>
      </trkpt>
      <trkpt lat="49.17411" lon="1.93183">
        <ele>63.21</ele>
        <time>2018-03-04T08:39:34Z</time>
      </trkpt>
      <trkpt lat="49.17413" lon="1.93187">
        <ele>62.95</ele>
        <time>2018-03-04T08:39:57Z</time>
      </trkpt>
      <trkpt lat="49.17418" lon="1.93186">
        <ele>63.27</ele>
        <time>2018-03-04T08:40:19Z</time>
      </trkpt>
      <trkpt lat="49.17419" lon="1.93184">
        <ele>63.38</ele>
        <time>2018-03-04T08:40:40Z</time>
      </trkpt>
      <trkpt lat="49.17418" lon="1.93185">
        <ele>63.93</ele>
        <time>2018-03-04T08:41:07Z</time>
      </trkpt>
      <trkpt lat="49.17421" lon="1.9319">
        <ele>63.83</ele>
        <time>2018-03-04T08:41:33Z</time>
      </trkpt>
      <trkpt lat="49.17432" lon="1.93181">
        <ele>63.9</ele>
        <time>2018-03-04T08:41:51Z</time>
      </trkpt>
      <trkpt lat="49.17439" lon="1.93177">
        <ele>64.72</ele>
        <time>2018-03-04T08:42:06Z</time>
      </trkpt>
      <trkpt lat="49.17445" lon="1.93177">
        <ele>64.21</ele>
        <time>2018-03-04T08:42:11Z</time>
      </trkpt>
      <trkpt lat="49.17459" lon="1.93176">
        <ele>64.02</ele>
        <time>2018-03-04T08:42:25Z</time>
      </trkpt>
      <trkpt lat="49.1747" lon="1.93167">
        <ele>64.81</ele>
        <time>2018-03-04T08:42:41Z</time>
      </trkpt>
      <trkpt lat="49.17485" lon="1.93146">
        <ele>64.65</ele>
        <time>2018-03-04T08:42:59Z</time>
      </trkpt>
      <trkpt lat="49.17502" lon="1.93125">
        <ele>65.53</ele>
        <time>2018-03-04T08:43:20Z</time>
      </trkpt>
      <trkpt lat="49.17518" lon="1.93104">
        <ele>64.15</ele>
        <time>2018-03-04T08:43:40Z</time>
      </trkpt>
      <trkpt lat="49.17529" lon="1.93096">
        <ele>64.96</ele>
        <time>2018-03-04T08:43:47Z</time>
      </trkpt>
      <trkpt lat="49.17546" lon="1.93095">
        <ele>64.23</ele>
        <time>2018-03-04T08:44:07Z</time>
      </trkpt>
      <trkpt lat="49.17549" lon="1.93096">
        <ele>64.07</ele>
        <time>2018-03-04T08:44:10Z</time>
      </trkpt>
      <trkpt lat="49.17565" lon="1.93107">
        <ele>63.3</ele>
        <time>2018-03-04T08:44:26Z</time>
      </trkpt>
      <trkpt lat="49.17589" lon="1.93118">
        <ele>64.46</ele>
        <time>2018-03-04T08:44:46Z</time>
      </trkpt>
      <trkpt lat="49.17601" lon="1.93126">
        <ele>64.98</ele>
        <time>2018-03-04T08:44:56Z</time>
      </trkpt>
      <trkpt lat="49.17618" lon="1.93135">
        <ele>64.94</ele>
        <time>2018-03-04T08:45:17Z</time>
      </trkpt>
      <trkpt lat="49.1762" lon="1.93137">
        <ele>64.99</ele>
        <time>2018-03-04T08:45:19Z</time>
      </trkpt>
      <trkpt lat="49.17632" lon="1.93142">
        <ele>65.05</ele>
        <time>2018-03-04T08:45:33Z</time>
      </trkpt>
      <trkpt lat="49.17645" lon="1.9315">
        <ele>64.28</ele>
        <time>2018-03-04T08:45:52Z</time>
      </trkpt>
      <trkpt lat="49.17658" lon="1.93155">
        <ele>64.78</ele>
        <time>2018-03-04T08:46:07Z</time>
      </trkpt>
      <trkpt lat="49.17679" lon="1.93162">
        <ele>65.18</ele>
        <time>2018-03-04T08:46:20Z</time>
      </trkpt>
      <trkpt lat="49.17682" lon="1.93162">
        <ele>65.17</ele>
        <time>2018-03-04T08:46:23Z</time>
      </trkpt>
      <trkpt lat="49.177" lon="1.93153">
        <ele>66.59</ele>
        <time>2018-03-04T08:46:37Z</time>
      </trkpt>
      <trkpt lat="49.17713" lon="1.93143">
        <ele>68.37</ele>
        <time>2018-03-04T08:46:55Z</time>
      </trkpt>
      <trkpt lat="49.17729" lon="1.93144">
        <ele>69.63</ele>
        <time>2018-03-04T08:47:15Z</time>
      </trkpt>
      <trkpt lat="49.17747" lon="1.9316">
        <ele>70.63</ele>
        <time>2018-03-04T08:47:34Z</time>
      </trkpt>
      <trkpt lat="49.17761" lon="1.93173">
        <ele>71.9</ele>
        <time>2018-03-04T08:47:50Z</time>
      </trkpt>
      <trkpt lat="49.17777" lon="1.93188">
        <ele>73.04</ele>
        <time>2018-03-04T08:48:08Z</time>
      </trkpt>
      <trkpt lat="49.17792" lon="1.93204">
        <ele>73.97</ele>
        <time>2018-03-04T08:48:27Z</time>
      </trkpt>
      <trkpt lat="49.17808" lon="1.93219">
        <ele>75.13</ele>
        <time>2018-03-04T08:48:46Z</time>
      </trkpt>
      <trkpt lat="49.17825" lon="1.93231">
        <ele>75.59</ele>
        <time>2018-03-04T08:49:04Z</time>
      </trkpt>
      <trkpt lat="49.17846" lon="1.93241">
        <ele>76.89</ele>
        <time>2018-03-04T08:49:23Z</time>
      </trkpt>
      <trkpt lat="49.17864" lon="1.93249">
        <ele>78.08</ele>
        <time>2018-03-04T08:49:39Z</time>
      </trkpt>
      <trkpt lat="49.17887" lon="1.93264">
        <ele>79.03</ele>
        <time>2018-03-04T08:49:57Z</time>
      </trkpt>
      <trkpt lat="49.17892" lon="1.93267">
        <ele>79.51</ele>
        <time>2018-03-04T08:50:03Z</time>
      </trkpt>
      <trkpt lat="49.17907" lon="1.93272">
        <ele>80.02</ele>
        <time>2018-03-04T08:50:17Z</time>
      </trkpt>
      <trkpt lat="49.17933" lon="1.93289">
        <ele>81.13</ele>
        <time>2018-03-04T08:50:36Z</time>
      </trkpt>
      <trkpt lat="49.1795" lon="1.93294">
        <ele>81.37</ele>
        <time>2018-03-04T08:50:54Z</time>
      </trkpt>
      <trkpt lat="49.17953" lon="1.93298">
        <ele>81.19</ele>
        <time>2018-03-04T08:51:17Z</time>
      </trkpt>
      <trkpt lat="49.17957" lon="1.93297">
        <ele>80.55</ele>
        <time>2018-03-04T08:51:43Z</time>
      </trkpt>
      <trkpt lat="49.17957" lon="1.93298">
        <ele>80.86</ele>
        <time>2018-03-04T08:52:10Z</time>
      </trkpt>
      <trkpt lat="49.17956" lon="1.93297">
        <ele>80.27</ele>
        <time>2018-03-04T08:52:40Z</time>
      </trkpt>
      <trkpt lat="49.17957" lon="1.93298">
        <ele>79.66</ele>
        <time>2018-03-04T08:53:05Z</time>
      </trkpt>
      <trkpt lat="49.17958" lon="1.93293">
        <ele>80.09</ele>
        <time>2018-03-04T08:53:37Z</time>
      </trkpt>
      <trkpt lat="49.17957" lon="1.93294">
        <ele>78.22</ele>
        <time>2018-03-04T08:54:05Z</time>
      </trkpt>
      <trkpt lat="49.1796" lon="1.93296">
        <ele>79.41</ele>
        <time>2018-03-04T08:54:28Z</time>
      </trkpt>
      <trkpt lat="49.17966" lon="1.93299">
        <ele>78.84</ele>
        <time>2018-03-04T08:54:47Z</time>
      </trkpt>
      <trkpt lat="49.17965" lon="1.93306">
        <ele>79.27</ele>
        <time>2018-03-04T08:55:15Z</time>
      </trkpt>
      <trkpt lat="49.1796" lon="1.93311">
        <ele>79.49</ele>
        <time>2018-03-04T08:55:43Z</time>
      </trkpt>
      <trkpt lat="49.1796" lon="1.93311">
        <ele>79.4</ele>
        <time>2018-03-04T08:56:07Z</time>
      </trkpt>
      <trkpt lat="49.17964" lon="1.93308">
        <ele>79.78</ele>
        <time>2018-03-04T08:56:31Z</time>
      </trkpt>
      <trkpt lat="49.17965" lon="1.93309">
        <ele>79.68</ele>
        <time>2018-03-04T08:56:57Z</time>
      </trkpt>
      <trkpt lat="49.17964" lon="1.93308">
        <ele>79.92</ele>
        <time>2018-03-04T08:57:22Z</time>
      </trkpt>
      <trkpt lat="49.17971" lon="1.93306">
        <ele>80.49</ele>
        <time>2018-03-04T08:57:44Z</time>
      </trkpt>
      <trkpt lat="49.17986" lon="1.93306">
        <ele>80.41</ele>
        <time>2018-03-04T08:58:07Z</time>
      </trkpt>
      <trkpt lat="49.17994" lon="1.93306">
        <ele>80.78</ele>
        <time>2018-03-04T08:58:13Z</time>
      </trkpt>
      <trkpt lat="49.18012" lon="1.93307">
        <ele>81.55</ele>
        <time>2018-03-04T08:58:30Z</time>
      </trkpt>
      <trkpt lat="49.18029" lon="1.93309">
        <ele>81.82</ele>
        <time>2018-03-04T08:58:48Z</time>
      </trkpt>
      <trkpt lat="49.1804" lon="1.93309">
        <ele>82.29</ele>
        <time>2018-03-04T08:58:56Z</time>
      </trkpt>
      <trkpt lat="49.18062" lon="1.93312">
        <ele>82.92</ele>
        <time>2018-03-04T08:59:15Z</time>
      </trkpt>
      <trkpt lat="49.18079" lon="1.93313">
        <ele>83.44</ele>
        <time>2018-03-04T08:59:33Z</time>
      </trkpt>
      <trkpt lat="49.18097" lon="1.93313">
        <ele>83.64</ele>
        <time>2018-03-04T08:59:49Z</time>
      </trkpt>
      <trkpt lat="49.18118" lon="1.93315">
        <ele>84.66</ele>
        <time>2018-03-04T09:00:07Z</time>
      </trkpt>
      <trkpt lat="49.18141" lon="1.93321">
        <ele>85.39</ele>
        <time>2018-03-04T09:00:27Z</time>
      </trkpt>
      <trkpt lat="49.18147" lon="1.9332">
        <ele>86.31</ele>
        <time>2018-03-04T09:00:31Z</time>
      </trkpt>
      <trkpt lat="49.18167" lon="1.93321">
        <ele>87.23</ele>
        <time>2018-03-04T09:00:48Z</time>
      </trkpt>
      <trkpt lat="49.18179" lon="1.93325">
        <ele>87.89</ele>
        <time>2018-03-04T09:01:00Z</time>
      </trkpt>
      <trkpt lat="49.18193" lon="1.93328">
        <ele>89.02</ele>
        <time>2018-03-04T09:01:09Z</time>
      </trkpt>
      <trkpt lat="49.18207" lon="1.93331">
        <ele>90.13</ele>
        <time>2018-03-04T09:01:26Z</time>
      </trkpt>
      <trkpt lat="49.18225" lon="1.93331">
        <ele>91.75</ele>
        <time>2018-03-04T09:01:44Z</time>
      </trkpt>
      <trkpt lat="49.18246" lon="1.93339">
        <ele>92.8</ele>
        <time>2018-03-04T09:02:03Z</time>
      </trkpt>
      <trkpt lat="49.18271" lon="1.93345">
        <ele>93.37</ele>
        <time>2018-03-04T09:02:20Z</time>
      </trkpt>
      <trkpt lat="49.18289" lon="1.93348">
        <ele>94.48</ele>
        <time>2018-03-04T09:02:36Z</time>
      </trkpt>
      <trkpt lat="49.18311" lon="1.93353">
        <ele>95.22</ele>
        <time>2018-03-04T09:02:53Z</time>
      </trkpt>
      <trkpt lat="49.18329" lon="1.93354">
        <ele>97.13</ele>
        <time>2018-03-04T09:03:10Z</time>
      </trkpt>
      <trkpt lat="49.18349" lon="1.93362">
        <ele>98.46</ele>
        <time>2018-03-04T09:03:30Z</time>
      </trkpt>
      <trkpt lat="49.18368" lon="1.93365">
        <ele>99.18</ele>
        <time>2018-03-04T09:03:49Z</time>
      </trkpt>
      <trkpt lat="49.18372" lon="1.93366">
        <ele>100.47</ele>
        <time>2018-03-04T09:03:52Z</time>
      </trkpt>
      <trkpt lat="49.1839" lon="1.93373">
        <ele>101.27</ele>
        <time>2018-03-04T09:04:10Z</time>
      </trkpt>
      <trkpt lat="49.18406" lon="1.93379">
        <ele>101.46</ele>
        <time>2018-03-04T09:04:23Z</time>
      </trkpt>
      <trkpt lat="49.18427" lon="1.93386">
        <ele>102.41</ele>
        <time>2018-03-04T09:04:44Z</time>
      </trkpt>
      <trkpt lat="49.18449" lon="1.93397">
        <ele>103.24</ele>
        <time>2018-03-04T09:05:00Z</time>
      </trkpt>
      <trkpt lat="49.18463" lon="1.93403">
        <ele>103.27</ele>
        <time>2018-03-04T09:05:12Z</time>
      </trkpt>
      <trkpt lat="49.18476" lon="1.93407">
        <ele>103.16</ele>
        <time>2018-03-04T09:05:21Z</time>
      </trkpt>
      <trkpt lat="49.18479" lon="1.93408">
        <ele>103.63</ele>
        <time>2018-03-04T09:05:23Z</time>
      </trkpt>
      <trkpt lat="49.18498" lon="1.93414">
        <ele>103.57</ele>
        <time>2018-03-04T09:05:38Z</time>
      </trkpt>
      <trkpt lat="49.18514" lon="1.93417">
        <ele>103.7</ele>
        <time>2018-03-04T09:05:51Z</time>
      </trkpt>
      <trkpt lat="49.18528" lon="1.93422">
        <ele>103.72</ele>
        <time>2018-03-04T09:06:07Z</time>
      </trkpt>
      <trkpt lat="49.1855" lon="1.93426">
        <ele>104.3</ele>
        <time>2018-03-04T09:06:26Z</time>
      </trkpt>
      <trkpt lat="49.18555" lon="1.93427">
        <ele>104.44</ele>
        <time>2018-03-04T09:06:31Z</time>
      </trkpt>
      <trkpt lat="49.18575" lon="1.93432">
        <ele>104.52</ele>
        <time>2018-03-04T09:06:45Z</time>
      </trkpt>
      <trkpt lat="49.18595" lon="1.93434">
        <ele>105.2</ele>
        <time>2018-03-04T09:07:02Z</time>
      </trkpt>
      <trkpt lat="49.18606" lon="1.93436">
        <ele>104.95</ele>
        <time>2018-03-04T09:07:12Z</time>
      </trkpt>
      <trkpt lat="49.18624" lon="1.93441">
        <ele>105.35</ele>
        <time>2018-03-04T09:07:28Z</time>
      </trkpt>
      <trkpt lat="49.18642" lon="1.93445">
        <ele>106.61</ele>
        <time>2018-03-04T09:07:46Z</time>
      </trkpt>
      <trkpt lat="49.18659" lon="1.93447">
        <ele>106.38</ele>
        <time>2018-03-04T09:08:01Z</time>
      </trkpt>
      <trkpt lat="49.1868" lon="1.93449">
        <ele>105.72</ele>
        <time>2018-03-04T09:08:17Z</time>
      </trkpt>
      <trkpt lat="49.18696" lon="1.93452">
        <ele>106.69</ele>
        <time>2018-03-04T09:08:31Z</time>
      </trkpt>
      <trkpt lat="49.18711" lon="1.93455">
        <ele>106.81</ele>
        <time>2018-03-04T09:08:44Z</time>
      </trkpt>
      <trkpt lat="49.18731" lon="1.93459">
        <ele>105.43</ele>
        <time>2018-03-04T09:09:00Z</time>
      </trkpt>
      <trkpt lat="49.18744" lon="1.93462">
        <ele>105.08</ele>
        <time>2018-03-04T09:09:13Z</time>
      </trkpt>
      <trkpt lat="49.18763" lon="1.93464">
        <ele>105.46</ele>
        <time>2018-03-04T09:09:33Z</time>
      </trkpt>
      <trkpt lat="49.18785" lon="1.93467">
        <ele>105.75</ele>
        <time>2018-03-04T09:09:51Z</time>
      </trkpt>
      <trkpt lat="49.18798" lon="1.9347">
        <ele>105.93</ele>
        <time>2018-03-04T09:10:01Z</time>
      </trkpt>
      <trkpt lat="49.1882" lon="1.93474">
        <ele>106.27</ele>
        <time>2018-03-04T09:10:21Z</time>
      </trkpt>
      <trkpt lat="49.18831" lon="1.93476">
        <ele>106.34</ele>
        <time>2018-03-04T09:10:30Z</time>
      </trkpt>
      <trkpt lat="49.18847" lon="1.93476">
        <ele>106.74</ele>
        <time>2018-03-04T09:10:44Z</time>
      </trkpt>
      <trkpt lat="49.18855" lon="1.93478">
        <ele>106.85</ele>
        <time>2018-03-04T09:10:52Z</time>
      </trkpt>
      <trkpt lat="49.18873" lon="1.93483">
        <ele>107.17</ele>
        <time>2018-03-04T09:11:07Z</time>
      </trkpt>
      <trkpt lat="49.18896" lon="1.93488">
        <ele>107.87</ele>
        <time>2018-03-04T09:11:27Z</time>
      </trkpt>
      <trkpt lat="49.18916" lon="1.93493">
        <ele>108.4</ele>
        <time>2018-03-04T09:11:41Z</time>
      </trkpt>
      <trkpt lat="49.18934" lon="1.93496">
        <ele>108.41</ele>
        <time>2018-03-04T09:11:56Z</time>
      </trkpt>
      <trkpt lat="49.18936" lon="1.935">
        <ele>108.63</ele>
        <time>2018-03-04T09:12:26Z</time>
      </trkpt>
      <trkpt lat="49.18934" lon="1.93503">
        <ele>108.88</ele>
        <time>2018-03-04T09:12:52Z</time>
      </trkpt>
      <trkpt lat="49.1894" lon="1.93497">
        <ele>108.93</ele>
        <time>2018-03-04T09:13:16Z</time>
      </trkpt>
      <trkpt lat="49.18944" lon="1.93491">
        <ele>109.31</ele>
        <time>2018-03-04T09:13:38Z</time>
      </trkpt>
      <trkpt lat="49.18942" lon="1.9349">
        <ele>109.54</ele>
        <time>2018-03-04T09:14:02Z</time>
      </trkpt>
      <trkpt lat="49.18955" lon="1.93492">
        <ele>109.53</ele>
        <time>2018-03-04T09:14:25Z</time>
      </trkpt>
      <trkpt lat="49.18974" lon="1.93497">
        <ele>109.52</ele>
        <time>2018-03-04T09:14:44Z</time>
      </trkpt>
      <trkpt lat="49.18996" lon="1.93504">
        <ele>109.19</ele>
        <time>2018-03-04T09:15:06Z</time>
      </trkpt>
      <trkpt lat="49.19019" lon="1.93506">
        <ele>108.21</ele>
        <time>2018-03-04T09:15:29Z</time>
      </trkpt>
      <trkpt lat="49.19043" lon="1.93508">
        <ele>107.41</ele>
        <time>2018-03-04T09:15:52Z</time>
      </trkpt>
      <trkpt lat="49.19063" lon="1.93509">
        <ele>106.23</ele>
        <time>2018-03-04T09:16:13Z</time>
      </trkpt>
      <trkpt lat="49.19092" lon="1.9351">
        <ele>105.02</ele>
        <time>2018-03-04T09:16:32Z</time>
      </trkpt>
      <trkpt lat="49.19112" lon="1.93512">
        <ele>104.33</ele>
        <time>2018-03-04T09:16:47Z</time>
      </trkpt>
      <trkpt lat="49.19132" lon="1.93511">
        <ele>103.64</ele>
        <time>2018-03-04T09:17:02Z</time>
      </trkpt>
      <trkpt lat="49.19153" lon="1.9351">
        <ele>102.55</ele>
        <time>2018-03-04T09:17:18Z</time>
      </trkpt>
      <trkpt lat="49.19174" lon="1.93507">
        <ele>102.03</ele>
        <time>2018-03-04T09:17:35Z</time>
      </trkpt>
      <trkpt lat="49.19193" lon="1.93505">
        <ele>101</ele>
        <time>2018-03-04T09:17:49Z</time>
      </trkpt>
      <trkpt lat="49.19205" lon="1.93501">
        <ele>100.59</ele>
        <time>2018-03-04T09:18:03Z</time>
      </trkpt>
      <trkpt lat="49.1922" lon="1.935">
        <ele>99.87</ele>
        <time>2018-03-04T09:18:17Z</time>
      </trkpt>
      <trkpt lat="49.19235" lon="1.93498">
        <ele>98.91</ele>
        <time>2018-03-04T09:18:31Z</time>
      </trkpt>
      <trkpt lat="49.19251" lon="1.93501">
        <ele>98.49</ele>
        <time>2018-03-04T09:18:44Z</time>
      </trkpt>
      <trkpt lat="49.1927" lon="1.93503">
        <ele>97.54</ele>
        <time>2018-03-04T09:18:59Z</time>
      </trkpt>
      <trkpt lat="49.19288" lon="1.93506">
        <ele>95.79</ele>
        <time>2018-03-04T09:19:13Z</time>
      </trkpt>
      <trkpt lat="49.19304" lon="1.93508">
        <ele>95.21</ele>
        <time>2018-03-04T09:19:30Z</time>
      </trkpt>
      <trkpt lat="49.19319" lon="1.93516">
        <ele>94.57</ele>
        <time>2018-03-04T09:19:43Z</time>
      </trkpt>
      <trkpt lat="49.19332" lon="1.93525">
        <ele>93.11</ele>
        <time>2018-03-04T09:19:55Z</time>
      </trkpt>
      <trkpt lat="49.19347" lon="1.93541">
        <ele>92.69</ele>
        <time>2018-03-04T09:20:11Z</time>
      </trkpt>
      <trkpt lat="49.19363" lon="1.93559">
        <ele>91.57</ele>
        <time>2018-03-04T09:20:31Z</time>
      </trkpt>
      <trkpt lat="49.19368" lon="1.93566">
        <ele>91.03</ele>
        <time>2018-03-04T09:20:42Z</time>
      </trkpt>
      <trkpt lat="49.19379" lon="1.93562">
        <ele>90.9</ele>
        <time>2018-03-04T09:20:52Z</time>
      </trkpt>
      <trkpt lat="49.19379" lon="1.93534">
        <ele>91.06</ele>
        <time>2018-03-04T09:21:09Z</time>
      </trkpt>
      <trkpt lat="49.19378" lon="1.93511">
        <ele>90.91</ele>
        <time>2018-03-04T09:21:23Z</time>
      </trkpt>
      <trkpt lat="49.19378" lon="1.93506">
        <ele>90.53</ele>
        <time>2018-03-04T09:21:26Z</time>
      </trkpt>
      <trkpt lat="49.19379" lon="1.93499">
        <ele>90.91</ele>
        <time>2018-03-04T09:21:30Z</time>
      </trkpt>
      <trkpt lat="49.19379" lon="1.93494">
        <ele>91.37</ele>
        <time>2018-03-04T09:21:33Z</time>
      </trkpt>
      <trkpt lat="49.19379" lon="1.93481">
        <ele>90.98</ele>
        <time>2018-03-04T09:21:40Z</time>
      </trkpt>
      <trkpt lat="49.19383" lon="1.93448">
        <ele>90.73</ele>
        <time>2018-03-04T09:22:00Z</time>
      </trkpt>
      <trkpt lat="49.19385" lon="1.9344">
        <ele>91.21</ele>
        <time>2018-03-04T09:22:04Z</time>
      </trkpt>
      <trkpt lat="49.19388" lon="1.93415">
        <ele>92.34</ele>
        <time>2018-03-04T09:22:19Z</time>
      </trkpt>
      <trkpt lat="49.19392" lon="1.93391">
        <ele>92.61</ele>
        <time>2018-03-04T09:22:34Z</time>
      </trkpt>
      <trkpt lat="49.19392" lon="1.93389">
        <ele>92.08</ele>
        <time>2018-03-04T09:22:35Z</time>
      </trkpt>
      <trkpt lat="49.19397" lon="1.93365">
        <ele>93.1</ele>
        <time>2018-03-04T09:22:50Z</time>
      </trkpt>
      <trkpt lat="49.19402" lon="1.9334">
        <ele>94.11</ele>
        <time>2018-03-04T09:23:05Z</time>
      </trkpt>
      <trkpt lat="49.19405" lon="1.9332">
        <ele>95.62</ele>
        <time>2018-03-04T09:23:17Z</time>
      </trkpt>
      <trkpt lat="49.19406" lon="1.93307">
        <ele>95.51</ele>
        <time>2018-03-04T09:23:25Z</time>
      </trkpt>
      <trkpt lat="49.19406" lon="1.93298">
        <ele>95.65</ele>
        <time>2018-03-04T09:23:30Z</time>
      </trkpt>
      <trkpt lat="49.19407" lon="1.93279">
        <ele>96.49</ele>
        <time>2018-03-04T09:23:43Z</time>
      </trkpt>
      <trkpt lat="49.19407" lon="1.93274">
        <ele>95.89</ele>
        <time>2018-03-04T09:23:46Z</time>
      </trkpt>
      <trkpt lat="49.19407" lon="1.93266">
        <ele>95.64</ele>
        <time>2018-03-04T09:23:51Z</time>
      </trkpt>
      <trkpt lat="49.19408" lon="1.93253">
        <ele>96.51</ele>
        <time>2018-03-04T09:23:59Z</time>
      </trkpt>
      <trkpt lat="49.19407" lon="1.9323">
        <ele>96.46</ele>
        <time>2018-03-04T09:24:13Z</time>
      </trkpt>
      <trkpt lat="49.19409" lon="1.93206">
        <ele>98.03</ele>
        <time>2018-03-04T09:24:29Z</time>
      </trkpt>
      <trkpt lat="49.19412" lon="1.93203">
        <ele>97.88</ele>
        <time>2018-03-04T09:24:33Z</time>
      </trkpt>
      <trkpt lat="49.19413" lon="1.932">
        <ele>98.52</ele>
        <time>2018-03-04T09:24:35Z</time>
      </trkpt>
      <trkpt lat="49.19419" lon="1.93193">
        <ele>99</ele>
        <time>2018-03-04T09:24:42Z</time>
      </trkpt>
      <trkpt lat="49.1943" lon="1.93176">
        <ele>99.82</ele>
        <time>2018-03-04T09:24:57Z</time>
      </trkpt>
      <trkpt lat="49.19439" lon="1.93164">
        <ele>100.37</ele>
        <time>2018-03-04T09:25:10Z</time>
      </trkpt>
      <trkpt lat="49.19445" lon="1.93158">
        <ele>100.39</ele>
        <time>2018-03-04T09:25:16Z</time>
      </trkpt>
      <trkpt lat="49.19463" lon="1.93139">
        <ele>101.75</ele>
        <time>2018-03-04T09:25:35Z</time>
      </trkpt>
      <trkpt lat="49.19475" lon="1.93136">
        <ele>103.29</ele>
        <time>2018-03-04T09:25:51Z</time>
      </trkpt>
      <trkpt lat="49.19476" lon="1.93129">
        <ele>103.74</ele>
        <time>2018-03-04T09:26:10Z</time>
      </trkpt>
      <trkpt lat="49.19473" lon="1.93128">
        <ele>102.99</ele>
        <time>2018-03-04T09:26:19Z</time>
      </trkpt>
      <trkpt lat="49.19469" lon="1.93129">
        <ele>103.48</ele>
        <time>2018-03-04T09:26:31Z</time>
      </trkpt>
      <trkpt lat="49.19468" lon="1.93127">
        <ele>103.03</ele>
        <time>2018-03-04T09:26:33Z</time>
      </trkpt>
      <trkpt lat="49.19465" lon="1.93117">
        <ele>103.49</ele>
        <time>2018-03-04T09:26:42Z</time>
      </trkpt>
      <trkpt lat="49.1947" lon="1.93108">
        <ele>104.5</ele>
        <time>2018-03-04T09:26:49Z</time>
      </trkpt>
      <trkpt lat="49.19476" lon="1.93097">
        <ele>104.3</ele>
        <time>2018-03-04T09:26:59Z</time>
      </trkpt>
      <trkpt lat="49.19477" lon="1.93093">
        <ele>106.15</ele>
        <time>2018-03-04T09:27:03Z</time>
      </trkpt>
      <trkpt lat="49.19487" lon="1.93072">
        <ele>106.96</ele>
        <time>2018-03-04T09:27:19Z</time>
      </trkpt>
      <trkpt lat="49.19501" lon="1.93055">
        <ele>109.14</ele>
        <time>2018-03-04T09:27:35Z</time>
      </trkpt>
      <trkpt lat="49.19502" lon="1.93054">
        <ele>109.1</ele>
        <time>2018-03-04T09:27:36Z</time>
      </trkpt>
      <trkpt lat="49.19513" lon="1.93036">
        <ele>110.4</ele>
        <time>2018-03-04T09:27:50Z</time>
      </trkpt>
      <trkpt lat="49.19521" lon="1.93018">
        <ele>111.55</ele>
        <time>2018-03-04T09:28:03Z</time>
      </trkpt>
      <trkpt lat="49.19531" lon="1.93008">
        <ele>113.21</ele>
        <time>2018-03-04T09:28:18Z</time>
      </trkpt>
      <trkpt lat="49.19535" lon="1.92999">
        <ele>112.9</ele>
        <time>2018-03-04T09:28:27Z</time>
      </trkpt>
      <trkpt lat="49.19537" lon="1.92994">
        <ele>113.8</ele>
        <time>2018-03-04T09:28:30Z</time>
      </trkpt>
      <trkpt lat="49.19539" lon="1.92991">
        <ele>114.15</ele>
        <time>2018-03-04T09:28:32Z</time>
      </trkpt>
      <trkpt lat="49.19541" lon="1.92964">
        <ele>115.59</ele>
        <time>2018-03-04T09:28:48Z</time>
      </trkpt>
      <trkpt lat="49.1954" lon="1.92958">
        <ele>116.36</ele>
        <time>2018-03-04T09:28:52Z</time>
      </trkpt>
      <trkpt lat="49.19542" lon="1.92947">
        <ele>117.66</ele>
        <time>2018-03-04T09:29:08Z</time>
      </trkpt>
      <trkpt lat="49.1954" lon="1.92931">
        <ele>118.16</ele>
        <time>2018-03-04T09:29:26Z</time>
      </trkpt>
      <trkpt lat="49.19542" lon="1.92937">
        <ele>118.05</ele>
        <time>2018-03-04T09:29:46Z</time>
      </trkpt>
      <trkpt lat="49.19542" lon="1.92935">
        <ele>117.6</ele>
        <time>2018-03-04T09:30:13Z</time>
      </trkpt>
      <trkpt lat="49.19543" lon="1.92936">
        <ele>117.81</ele>
        <time>2018-03-04T09:30:39Z</time>
      </trkpt>
      <trkpt lat="49.1954" lon="1.92937">
        <ele>117.81</ele>
        <time>2018-03-04T09:31:00Z</time>
      </trkpt>
      <trkpt lat="49.19537" lon="1.9293">
        <ele>118.88</ele>
        <time>2018-03-04T09:31:18Z</time>
      </trkpt>
      <trkpt lat="49.19536" lon="1.92926">
        <ele>118.85</ele>
        <time>2018-03-04T09:31:24Z</time>
      </trkpt>
      <trkpt lat="49.19535" lon="1.92918">
        <ele>119.48</ele>
        <time>2018-03-04T09:31:30Z</time>
      </trkpt>
      <trkpt lat="49.19533" lon="1.92901">
        <ele>119.65</ele>
        <time>2018-03-04T09:31:44Z</time>
      </trkpt>
      <trkpt lat="49.19534" lon="1.92884">
        <ele>120.92</ele>
        <time>2018-03-04T09:32:05Z</time>
      </trkpt>
      <trkpt lat="49.19532" lon="1.92876">
        <ele>120.41</ele>
        <time>2018-03-04T09:32:15Z</time>
      </trkpt>
      <trkpt lat="49.19532" lon="1.92863">
        <ele>120.93</ele>
        <time>2018-03-04T09:32:27Z</time>
      </trkpt>
      <trkpt lat="49.19532" lon="1.9284">
        <ele>121.43</ele>
        <time>2018-03-04T09:32:41Z</time>
      </trkpt>
      <trkpt lat="49.19533" lon="1.92826">
        <ele>122.09</ele>
        <time>2018-03-04T09:32:47Z</time>
      </trkpt>
      <trkpt lat="49.19535" lon="1.92804">
        <ele>121.45</ele>
        <time>2018-03-04T09:33:03Z</time>
      </trkpt>
      <trkpt lat="49.19536" lon="1.9279">
        <ele>120.94</ele>
        <time>2018-03-04T09:33:20Z</time>
      </trkpt>
      <trkpt lat="49.19536" lon="1.92789">
        <ele>120.9</ele>
        <time>2018-03-04T09:33:21Z</time>
      </trkpt>
      <trkpt lat="49.19536" lon="1.92773">
        <ele>120.81</ele>
        <time>2018-03-04T09:33:30Z</time>
      </trkpt>
      <trkpt lat="49.19527" lon="1.92749">
        <ele>120.6</ele>
        <time>2018-03-04T09:33:45Z</time>
      </trkpt>
      <trkpt lat="49.19519" lon="1.92719">
        <ele>120.99</ele>
        <time>2018-03-04T09:34:06Z</time>
      </trkpt>
      <trkpt lat="49.19516" lon="1.92706">
        <ele>120.33</ele>
        <time>2018-03-04T09:34:14Z</time>
      </trkpt>
      <trkpt lat="49.19512" lon="1.9269">
        <ele>119.91</ele>
        <time>2018-03-04T09:34:23Z</time>
      </trkpt>
      <trkpt lat="49.19509" lon="1.92679">
        <ele>119.59</ele>
        <time>2018-03-04T09:34:29Z</time>
      </trkpt>
      <trkpt lat="49.19502" lon="1.92654">
        <ele>119.85</ele>
        <time>2018-03-04T09:34:42Z</time>
      </trkpt>
      <trkpt lat="49.19502" lon="1.92653">
        <ele>119.59</ele>
        <time>2018-03-04T09:34:43Z</time>
      </trkpt>
      <trkpt lat="49.19491" lon="1.92636">
        <ele>119.44</ele>
        <time>2018-03-04T09:34:56Z</time>
      </trkpt>
      <trkpt lat="49.1948" lon="1.92623">
        <ele>118.71</ele>
        <time>2018-03-04T09:35:11Z</time>
      </trkpt>
      <trkpt lat="49.1947" lon="1.9262">
        <ele>117.86</ele>
        <time>2018-03-04T09:35:21Z</time>
      </trkpt>
      <trkpt lat="49.19464" lon="1.92621">
        <ele>117.26</ele>
        <time>2018-03-04T09:35:25Z</time>
      </trkpt>
      <trkpt lat="49.19446" lon="1.92603">
        <ele>116.25</ele>
        <time>2018-03-04T09:35:41Z</time>
      </trkpt>
      <trkpt lat="49.19444" lon="1.92599">
        <ele>114.88</ele>
        <time>2018-03-04T09:35:45Z</time>
      </trkpt>
      <trkpt lat="49.19433" lon="1.92586">
        <ele>112.65</ele>
        <time>2018-03-04T09:36:00Z</time>
      </trkpt>
      <trkpt lat="49.19432" lon="1.92583">
        <ele>112.66</ele>
        <time>2018-03-04T09:36:02Z</time>
      </trkpt>
      <trkpt lat="49.19416" lon="1.92565">
        <ele>110.36</ele>
        <time>2018-03-04T09:36:17Z</time>
      </trkpt>
      <trkpt lat="49.19413" lon="1.92562">
        <ele>110.12</ele>
        <time>2018-03-04T09:36:19Z</time>
      </trkpt>
      <trkpt lat="49.194" lon="1.92548">
        <ele>107.84</ele>
        <time>2018-03-04T09:36:33Z</time>
      </trkpt>
      <trkpt lat="49.19391" lon="1.92543">
        <ele>107.68</ele>
        <time>2018-03-04T09:36:48Z</time>
      </trkpt>
      <trkpt lat="49.19385" lon="1.92537">
        <ele>106.56</ele>
        <time>2018-03-04T09:36:57Z</time>
      </trkpt>
      <trkpt lat="49.19374" lon="1.92526">
        <ele>104.62</ele>
        <time>2018-03-04T09:37:09Z</time>
      </trkpt>
      <trkpt lat="49.19361" lon="1.92507">
        <ele>102.15</ele>
        <time>2018-03-04T09:37:29Z</time>
      </trkpt>
      <trkpt lat="49.19347" lon="1.92499">
        <ele>101.28</ele>
        <time>2018-03-04T09:37:52Z</time>
      </trkpt>
      <trkpt lat="49.1933" lon="1.9249">
        <ele>99.14</ele>
        <time>2018-03-04T09:38:12Z</time>
      </trkpt>
      <trkpt lat="49.19311" lon="1.92477">
        <ele>97.45</ele>
        <time>2018-03-04T09:38:31Z</time>
      </trkpt>
      <trkpt lat="49.19291" lon="1.92455">
        <ele>96.44</ele>
        <time>2018-03-04T09:38:49Z</time>
      </trkpt>
      <trkpt lat="49.19277" lon="1.92446">
        <ele>95.36</ele>
        <time>2018-03-04T09:39:09Z</time>
      </trkpt>
      <trkpt lat="49.19263" lon="1.92438">
        <ele>94.36</ele>
        <time>2018-03-04T09:39:30Z</time>
      </trkpt>
      <trkpt lat="49.19255" lon="1.92434">
        <ele>93.06</ele>
        <time>2018-03-04T09:39:49Z</time>
      </trkpt>
      <trkpt lat="49.19241" lon="1.92429">
        <ele>92.84</ele>
        <time>2018-03-04T09:40:03Z</time>
      </trkpt>
      <trkpt lat="49.19229" lon="1.92421">
        <ele>91.99</ele>
        <time>2018-03-04T09:40:17Z</time>
      </trkpt>
      <trkpt lat="49.19225" lon="1.92416">
        <ele>91.85</ele>
        <time>2018-03-04T09:40:24Z</time>
      </trkpt>
      <trkpt lat="49.19211" lon="1.92403">
        <ele>90.51</ele>
        <time>2018-03-04T09:40:42Z</time>
      </trkpt>
      <trkpt lat="49.19201" lon="1.92392">
        <ele>90</ele>
        <time>2018-03-04T09:41:00Z</time>
      </trkpt>
      <trkpt lat="49.19186" lon="1.92376">
        <ele>88.82</ele>
        <time>2018-03-04T09:41:20Z</time>
      </trkpt>
      <trkpt lat="49.19166" lon="1.92356">
        <ele>87.59</ele>
        <time>2018-03-04T09:41:41Z</time>
      </trkpt>
      <trkpt lat="49.19147" lon="1.92332">
        <ele>86.88</ele>
        <time>2018-03-04T09:42:02Z</time>
      </trkpt>
      <trkpt lat="49.19129" lon="1.92309">
        <ele>85.92</ele>
        <time>2018-03-04T09:42:24Z</time>
      </trkpt>
      <trkpt lat="49.19112" lon="1.92289">
        <ele>84.28</ele>
        <time>2018-03-04T09:42:44Z</time>
      </trkpt>
      <trkpt lat="49.19095" lon="1.92269">
        <ele>83.3</ele>
        <time>2018-03-04T09:43:02Z</time>
      </trkpt>
      <trkpt lat="49.19081" lon="1.92251">
        <ele>82.12</ele>
        <time>2018-03-04T09:43:19Z</time>
      </trkpt>
      <trkpt lat="49.19069" lon="1.92231">
        <ele>80.57</ele>
        <time>2018-03-04T09:43:39Z</time>
      </trkpt>
      <trkpt lat="49.19056" lon="1.92211">
        <ele>78.79</ele>
        <time>2018-03-04T09:43:57Z</time>
      </trkpt>
      <trkpt lat="49.19036" lon="1.92196">
        <ele>76.8</ele>
        <time>2018-03-04T09:44:17Z</time>
      </trkpt>
      <trkpt lat="49.19029" lon="1.92191">
        <ele>76.7</ele>
        <time>2018-03-04T09:44:24Z</time>
      </trkpt>
      <trkpt lat="49.19021" lon="1.92182">
        <ele>76.18</ele>
        <time>2018-03-04T09:44:47Z</time>
      </trkpt>
      <trkpt lat="49.19019" lon="1.9218">
        <ele>76.59</ele>
        <time>2018-03-04T09:44:54Z</time>
      </trkpt>
      <trkpt lat="49.19014" lon="1.92183">
        <ele>75.5</ele>
        <time>2018-03-04T09:45:14Z</time>
      </trkpt>
      <trkpt lat="49.19011" lon="1.92182">
        <ele>74.83</ele>
        <time>2018-03-04T09:45:37Z</time>
      </trkpt>
      <trkpt lat="49.19012" lon="1.92181">
        <ele>75.45</ele>
        <time>2018-03-04T09:46:01Z</time>
      </trkpt>
      <trkpt lat="49.19009" lon="1.92178">
        <ele>74.56</ele>
        <time>2018-03-04T09:46:22Z</time>
      </trkpt>
      <trkpt lat="49.18999" lon="1.92167">
        <ele>73.1</ele>
        <time>2018-03-04T09:46:41Z</time>
      </trkpt>
      <trkpt lat="49.18985" lon="1.92154">
        <ele>71.67</ele>
        <time>2018-03-04T09:47:02Z</time>
      </trkpt>
      <trkpt lat="49.18972" lon="1.92136">
        <ele>70.49</ele>
        <time>2018-03-04T09:47:22Z</time>
      </trkpt>
      <trkpt lat="49.18969" lon="1.92132">
        <ele>69.81</ele>
        <time>2018-03-04T09:47:26Z</time>
      </trkpt>
      <trkpt lat="49.18961" lon="1.92116">
        <ele>68.6</ele>
        <time>2018-03-04T09:47:42Z</time>
      </trkpt>
      <trkpt lat="49.18948" lon="1.92083">
        <ele>67.85</ele>
        <time>2018-03-04T09:48:06Z</time>
      </trkpt>
      <trkpt lat="49.18948" lon="1.92053">
        <ele>67.89</ele>
        <time>2018-03-04T09:48:22Z</time>
      </trkpt>
      <trkpt lat="49.18952" lon="1.92022">
        <ele>68.31</ele>
        <time>2018-03-04T09:48:45Z</time>
      </trkpt>
      <trkpt lat="49.18954" lon="1.91991">
        <ele>68.65</ele>
        <time>2018-03-04T09:49:05Z</time>
      </trkpt>
      <trkpt lat="49.18954" lon="1.91983">
        <ele>69.1</ele>
        <time>2018-03-04T09:49:10Z</time>
      </trkpt>
      <trkpt lat="49.18948" lon="1.91959">
        <ele>69.44</ele>
        <time>2018-03-04T09:49:28Z</time>
      </trkpt>
      <trkpt lat="49.18946" lon="1.91931">
        <ele>69.39</ele>
        <time>2018-03-04T09:49:44Z</time>
      </trkpt>
      <trkpt lat="49.18951" lon="1.91914">
        <ele>70.05</ele>
        <time>2018-03-04T09:49:54Z</time>
      </trkpt>
      <trkpt lat="49.18956" lon="1.91895">
        <ele>70.44</ele>
        <time>2018-03-04T09:50:09Z</time>
      </trkpt>
      <trkpt lat="49.18968" lon="1.91868">
        <ele>70.68</ele>
        <time>2018-03-04T09:50:30Z</time>
      </trkpt>
      <trkpt lat="49.18978" lon="1.91851">
        <ele>70.55</ele>
        <time>2018-03-04T09:50:46Z</time>
      </trkpt>
      <trkpt lat="49.18985" lon="1.9184">
        <ele>71.07</ele>
        <time>2018-03-04T09:51:04Z</time>
      </trkpt>
      <trkpt lat="49.18997" lon="1.91809">
        <ele>69.97</ele>
        <time>2018-03-04T09:51:25Z</time>
      </trkpt>
      <trkpt lat="49.1901" lon="1.9179">
        <ele>68.07</ele>
        <time>2018-03-04T09:51:40Z</time>
      </trkpt>
      <trkpt lat="49.19025" lon="1.91772">
        <ele>66.6</ele>
        <time>2018-03-04T09:51:56Z</time>
      </trkpt>
      <trkpt lat="49.19035" lon="1.91753">
        <ele>64.69</ele>
        <time>2018-03-04T09:52:11Z</time>
      </trkpt>
      <trkpt lat="49.19047" lon="1.91733">
        <ele>63.91</ele>
        <time>2018-03-04T09:52:27Z</time>
      </trkpt>
      <trkpt lat="49.19055" lon="1.91717">
        <ele>62.1</ele>
        <time>2018-03-04T09:52:43Z</time>
      </trkpt>
      <trkpt lat="49.1906" lon="1.91712">
        <ele>62.43</ele>
        <time>2018-03-04T09:52:52Z</time>
      </trkpt>
      <trkpt lat="49.19063" lon="1.91693">
        <ele>61.78</ele>
        <time>2018-03-04T09:53:06Z</time>
      </trkpt>
      <trkpt lat="49.19059" lon="1.91689">
        <ele>61.22</ele>
        <time>2018-03-04T09:53:15Z</time>
      </trkpt>
      <trkpt lat="49.19055" lon="1.91682">
        <ele>61.57</ele>
        <time>2018-03-04T09:53:33Z</time>
      </trkpt>
      <trkpt lat="49.19054" lon="1.9168">
        <ele>61.76</ele>
        <time>2018-03-04T09:53:36Z</time>
      </trkpt>
      <trkpt lat="49.19052" lon="1.9167">
        <ele>61.72</ele>
        <time>2018-03-04T09:53:45Z</time>
      </trkpt>
      <trkpt lat="49.19049" lon="1.91657">
        <ele>61.13</ele>
        <time>2018-03-04T09:57:17Z</time>
      </trkpt>
      <trkpt lat="49.19046" lon="1.91653">
        <ele>61.27</ele>
        <time>2018-03-04T09:57:43Z</time>
      </trkpt>
      <trkpt lat="49.19037" lon="1.91637">
        <ele>61.43</ele>
        <time>2018-03-04T09:58:01Z</time>
      </trkpt>
      <trkpt lat="49.19033" lon="1.91631">
        <ele>60.65</ele>
        <time>2018-03-04T09:58:08Z</time>
      </trkpt>
      <trkpt lat="49.19019" lon="1.91616">
        <ele>61.31</ele>
        <time>2018-03-04T09:58:27Z</time>
      </trkpt>
      <trkpt lat="49.19014" lon="1.91616">
        <ele>60.68</ele>
        <time>2018-03-04T09:58:42Z</time>
      </trkpt>
      <trkpt lat="49.19004" lon="1.91613">
        <ele>61.15</ele>
        <time>2018-03-04T09:58:59Z</time>
      </trkpt>
      <trkpt lat="49.18991" lon="1.91593">
        <ele>60.77</ele>
        <time>2018-03-04T09:59:18Z</time>
      </trkpt>
      <trkpt lat="49.18979" lon="1.91573">
        <ele>61.62</ele>
        <time>2018-03-04T09:59:34Z</time>
      </trkpt>
      <trkpt lat="49.18967" lon="1.91549">
        <ele>61.37</ele>
        <time>2018-03-04T09:59:50Z</time>
      </trkpt>
      <trkpt lat="49.18962" lon="1.91535">
        <ele>61.72</ele>
        <time>2018-03-04T10:00:05Z</time>
      </trkpt>
      <trkpt lat="49.18969" lon="1.91525">
        <ele>61.6</ele>
        <time>2018-03-04T10:00:25Z</time>
      </trkpt>
      <trkpt lat="49.18979" lon="1.91511">
        <ele>62.44</ele>
        <time>2018-03-04T10:00:47Z</time>
      </trkpt>
      <trkpt lat="49.18988" lon="1.91492">
        <ele>64.41</ele>
        <time>2018-03-04T10:01:06Z</time>
      </trkpt>
      <trkpt lat="49.18988" lon="1.9149">
        <ele>64.22</ele>
        <time>2018-03-04T10:01:07Z</time>
      </trkpt>
      <trkpt lat="49.18995" lon="1.91465">
        <ele>64.92</ele>
        <time>2018-03-04T10:01:25Z</time>
      </trkpt>
      <trkpt lat="49.19004" lon="1.91439">
        <ele>66.08</ele>
        <time>2018-03-04T10:01:44Z</time>
      </trkpt>
      <trkpt lat="49.1901" lon="1.91414">
        <ele>68.48</ele>
        <time>2018-03-04T10:02:04Z</time>
      </trkpt>
      <trkpt lat="49.19016" lon="1.91384">
        <ele>68.82</ele>
        <time>2018-03-04T10:02:25Z</time>
      </trkpt>
      <trkpt lat="49.19019" lon="1.91352">
        <ele>70.65</ele>
        <time>2018-03-04T10:02:48Z</time>
      </trkpt>
      <trkpt lat="49.19019" lon="1.91326">
        <ele>71.02</ele>
        <time>2018-03-04T10:03:08Z</time>
      </trkpt>
      <trkpt lat="49.19019" lon="1.91298">
        <ele>72.01</ele>
        <time>2018-03-04T10:03:28Z</time>
      </trkpt>
      <trkpt lat="49.19019" lon="1.91267">
        <ele>72.83</ele>
        <time>2018-03-04T10:03:47Z</time>
      </trkpt>
      <trkpt lat="49.19023" lon="1.91243">
        <ele>73.85</ele>
        <time>2018-03-04T10:04:03Z</time>
      </trkpt>
      <trkpt lat="49.19026" lon="1.91208">
        <ele>75.58</ele>
        <time>2018-03-04T10:04:25Z</time>
      </trkpt>
      <trkpt lat="49.19028" lon="1.91182">
        <ele>76.79</ele>
        <time>2018-03-04T10:04:44Z</time>
      </trkpt>
      <trkpt lat="49.19034" lon="1.91153">
        <ele>77.48</ele>
        <time>2018-03-04T10:05:04Z</time>
      </trkpt>
      <trkpt lat="49.19038" lon="1.91126">
        <ele>78.45</ele>
        <time>2018-03-04T10:05:22Z</time>
      </trkpt>
      <trkpt lat="49.19045" lon="1.91092">
        <ele>79.33</ele>
        <time>2018-03-04T10:05:44Z</time>
      </trkpt>
      <trkpt lat="49.19054" lon="1.91064">
        <ele>81.21</ele>
        <time>2018-03-04T10:06:05Z</time>
      </trkpt>
      <trkpt lat="49.19058" lon="1.91041">
        <ele>81.66</ele>
        <time>2018-03-04T10:06:21Z</time>
      </trkpt>
      <trkpt lat="49.19062" lon="1.9103">
        <ele>81.62</ele>
        <time>2018-03-04T10:06:42Z</time>
      </trkpt>
      <trkpt lat="49.19064" lon="1.91026">
        <ele>81.63</ele>
        <time>2018-03-04T10:06:51Z</time>
      </trkpt>
      <trkpt lat="49.19064" lon="1.91005">
        <ele>82.23</ele>
        <time>2018-03-04T10:07:08Z</time>
      </trkpt>
      <trkpt lat="49.19064" lon="1.91004">
        <ele>81.62</ele>
        <time>2018-03-04T10:07:09Z</time>
      </trkpt>
      <trkpt lat="49.19064" lon="1.9099">
        <ele>82.08</ele>
        <time>2018-03-04T10:07:18Z</time>
      </trkpt>
      <trkpt lat="49.19065" lon="1.90985">
        <ele>82.23</ele>
        <time>2018-03-04T10:07:21Z</time>
      </trkpt>
      <trkpt lat="49.19064" lon="1.90977">
        <ele>82.4</ele>
        <time>2018-03-04T10:07:26Z</time>
      </trkpt>
      <trkpt lat="49.19064" lon="1.9097">
        <ele>82.45</ele>
        <time>2018-03-04T10:07:30Z</time>
      </trkpt>
      <trkpt lat="49.19063" lon="1.90962">
        <ele>82.61</ele>
        <time>2018-03-04T10:07:34Z</time>
      </trkpt>
      <trkpt lat="49.19063" lon="1.90953">
        <ele>82.47</ele>
        <time>2018-03-04T10:07:39Z</time>
      </trkpt>
      <trkpt lat="49.1906" lon="1.9092">
        <ele>83.38</ele>
        <time>2018-03-04T10:07:56Z</time>
      </trkpt>
      <trkpt lat="49.19056" lon="1.90885">
        <ele>84.13</ele>
        <time>2018-03-04T10:08:13Z</time>
      </trkpt>
      <trkpt lat="49.19052" lon="1.90852">
        <ele>84.02</ele>
        <time>2018-03-04T10:08:29Z</time>
      </trkpt>
      <trkpt lat="49.19048" lon="1.90822">
        <ele>83.75</ele>
        <time>2018-03-04T10:08:45Z</time>
      </trkpt>
      <trkpt lat="49.19044" lon="1.90793">
        <ele>83.21</ele>
        <time>2018-03-04T10:09:03Z</time>
      </trkpt>
      <trkpt lat="49.19042" lon="1.90766">
        <ele>82.66</ele>
        <time>2018-03-04T10:09:20Z</time>
      </trkpt>
      <trkpt lat="49.19041" lon="1.90747">
        <ele>81.77</ele>
        <time>2018-03-04T10:09:38Z</time>
      </trkpt>
      <trkpt lat="49.1904" lon="1.90746">
        <ele>81.66</ele>
        <time>2018-03-04T10:09:47Z</time>
      </trkpt>
      <trkpt lat="49.19039" lon="1.90742">
        <ele>81.52</ele>
        <time>2018-03-04T10:09:49Z</time>
      </trkpt>
      <trkpt lat="49.19037" lon="1.90717">
        <ele>81.11</ele>
        <time>2018-03-04T10:10:04Z</time>
      </trkpt>
      <trkpt lat="49.19033" lon="1.90695">
        <ele>81.04</ele>
        <time>2018-03-04T10:10:17Z</time>
      </trkpt>
      <trkpt lat="49.19032" lon="1.90683">
        <ele>81.46</ele>
        <time>2018-03-04T10:10:25Z</time>
      </trkpt>
      <trkpt lat="49.1903" lon="1.90672">
        <ele>81.82</ele>
        <time>2018-03-04T10:10:31Z</time>
      </trkpt>
      <trkpt lat="49.19029" lon="1.90647">
        <ele>81.69</ele>
        <time>2018-03-04T10:10:47Z</time>
      </trkpt>
      <trkpt lat="49.19026" lon="1.90619">
        <ele>83.23</ele>
        <time>2018-03-04T10:11:04Z</time>
      </trkpt>
      <trkpt lat="49.19023" lon="1.90589">
        <ele>83.95</ele>
        <time>2018-03-04T10:11:22Z</time>
      </trkpt>
      <trkpt lat="49.19023" lon="1.90581">
        <ele>84.26</ele>
        <time>2018-03-04T10:11:27Z</time>
      </trkpt>
      <trkpt lat="49.19023" lon="1.90578">
        <ele>84.36</ele>
        <time>2018-03-04T10:11:29Z</time>
      </trkpt>
      <trkpt lat="49.19023" lon="1.90571">
        <ele>84.11</ele>
        <time>2018-03-04T10:11:33Z</time>
      </trkpt>
      <trkpt lat="49.19021" lon="1.90556">
        <ele>84.81</ele>
        <time>2018-03-04T10:11:41Z</time>
      </trkpt>
      <trkpt lat="49.19021" lon="1.90553">
        <ele>84.96</ele>
        <time>2018-03-04T10:11:43Z</time>
      </trkpt>
      <trkpt lat="49.19021" lon="1.9055">
        <ele>85.09</ele>
        <time>2018-03-04T10:11:45Z</time>
      </trkpt>
      <trkpt lat="49.19019" lon="1.90524">
        <ele>85.18</ele>
        <time>2018-03-04T10:12:01Z</time>
      </trkpt>
      <trkpt lat="49.19018" lon="1.90517">
        <ele>84.9</ele>
        <time>2018-03-04T10:12:05Z</time>
      </trkpt>
      <trkpt lat="49.19016" lon="1.90486">
        <ele>85.52</ele>
        <time>2018-03-04T10:12:23Z</time>
      </trkpt>
      <trkpt lat="49.19012" lon="1.90455">
        <ele>85.62</ele>
        <time>2018-03-04T10:12:40Z</time>
      </trkpt>
      <trkpt lat="49.19011" lon="1.90429">
        <ele>85.26</ele>
        <time>2018-03-04T10:12:56Z</time>
      </trkpt>
      <trkpt lat="49.19011" lon="1.90416">
        <ele>85.38</ele>
        <time>2018-03-04T10:13:04Z</time>
      </trkpt>
      <trkpt lat="49.19012" lon="1.90385">
        <ele>86.04</ele>
        <time>2018-03-04T10:13:22Z</time>
      </trkpt>
      <trkpt lat="49.19013" lon="1.90372">
        <ele>85.79</ele>
        <time>2018-03-04T10:13:29Z</time>
      </trkpt>
      <trkpt lat="49.19014" lon="1.90347">
        <ele>86.45</ele>
        <time>2018-03-04T10:13:44Z</time>
      </trkpt>
      <trkpt lat="49.19014" lon="1.90334">
        <ele>86.07</ele>
        <time>2018-03-04T10:13:51Z</time>
      </trkpt>
      <trkpt lat="49.19016" lon="1.90324">
        <ele>86.16</ele>
        <time>2018-03-04T10:13:57Z</time>
      </trkpt>
      <trkpt lat="49.19015" lon="1.90291">
        <ele>85.77</ele>
        <time>2018-03-04T10:14:15Z</time>
      </trkpt>
      <trkpt lat="49.19015" lon="1.90258">
        <ele>86.06</ele>
        <time>2018-03-04T10:14:33Z</time>
      </trkpt>
      <trkpt lat="49.19017" lon="1.90232">
        <ele>86.37</ele>
        <time>2018-03-04T10:14:48Z</time>
      </trkpt>
      <trkpt lat="49.19016" lon="1.9023">
        <ele>86.3</ele>
        <time>2018-03-04T10:14:49Z</time>
      </trkpt>
      <trkpt lat="49.19018" lon="1.90215">
        <ele>86.49</ele>
        <time>2018-03-04T10:14:58Z</time>
      </trkpt>
      <trkpt lat="49.19019" lon="1.90202">
        <ele>86.45</ele>
        <time>2018-03-04T10:15:05Z</time>
      </trkpt>
      <trkpt lat="49.19019" lon="1.90194">
        <ele>86.2</ele>
        <time>2018-03-04T10:15:10Z</time>
      </trkpt>
      <trkpt lat="49.19023" lon="1.90158">
        <ele>86.61</ele>
        <time>2018-03-04T10:15:31Z</time>
      </trkpt>
      <trkpt lat="49.19024" lon="1.90146">
        <ele>86.5</ele>
        <time>2018-03-04T10:15:38Z</time>
      </trkpt>
      <trkpt lat="49.19025" lon="1.90132">
        <ele>86.42</ele>
        <time>2018-03-04T10:15:46Z</time>
      </trkpt>
      <trkpt lat="49.19026" lon="1.90102">
        <ele>86.17</ele>
        <time>2018-03-04T10:16:04Z</time>
      </trkpt>
      <trkpt lat="49.19029" lon="1.90071">
        <ele>86.26</ele>
        <time>2018-03-04T10:16:22Z</time>
      </trkpt>
      <trkpt lat="49.19029" lon="1.90069">
        <ele>86.16</ele>
        <time>2018-03-04T10:16:23Z</time>
      </trkpt>
      <trkpt lat="49.19032" lon="1.90039">
        <ele>87.05</ele>
        <time>2018-03-04T10:16:40Z</time>
      </trkpt>
      <trkpt lat="49.19034" lon="1.90007">
        <ele>87.27</ele>
        <time>2018-03-04T10:16:58Z</time>
      </trkpt>
      <trkpt lat="49.19036" lon="1.8998">
        <ele>87.5</ele>
        <time>2018-03-04T10:17:13Z</time>
      </trkpt>
      <trkpt lat="49.19038" lon="1.8995">
        <ele>87.14</ele>
        <time>2018-03-04T10:17:31Z</time>
      </trkpt>
      <trkpt lat="49.19039" lon="1.89933">
        <ele>87.11</ele>
        <time>2018-03-04T10:17:40Z</time>
      </trkpt>
      <trkpt lat="49.19041" lon="1.89907">
        <ele>87.43</ele>
        <time>2018-03-04T10:17:55Z</time>
      </trkpt>
      <trkpt lat="49.19043" lon="1.89875">
        <ele>87.82</ele>
        <time>2018-03-04T10:18:13Z</time>
      </trkpt>
      <trkpt lat="49.19046" lon="1.89846">
        <ele>88.08</ele>
        <time>2018-03-04T10:18:30Z</time>
      </trkpt>
      <trkpt lat="49.19048" lon="1.89823">
        <ele>87.95</ele>
        <time>2018-03-04T10:18:43Z</time>
      </trkpt>
      <trkpt lat="49.19048" lon="1.89812">
        <ele>88.2</ele>
        <time>2018-03-04T10:18:49Z</time>
      </trkpt>
      <trkpt lat="49.1905" lon="1.89783">
        <ele>88.37</ele>
        <time>2018-03-04T10:19:06Z</time>
      </trkpt>
      <trkpt lat="49.19052" lon="1.89759">
        <ele>88.82</ele>
        <time>2018-03-04T10:19:19Z</time>
      </trkpt>
      <trkpt lat="49.19053" lon="1.89743">
        <ele>88.84</ele>
        <time>2018-03-04T10:19:28Z</time>
      </trkpt>
      <trkpt lat="49.19055" lon="1.89721">
        <ele>88.45</ele>
        <time>2018-03-04T10:19:40Z</time>
      </trkpt>
      <trkpt lat="49.19058" lon="1.89689">
        <ele>89.45</ele>
        <time>2018-03-04T10:19:57Z</time>
      </trkpt>
      <trkpt lat="49.19058" lon="1.89688">
        <ele>89.36</ele>
        <time>2018-03-04T10:19:58Z</time>
      </trkpt>
      <trkpt lat="49.1906" lon="1.89652">
        <ele>90.13</ele>
        <time>2018-03-04T10:20:18Z</time>
      </trkpt>
      <trkpt lat="49.19061" lon="1.89627">
        <ele>90.46</ele>
        <time>2018-03-04T10:20:32Z</time>
      </trkpt>
      <trkpt lat="49.19063" lon="1.89604">
        <ele>90.52</ele>
        <time>2018-03-04T10:20:47Z</time>
      </trkpt>
      <trkpt lat="49.19064" lon="1.89594">
        <ele>91.03</ele>
        <time>2018-03-04T10:20:54Z</time>
      </trkpt>
      <trkpt lat="49.19064" lon="1.89581">
        <ele>90.86</ele>
        <time>2018-03-04T10:21:02Z</time>
      </trkpt>
      <trkpt lat="49.19065" lon="1.89578">
        <ele>91.35</ele>
        <time>2018-03-04T10:21:04Z</time>
      </trkpt>
      <trkpt lat="49.19065" lon="1.89548">
        <ele>91.79</ele>
        <time>2018-03-04T10:21:22Z</time>
      </trkpt>
      <trkpt lat="49.19066" lon="1.89534">
        <ele>91.72</ele>
        <time>2018-03-04T10:21:30Z</time>
      </trkpt>
      <trkpt lat="49.19064" lon="1.89505">
        <ele>92.51</ele>
        <time>2018-03-04T10:21:47Z</time>
      </trkpt>
      <trkpt lat="49.19064" lon="1.89487">
        <ele>93.11</ele>
        <time>2018-03-04T10:21:58Z</time>
      </trkpt>
      <trkpt lat="49.19063" lon="1.89475">
        <ele>93.45</ele>
        <time>2018-03-04T10:22:05Z</time>
      </trkpt>
      <trkpt lat="49.19062" lon="1.89466">
        <ele>93.25</ele>
        <time>2018-03-04T10:22:10Z</time>
      </trkpt>
      <trkpt lat="49.1906" lon="1.89452">
        <ele>93.08</ele>
        <time>2018-03-04T10:22:18Z</time>
      </trkpt>
      <trkpt lat="49.19054" lon="1.89425">
        <ele>93.21</ele>
        <time>2018-03-04T10:22:34Z</time>
      </trkpt>
      <trkpt lat="49.19054" lon="1.8942">
        <ele>93.75</ele>
        <time>2018-03-04T10:22:37Z</time>
      </trkpt>
      <trkpt lat="49.19051" lon="1.89406">
        <ele>93.42</ele>
        <time>2018-03-04T10:22:46Z</time>
      </trkpt>
      <trkpt lat="49.19049" lon="1.89397">
        <ele>93.88</ele>
        <time>2018-03-04T10:22:51Z</time>
      </trkpt>
      <trkpt lat="49.19045" lon="1.89382">
        <ele>93.16</ele>
        <time>2018-03-04T10:23:00Z</time>
      </trkpt>
      <trkpt lat="49.19041" lon="1.89363">
        <ele>93.67</ele>
        <time>2018-03-04T10:23:15Z</time>
      </trkpt>
      <trkpt lat="49.1904" lon="1.89361">
        <ele>93.61</ele>
        <time>2018-03-04T10:23:31Z</time>
      </trkpt>
      <trkpt lat="49.19041" lon="1.89363">
        <ele>93.51</ele>
        <time>2018-03-04T10:23:52Z</time>
      </trkpt>
      <trkpt lat="49.1904" lon="1.89361">
        <ele>93.46</ele>
        <time>2018-03-04T10:24:12Z</time>
      </trkpt>
      <trkpt lat="49.19039" lon="1.89358">
        <ele>93.99</ele>
        <time>2018-03-04T10:24:31Z</time>
      </trkpt>
      <trkpt lat="49.19038" lon="1.89357">
        <ele>94.09</ele>
        <time>2018-03-04T10:24:53Z</time>
      </trkpt>
      <trkpt lat="49.19038" lon="1.89358">
        <ele>94.28</ele>
        <time>2018-03-04T10:25:14Z</time>
      </trkpt>
      <trkpt lat="49.19039" lon="1.89355">
        <ele>93.85</ele>
        <time>2018-03-04T10:25:37Z</time>
      </trkpt>
      <trkpt lat="49.19039" lon="1.89353">
        <ele>93.85</ele>
        <time>2018-03-04T10:25:38Z</time>
      </trkpt>
      <trkpt lat="49.19037" lon="1.89325">
        <ele>93.85</ele>
        <time>2018-03-04T10:25:55Z</time>
      </trkpt>
      <trkpt lat="49.19036" lon="1.89314">
        <ele>94.29</ele>
        <time>2018-03-04T10:26:02Z</time>
      </trkpt>
      <trkpt lat="49.19034" lon="1.89306">
        <ele>94.22</ele>
        <time>2018-03-04T10:26:07Z</time>
      </trkpt>
      <trkpt lat="49.19032" lon="1.89275">
        <ele>94.5</ele>
        <time>2018-03-04T10:26:24Z</time>
      </trkpt>
      <trkpt lat="49.1903" lon="1.89246">
        <ele>94.45</ele>
        <time>2018-03-04T10:26:42Z</time>
      </trkpt>
      <trkpt lat="49.19028" lon="1.89232">
        <ele>94.58</ele>
        <time>2018-03-04T10:26:51Z</time>
      </trkpt>
      <trkpt lat="49.19028" lon="1.89224">
        <ele>94.17</ele>
        <time>2018-03-04T10:26:55Z</time>
      </trkpt>
      <trkpt lat="49.19026" lon="1.892">
        <ele>94.74</ele>
        <time>2018-03-04T10:27:10Z</time>
      </trkpt>
      <trkpt lat="49.19025" lon="1.89186">
        <ele>94.88</ele>
        <time>2018-03-04T10:27:18Z</time>
      </trkpt>
      <trkpt lat="49.19024" lon="1.89179">
        <ele>94.89</ele>
        <time>2018-03-04T10:27:22Z</time>
      </trkpt>
      <trkpt lat="49.19023" lon="1.89146">
        <ele>94.69</ele>
        <time>2018-03-04T10:27:40Z</time>
      </trkpt>
      <trkpt lat="49.19023" lon="1.89121">
        <ele>95</ele>
        <time>2018-03-04T10:27:54Z</time>
      </trkpt>
      <trkpt lat="49.1902" lon="1.8909">
        <ele>94.89</ele>
        <time>2018-03-04T10:28:12Z</time>
      </trkpt>
      <trkpt lat="49.19018" lon="1.89065">
        <ele>95.54</ele>
        <time>2018-03-04T10:28:27Z</time>
      </trkpt>
      <trkpt lat="49.19015" lon="1.89044">
        <ele>94.82</ele>
        <time>2018-03-04T10:28:38Z</time>
      </trkpt>
      <trkpt lat="49.19015" lon="1.89041">
        <ele>95.56</ele>
        <time>2018-03-04T10:28:40Z</time>
      </trkpt>
      <trkpt lat="49.19014" lon="1.89014">
        <ele>95.01</ele>
        <time>2018-03-04T10:28:55Z</time>
      </trkpt>
      <trkpt lat="49.19011" lon="1.88986">
        <ele>95.57</ele>
        <time>2018-03-04T10:29:11Z</time>
      </trkpt>
      <trkpt lat="49.19009" lon="1.88976">
        <ele>94.87</ele>
        <time>2018-03-04T10:29:17Z</time>
      </trkpt>
      <trkpt lat="49.19007" lon="1.88946">
        <ele>94.95</ele>
        <time>2018-03-04T10:29:34Z</time>
      </trkpt>
      <trkpt lat="49.19003" lon="1.88909">
        <ele>95.25</ele>
        <time>2018-03-04T10:29:56Z</time>
      </trkpt>
      <trkpt lat="49.18998" lon="1.88878">
        <ele>94.39</ele>
        <time>2018-03-04T10:30:15Z</time>
      </trkpt>
      <trkpt lat="49.18991" lon="1.88853">
        <ele>94.07</ele>
        <time>2018-03-04T10:30:31Z</time>
      </trkpt>
      <trkpt lat="49.18982" lon="1.88824">
        <ele>94.56</ele>
        <time>2018-03-04T10:30:47Z</time>
      </trkpt>
      <trkpt lat="49.18972" lon="1.88793">
        <ele>92.97</ele>
        <time>2018-03-04T10:31:07Z</time>
      </trkpt>
      <trkpt lat="49.18968" lon="1.88777">
        <ele>92.9</ele>
        <time>2018-03-04T10:31:17Z</time>
      </trkpt>
      <trkpt lat="49.18969" lon="1.8877">
        <ele>93.06</ele>
        <time>2018-03-04T10:31:21Z</time>
      </trkpt>
      <trkpt lat="49.18969" lon="1.88762">
        <ele>93.72</ele>
        <time>2018-03-04T10:31:26Z</time>
      </trkpt>
      <trkpt lat="49.18973" lon="1.88752">
        <ele>93.06</ele>
        <time>2018-03-04T10:31:34Z</time>
      </trkpt>
      <trkpt lat="49.18974" lon="1.8875">
        <ele>93.56</ele>
        <time>2018-03-04T10:31:36Z</time>
      </trkpt>
      <trkpt lat="49.1898" lon="1.88724">
        <ele>93.31</ele>
        <time>2018-03-04T10:31:54Z</time>
      </trkpt>
      <trkpt lat="49.18981" lon="1.88712">
        <ele>93.39</ele>
        <time>2018-03-04T10:32:02Z</time>
      </trkpt>
      <trkpt lat="49.18982" lon="1.88707">
        <ele>93.42</ele>
        <time>2018-03-04T10:32:05Z</time>
      </trkpt>
      <trkpt lat="49.18981" lon="1.88703">
        <ele>93.42</ele>
        <time>2018-03-04T10:32:08Z</time>
      </trkpt>
      <trkpt lat="49.18982" lon="1.88692">
        <ele>93.77</ele>
        <time>2018-03-04T10:32:15Z</time>
      </trkpt>
      <trkpt lat="49.18986" lon="1.88681">
        <ele>93.48</ele>
        <time>2018-03-04T10:32:28Z</time>
      </trkpt>
      <trkpt lat="49.18987" lon="1.8868">
        <ele>93.58</ele>
        <time>2018-03-04T10:32:35Z</time>
      </trkpt>
      <trkpt lat="49.19001" lon="1.88658">
        <ele>94.09</ele>
        <time>2018-03-04T10:32:54Z</time>
      </trkpt>
      <trkpt lat="49.19009" lon="1.88645">
        <ele>93.81</ele>
        <time>2018-03-04T10:33:06Z</time>
      </trkpt>
      <trkpt lat="49.19009" lon="1.88641">
        <ele>93.34</ele>
        <time>2018-03-04T10:33:08Z</time>
      </trkpt>
      <trkpt lat="49.19019" lon="1.88629">
        <ele>93.46</ele>
        <time>2018-03-04T10:33:20Z</time>
      </trkpt>
      <trkpt lat="49.1903" lon="1.88615">
        <ele>93.78</ele>
        <time>2018-03-04T10:33:35Z</time>
      </trkpt>
      <trkpt lat="49.1904" lon="1.88598">
        <ele>93.22</ele>
        <time>2018-03-04T10:33:49Z</time>
      </trkpt>
      <trkpt lat="49.19047" lon="1.88586">
        <ele>93.01</ele>
        <time>2018-03-04T10:34:03Z</time>
      </trkpt>
      <trkpt lat="49.1905" lon="1.88577">
        <ele>93.68</ele>
        <time>2018-03-04T10:34:11Z</time>
      </trkpt>
      <trkpt lat="49.19049" lon="1.88573">
        <ele>93.41</ele>
        <time>2018-03-04T10:34:14Z</time>
      </trkpt>
      <trkpt lat="49.19049" lon="1.88566">
        <ele>92.76</ele>
        <time>2018-03-04T10:34:18Z</time>
      </trkpt>
      <trkpt lat="49.19061" lon="1.88544">
        <ele>93.29</ele>
        <time>2018-03-04T10:34:36Z</time>
      </trkpt>
      <trkpt lat="49.19073" lon="1.88529">
        <ele>92.25</ele>
        <time>2018-03-04T10:34:51Z</time>
      </trkpt>
      <trkpt lat="49.19085" lon="1.88507">
        <ele>92.66</ele>
        <time>2018-03-04T10:35:07Z</time>
      </trkpt>
      <trkpt lat="49.19086" lon="1.88503">
        <ele>93.14</ele>
        <time>2018-03-04T10:35:10Z</time>
      </trkpt>
      <trkpt lat="49.19084" lon="1.88497">
        <ele>92.73</ele>
        <time>2018-03-04T10:35:14Z</time>
      </trkpt>
      <trkpt lat="49.19082" lon="1.88489">
        <ele>92.72</ele>
        <time>2018-03-04T10:35:19Z</time>
      </trkpt>
      <trkpt lat="49.19074" lon="1.88473">
        <ele>92.4</ele>
        <time>2018-03-04T10:35:36Z</time>
      </trkpt>
      <trkpt lat="49.19069" lon="1.88453">
        <ele>92.64</ele>
        <time>2018-03-04T10:35:50Z</time>
      </trkpt>
      <trkpt lat="49.19065" lon="1.88442">
        <ele>92.05</ele>
        <time>2018-03-04T10:35:57Z</time>
      </trkpt>
      <trkpt lat="49.19062" lon="1.88424">
        <ele>92.31</ele>
        <time>2018-03-04T10:36:06Z</time>
      </trkpt>
      <trkpt lat="49.19056" lon="1.88399">
        <ele>93.09</ele>
        <time>2018-03-04T10:36:24Z</time>
      </trkpt>
      <trkpt lat="49.19054" lon="1.88391">
        <ele>93.43</ele>
        <time>2018-03-04T10:36:44Z</time>
      </trkpt>
      <trkpt lat="49.19055" lon="1.88391">
        <ele>93.39</ele>
        <time>2018-03-04T10:37:07Z</time>
      </trkpt>
      <trkpt lat="49.19056" lon="1.88401">
        <ele>92.97</ele>
        <time>2018-03-04T10:37:23Z</time>
      </trkpt>
      <trkpt lat="49.19055" lon="1.88407">
        <ele>93.37</ele>
        <time>2018-03-04T10:37:42Z</time>
      </trkpt>
      <trkpt lat="49.19055" lon="1.88401">
        <ele>93.47</ele>
        <time>2018-03-04T10:38:03Z</time>
      </trkpt>
      <trkpt lat="49.19051" lon="1.88391">
        <ele>93.36</ele>
        <time>2018-03-04T10:38:17Z</time>
      </trkpt>
      <trkpt lat="49.19047" lon="1.88375">
        <ele>93.76</ele>
        <time>2018-03-04T10:38:29Z</time>
      </trkpt>
      <trkpt lat="49.19038" lon="1.88343">
        <ele>94.22</ele>
        <time>2018-03-04T10:38:48Z</time>
      </trkpt>
      <trkpt lat="49.19032" lon="1.88319">
        <ele>94.69</ele>
        <time>2018-03-04T10:39:03Z</time>
      </trkpt>
      <trkpt lat="49.19025" lon="1.88302">
        <ele>94.71</ele>
        <time>2018-03-04T10:39:14Z</time>
      </trkpt>
      <trkpt lat="49.19023" lon="1.88291">
        <ele>94.66</ele>
        <time>2018-03-04T10:39:20Z</time>
      </trkpt>
      <trkpt lat="49.19022" lon="1.88287">
        <ele>95.36</ele>
        <time>2018-03-04T10:39:23Z</time>
      </trkpt>
      <trkpt lat="49.19014" lon="1.88277">
        <ele>95.5</ele>
        <time>2018-03-04T10:39:37Z</time>
      </trkpt>
      <trkpt lat="49.19" lon="1.88282">
        <ele>95.9</ele>
        <time>2018-03-04T10:39:51Z</time>
      </trkpt>
      <trkpt lat="49.18988" lon="1.88278">
        <ele>95.97</ele>
        <time>2018-03-04T10:40:06Z</time>
      </trkpt>
      <trkpt lat="49.18983" lon="1.88272">
        <ele>95.92</ele>
        <time>2018-03-04T10:40:14Z</time>
      </trkpt>
      <trkpt lat="49.18974" lon="1.8826">
        <ele>96.23</ele>
        <time>2018-03-04T10:40:28Z</time>
      </trkpt>
      <trkpt lat="49.18973" lon="1.88254">
        <ele>95.35</ele>
        <time>2018-03-04T11:12:28Z</time>
      </trkpt>
      <trkpt lat="49.18978" lon="1.88245">
        <ele>94.3</ele>
        <time>2018-03-04T11:12:49Z</time>
      </trkpt>
      <trkpt lat="49.18978" lon="1.88245">
        <ele>95.78</ele>
        <time>2018-03-04T11:12:52Z</time>
      </trkpt>
      <trkpt lat="49.18982" lon="1.88237">
        <ele>95.26</ele>
        <time>2018-03-04T11:13:14Z</time>
      </trkpt>
      <trkpt lat="49.18985" lon="1.88233">
        <ele>95.25</ele>
        <time>2018-03-04T11:13:35Z</time>
      </trkpt>
      <trkpt lat="49.18986" lon="1.88227">
        <ele>94.83</ele>
        <time>2018-03-04T11:13:54Z</time>
      </trkpt>
      <trkpt lat="49.18983" lon="1.88219">
        <ele>94.88</ele>
        <time>2018-03-04T11:14:07Z</time>
      </trkpt>
      <trkpt lat="49.18982" lon="1.88205">
        <ele>94.99</ele>
        <time>2018-03-04T11:14:25Z</time>
      </trkpt>
      <trkpt lat="49.18984" lon="1.88202">
        <ele>95.06</ele>
        <time>2018-03-04T11:14:43Z</time>
      </trkpt>
      <trkpt lat="49.18983" lon="1.88201">
        <ele>95.21</ele>
        <time>2018-03-04T11:15:09Z</time>
      </trkpt>
      <trkpt lat="49.18983" lon="1.88199">
        <ele>94.9</ele>
        <time>2018-03-04T11:15:12Z</time>
      </trkpt>
      <trkpt lat="49.18987" lon="1.88193">
        <ele>95.03</ele>
        <time>2018-03-04T11:15:17Z</time>
      </trkpt>
      <trkpt lat="49.18992" lon="1.88186">
        <ele>95.6</ele>
        <time>2018-03-04T11:15:23Z</time>
      </trkpt>
      <trkpt lat="49.19003" lon="1.88168">
        <ele>95.7</ele>
        <time>2018-03-04T11:15:37Z</time>
      </trkpt>
      <trkpt lat="49.19015" lon="1.88156">
        <ele>95.93</ele>
        <time>2018-03-04T11:15:50Z</time>
      </trkpt>
      <trkpt lat="49.19027" lon="1.88133">
        <ele>94.95</ele>
        <time>2018-03-04T11:16:06Z</time>
      </trkpt>
      <trkpt lat="49.1903" lon="1.88121">
        <ele>95.4</ele>
        <time>2018-03-04T11:16:13Z</time>
      </trkpt>
      <trkpt lat="49.19031" lon="1.88116">
        <ele>95.45</ele>
        <time>2018-03-04T11:16:16Z</time>
      </trkpt>
      <trkpt lat="49.19031" lon="1.881">
        <ele>95.43</ele>
        <time>2018-03-04T11:16:32Z</time>
      </trkpt>
      <trkpt lat="49.19031" lon="1.88095">
        <ele>95.56</ele>
        <time>2018-03-04T11:16:36Z</time>
      </trkpt>
      <trkpt lat="49.1903" lon="1.88092">
        <ele>94.76</ele>
        <time>2018-03-04T11:16:39Z</time>
      </trkpt>
      <trkpt lat="49.19029" lon="1.88087">
        <ele>95.26</ele>
        <time>2018-03-04T11:16:42Z</time>
      </trkpt>
      <trkpt lat="49.19023" lon="1.88078">
        <ele>95.09</ele>
        <time>2018-03-04T11:16:51Z</time>
      </trkpt>
      <trkpt lat="49.19014" lon="1.88061">
        <ele>95.86</ele>
        <time>2018-03-04T11:17:07Z</time>
      </trkpt>
      <trkpt lat="49.19003" lon="1.8805">
        <ele>96.3</ele>
        <time>2018-03-04T11:17:27Z</time>
      </trkpt>
      <trkpt lat="49.18995" lon="1.88026">
        <ele>96.28</ele>
        <time>2018-03-04T11:17:42Z</time>
      </trkpt>
      <trkpt lat="49.18994" lon="1.88025">
        <ele>96.06</ele>
        <time>2018-03-04T11:17:43Z</time>
      </trkpt>
      <trkpt lat="49.18981" lon="1.88007">
        <ele>96.02</ele>
        <time>2018-03-04T11:18:00Z</time>
      </trkpt>
      <trkpt lat="49.18968" lon="1.87997">
        <ele>97.27</ele>
        <time>2018-03-04T11:18:16Z</time>
      </trkpt>
      <trkpt lat="49.18965" lon="1.87993">
        <ele>97.34</ele>
        <time>2018-03-04T11:18:21Z</time>
      </trkpt>
      <trkpt lat="49.18956" lon="1.87978">
        <ele>97.05</ele>
        <time>2018-03-04T11:18:36Z</time>
      </trkpt>
      <trkpt lat="49.18937" lon="1.87955">
        <ele>97.07</ele>
        <time>2018-03-04T11:18:53Z</time>
      </trkpt>
      <trkpt lat="49.18923" lon="1.87937">
        <ele>97.58</ele>
        <time>2018-03-04T11:19:07Z</time>
      </trkpt>
      <trkpt lat="49.18908" lon="1.87927">
        <ele>97.56</ele>
        <time>2018-03-04T11:19:23Z</time>
      </trkpt>
      <trkpt lat="49.18903" lon="1.87926">
        <ele>97.52</ele>
        <time>2018-03-04T11:19:30Z</time>
      </trkpt>
      <trkpt lat="49.18885" lon="1.87913">
        <ele>97.72</ele>
        <time>2018-03-04T11:19:47Z</time>
      </trkpt>
      <trkpt lat="49.18882" lon="1.87913">
        <ele>97.56</ele>
        <time>2018-03-04T11:19:50Z</time>
      </trkpt>
      <trkpt lat="49.18877" lon="1.87906">
        <ele>97.8</ele>
        <time>2018-03-04T11:19:56Z</time>
      </trkpt>
      <trkpt lat="49.18874" lon="1.87903">
        <ele>97.95</ele>
        <time>2018-03-04T11:19:59Z</time>
      </trkpt>
      <trkpt lat="49.18868" lon="1.87899">
        <ele>97.14</ele>
        <time>2018-03-04T11:20:05Z</time>
      </trkpt>
      <trkpt lat="49.18865" lon="1.87899">
        <ele>97.38</ele>
        <time>2018-03-04T11:20:08Z</time>
      </trkpt>
      <trkpt lat="49.18844" lon="1.87888">
        <ele>97.74</ele>
        <time>2018-03-04T11:20:26Z</time>
      </trkpt>
      <trkpt lat="49.18826" lon="1.8788">
        <ele>97.84</ele>
        <time>2018-03-04T11:20:43Z</time>
      </trkpt>
      <trkpt lat="49.1882" lon="1.87877">
        <ele>97.82</ele>
        <time>2018-03-04T11:20:49Z</time>
      </trkpt>
      <trkpt lat="49.18803" lon="1.87878">
        <ele>97.76</ele>
        <time>2018-03-04T11:21:06Z</time>
      </trkpt>
      <trkpt lat="49.18785" lon="1.87867">
        <ele>97.29</ele>
        <time>2018-03-04T11:21:22Z</time>
      </trkpt>
      <trkpt lat="49.18766" lon="1.87866">
        <ele>97.83</ele>
        <time>2018-03-04T11:21:37Z</time>
      </trkpt>
      <trkpt lat="49.18748" lon="1.87861">
        <ele>97.22</ele>
        <time>2018-03-04T11:21:53Z</time>
      </trkpt>
      <trkpt lat="49.18739" lon="1.87861">
        <ele>97.54</ele>
        <time>2018-03-04T11:22:00Z</time>
      </trkpt>
      <trkpt lat="49.18719" lon="1.87856">
        <ele>96.93</ele>
        <time>2018-03-04T11:22:17Z</time>
      </trkpt>
      <trkpt lat="49.18717" lon="1.87856">
        <ele>96.65</ele>
        <time>2018-03-04T11:22:19Z</time>
      </trkpt>
      <trkpt lat="49.18713" lon="1.87848">
        <ele>97.81</ele>
        <time>2018-03-04T11:22:25Z</time>
      </trkpt>
      <trkpt lat="49.18708" lon="1.87821">
        <ele>98.01</ele>
        <time>2018-03-04T11:22:40Z</time>
      </trkpt>
      <trkpt lat="49.18702" lon="1.87796">
        <ele>98.62</ele>
        <time>2018-03-04T11:22:54Z</time>
      </trkpt>
      <trkpt lat="49.18698" lon="1.87779">
        <ele>98.39</ele>
        <time>2018-03-04T11:23:05Z</time>
      </trkpt>
      <trkpt lat="49.18695" lon="1.87751">
        <ele>99.09</ele>
        <time>2018-03-04T11:23:21Z</time>
      </trkpt>
      <trkpt lat="49.18691" lon="1.87727">
        <ele>98.46</ele>
        <time>2018-03-04T11:23:35Z</time>
      </trkpt>
      <trkpt lat="49.18688" lon="1.87696">
        <ele>99.48</ele>
        <time>2018-03-04T11:23:52Z</time>
      </trkpt>
      <trkpt lat="49.18686" lon="1.8768">
        <ele>100.1</ele>
        <time>2018-03-04T11:24:02Z</time>
      </trkpt>
      <trkpt lat="49.18682" lon="1.87653">
        <ele>99.78</ele>
        <time>2018-03-04T11:24:21Z</time>
      </trkpt>
      <trkpt lat="49.18682" lon="1.87651">
        <ele>100.97</ele>
        <time>2018-03-04T11:24:30Z</time>
      </trkpt>
      <trkpt lat="49.18681" lon="1.87642">
        <ele>101.33</ele>
        <time>2018-03-04T11:24:37Z</time>
      </trkpt>
      <trkpt lat="49.1868" lon="1.87636">
        <ele>100.57</ele>
        <time>2018-03-04T11:24:41Z</time>
      </trkpt>
      <trkpt lat="49.18678" lon="1.87623">
        <ele>101.49</ele>
        <time>2018-03-04T11:24:51Z</time>
      </trkpt>
      <trkpt lat="49.18676" lon="1.8761">
        <ele>102.03</ele>
        <time>2018-03-04T11:25:00Z</time>
      </trkpt>
      <trkpt lat="49.18673" lon="1.87586">
        <ele>102.24</ele>
        <time>2018-03-04T11:25:16Z</time>
      </trkpt>
      <trkpt lat="49.18671" lon="1.87563">
        <ele>101.91</ele>
        <time>2018-03-04T11:25:32Z</time>
      </trkpt>
      <trkpt lat="49.1867" lon="1.87534">
        <ele>102.64</ele>
        <time>2018-03-04T11:25:50Z</time>
      </trkpt>
      <trkpt lat="49.18669" lon="1.8751">
        <ele>103.06</ele>
        <time>2018-03-04T11:26:07Z</time>
      </trkpt>
      <trkpt lat="49.18668" lon="1.875">
        <ele>103.2</ele>
        <time>2018-03-04T11:26:14Z</time>
      </trkpt>
      <trkpt lat="49.18668" lon="1.87497">
        <ele>103.04</ele>
        <time>2018-03-04T11:26:16Z</time>
      </trkpt>
      <trkpt lat="49.18668" lon="1.8749">
        <ele>102.69</ele>
        <time>2018-03-04T11:26:20Z</time>
      </trkpt>
      <trkpt lat="49.18668" lon="1.8747">
        <ele>104.06</ele>
        <time>2018-03-04T11:26:34Z</time>
      </trkpt>
      <trkpt lat="49.18667" lon="1.87467">
        <ele>104.11</ele>
        <time>2018-03-04T11:26:36Z</time>
      </trkpt>
      <trkpt lat="49.18666" lon="1.87436">
        <ele>104.62</ele>
        <time>2018-03-04T11:26:54Z</time>
      </trkpt>
      <trkpt lat="49.18665" lon="1.87415">
        <ele>104.87</ele>
        <time>2018-03-04T11:27:08Z</time>
      </trkpt>
      <trkpt lat="49.18665" lon="1.87412">
        <ele>104.67</ele>
        <time>2018-03-04T11:27:10Z</time>
      </trkpt>
      <trkpt lat="49.18665" lon="1.87388">
        <ele>104.57</ele>
        <time>2018-03-04T11:27:26Z</time>
      </trkpt>
      <trkpt lat="49.18663" lon="1.87359">
        <ele>105.17</ele>
        <time>2018-03-04T11:27:44Z</time>
      </trkpt>
      <trkpt lat="49.18662" lon="1.8734">
        <ele>104.7</ele>
        <time>2018-03-04T11:27:57Z</time>
      </trkpt>
      <trkpt lat="49.18661" lon="1.87334">
        <ele>105.11</ele>
        <time>2018-03-04T11:28:01Z</time>
      </trkpt>
      <trkpt lat="49.1866" lon="1.87314">
        <ele>105.3</ele>
        <time>2018-03-04T11:28:14Z</time>
      </trkpt>
      <trkpt lat="49.18656" lon="1.87287">
        <ele>104.77</ele>
        <time>2018-03-04T11:28:31Z</time>
      </trkpt>
      <trkpt lat="49.18652" lon="1.87265">
        <ele>105.41</ele>
        <time>2018-03-04T11:28:46Z</time>
      </trkpt>
      <trkpt lat="49.1865" lon="1.87251">
        <ele>105.26</ele>
        <time>2018-03-04T11:28:55Z</time>
      </trkpt>
      <trkpt lat="49.18646" lon="1.87233">
        <ele>105.15</ele>
        <time>2018-03-04T11:29:07Z</time>
      </trkpt>
      <trkpt lat="49.18642" lon="1.87208">
        <ele>105.5</ele>
        <time>2018-03-04T11:29:23Z</time>
      </trkpt>
      <trkpt lat="49.18638" lon="1.87187">
        <ele>106.13</ele>
        <time>2018-03-04T11:29:37Z</time>
      </trkpt>
      <trkpt lat="49.18638" lon="1.87184">
        <ele>105.88</ele>
        <time>2018-03-04T11:29:39Z</time>
      </trkpt>
      <trkpt lat="49.18637" lon="1.87181">
        <ele>105.7</ele>
        <time>2018-03-04T11:29:41Z</time>
      </trkpt>
      <trkpt lat="49.18635" lon="1.87169">
        <ele>106.24</ele>
        <time>2018-03-04T11:29:50Z</time>
      </trkpt>
      <trkpt lat="49.18634" lon="1.87164">
        <ele>106.7</ele>
        <time>2018-03-04T11:29:54Z</time>
      </trkpt>
      <trkpt lat="49.18634" lon="1.87159">
        <ele>106.71</ele>
        <time>2018-03-04T11:29:57Z</time>
      </trkpt>
      <trkpt lat="49.18629" lon="1.87138">
        <ele>106.89</ele>
        <time>2018-03-04T11:30:11Z</time>
      </trkpt>
      <trkpt lat="49.18627" lon="1.87125">
        <ele>107.21</ele>
        <time>2018-03-04T11:30:20Z</time>
      </trkpt>
      <trkpt lat="49.18624" lon="1.87102">
        <ele>108.03</ele>
        <time>2018-03-04T11:30:35Z</time>
      </trkpt>
      <trkpt lat="49.18622" lon="1.8709">
        <ele>107.56</ele>
        <time>2018-03-04T11:30:42Z</time>
      </trkpt>
      <trkpt lat="49.18619" lon="1.87069">
        <ele>107.98</ele>
        <time>2018-03-04T11:30:56Z</time>
      </trkpt>
      <trkpt lat="49.18618" lon="1.87057">
        <ele>107.95</ele>
        <time>2018-03-04T11:31:04Z</time>
      </trkpt>
      <trkpt lat="49.18617" lon="1.8705">
        <ele>108.3</ele>
        <time>2018-03-04T11:31:10Z</time>
      </trkpt>
      <trkpt lat="49.18615" lon="1.87042">
        <ele>108.17</ele>
        <time>2018-03-04T11:31:15Z</time>
      </trkpt>
      <trkpt lat="49.18611" lon="1.87006">
        <ele>108.91</ele>
        <time>2018-03-04T11:31:36Z</time>
      </trkpt>
      <trkpt lat="49.18608" lon="1.8698">
        <ele>109.35</ele>
        <time>2018-03-04T11:31:52Z</time>
      </trkpt>
      <trkpt lat="49.18605" lon="1.86947">
        <ele>109.63</ele>
        <time>2018-03-04T11:32:12Z</time>
      </trkpt>
      <trkpt lat="49.18603" lon="1.8692">
        <ele>109.91</ele>
        <time>2018-03-04T11:32:28Z</time>
      </trkpt>
      <trkpt lat="49.186" lon="1.86884">
        <ele>109.97</ele>
        <time>2018-03-04T11:32:48Z</time>
      </trkpt>
      <trkpt lat="49.18596" lon="1.86853">
        <ele>110.59</ele>
        <time>2018-03-04T11:33:06Z</time>
      </trkpt>
      <trkpt lat="49.18593" lon="1.86834">
        <ele>111.23</ele>
        <time>2018-03-04T11:33:18Z</time>
      </trkpt>
      <trkpt lat="49.18592" lon="1.86826">
        <ele>111.51</ele>
        <time>2018-03-04T11:33:23Z</time>
      </trkpt>
      <trkpt lat="49.18588" lon="1.86801">
        <ele>112.43</ele>
        <time>2018-03-04T11:33:39Z</time>
      </trkpt>
      <trkpt lat="49.18583" lon="1.8677">
        <ele>112.51</ele>
        <time>2018-03-04T11:33:57Z</time>
      </trkpt>
      <trkpt lat="49.18583" lon="1.86762">
        <ele>112.89</ele>
        <time>2018-03-04T11:34:04Z</time>
      </trkpt>
      <trkpt lat="49.18577" lon="1.86731">
        <ele>112.78</ele>
        <time>2018-03-04T11:34:23Z</time>
      </trkpt>
      <trkpt lat="49.1857" lon="1.86701">
        <ele>113.45</ele>
        <time>2018-03-04T11:34:43Z</time>
      </trkpt>
      <trkpt lat="49.18565" lon="1.86672">
        <ele>113.91</ele>
        <time>2018-03-04T11:35:02Z</time>
      </trkpt>
      <trkpt lat="49.18559" lon="1.8664">
        <ele>114.28</ele>
        <time>2018-03-04T11:35:22Z</time>
      </trkpt>
      <trkpt lat="49.18554" lon="1.8661">
        <ele>114.35</ele>
        <time>2018-03-04T11:35:41Z</time>
      </trkpt>
      <trkpt lat="49.18547" lon="1.86582">
        <ele>114.62</ele>
        <time>2018-03-04T11:35:59Z</time>
      </trkpt>
      <trkpt lat="49.18541" lon="1.86555">
        <ele>115.04</ele>
        <time>2018-03-04T11:36:16Z</time>
      </trkpt>
      <trkpt lat="49.18539" lon="1.86547">
        <ele>114.88</ele>
        <time>2018-03-04T11:36:22Z</time>
      </trkpt>
      <trkpt lat="49.18538" lon="1.8654">
        <ele>114.66</ele>
        <time>2018-03-04T11:36:27Z</time>
      </trkpt>
      <trkpt lat="49.18531" lon="1.86507">
        <ele>115.05</ele>
        <time>2018-03-04T11:36:47Z</time>
      </trkpt>
      <trkpt lat="49.18527" lon="1.86477">
        <ele>114.92</ele>
        <time>2018-03-04T11:37:05Z</time>
      </trkpt>
      <trkpt lat="49.18525" lon="1.86439">
        <ele>115.51</ele>
        <time>2018-03-04T11:37:26Z</time>
      </trkpt>
      <trkpt lat="49.18528" lon="1.86409">
        <ele>116</ele>
        <time>2018-03-04T11:37:43Z</time>
      </trkpt>
      <trkpt lat="49.18527" lon="1.86383">
        <ele>115.94</ele>
        <time>2018-03-04T11:37:58Z</time>
      </trkpt>
      <trkpt lat="49.18514" lon="1.86364">
        <ele>114.78</ele>
        <time>2018-03-04T11:38:14Z</time>
      </trkpt>
      <trkpt lat="49.18495" lon="1.86359">
        <ele>116.22</ele>
        <time>2018-03-04T11:38:31Z</time>
      </trkpt>
      <trkpt lat="49.18493" lon="1.86358">
        <ele>116.26</ele>
        <time>2018-03-04T11:38:33Z</time>
      </trkpt>
      <trkpt lat="49.18478" lon="1.86352">
        <ele>117.6</ele>
        <time>2018-03-04T11:38:50Z</time>
      </trkpt>
      <trkpt lat="49.18475" lon="1.8635">
        <ele>116.83</ele>
        <time>2018-03-04T11:39:10Z</time>
      </trkpt>
      <trkpt lat="49.18472" lon="1.86349">
        <ele>117.19</ele>
        <time>2018-03-04T11:39:14Z</time>
      </trkpt>
      <trkpt lat="49.1847" lon="1.86349">
        <ele>116.83</ele>
        <time>2018-03-04T11:39:16Z</time>
      </trkpt>
      <trkpt lat="49.18458" lon="1.86342">
        <ele>118.42</ele>
        <time>2018-03-04T11:39:27Z</time>
      </trkpt>
      <trkpt lat="49.18443" lon="1.86333">
        <ele>118.18</ele>
        <time>2018-03-04T11:39:41Z</time>
      </trkpt>
      <trkpt lat="49.18436" lon="1.86327">
        <ele>117.98</ele>
        <time>2018-03-04T11:39:47Z</time>
      </trkpt>
      <trkpt lat="49.18427" lon="1.86323">
        <ele>117.81</ele>
        <time>2018-03-04T11:39:55Z</time>
      </trkpt>
      <trkpt lat="49.18414" lon="1.8631">
        <ele>118.96</ele>
        <time>2018-03-04T11:40:09Z</time>
      </trkpt>
      <trkpt lat="49.18398" lon="1.86295">
        <ele>119.11</ele>
        <time>2018-03-04T11:40:25Z</time>
      </trkpt>
      <trkpt lat="49.18397" lon="1.86295">
        <ele>118.77</ele>
        <time>2018-03-04T11:40:26Z</time>
      </trkpt>
      <trkpt lat="49.1838" lon="1.86276">
        <ele>118.98</ele>
        <time>2018-03-04T11:40:43Z</time>
      </trkpt>
      <trkpt lat="49.18377" lon="1.86274">
        <ele>118.87</ele>
        <time>2018-03-04T11:40:45Z</time>
      </trkpt>
      <trkpt lat="49.18363" lon="1.86255">
        <ele>119.43</ele>
        <time>2018-03-04T11:41:01Z</time>
      </trkpt>
      <trkpt lat="49.18356" lon="1.86246">
        <ele>119.88</ele>
        <time>2018-03-04T11:41:09Z</time>
      </trkpt>
      <trkpt lat="49.18343" lon="1.86227">
        <ele>119.98</ele>
        <time>2018-03-04T11:41:25Z</time>
      </trkpt>
      <trkpt lat="49.18328" lon="1.8621">
        <ele>120.6</ele>
        <time>2018-03-04T11:41:41Z</time>
      </trkpt>
      <trkpt lat="49.18311" lon="1.8619">
        <ele>121.52</ele>
        <time>2018-03-04T11:42:00Z</time>
      </trkpt>
      <trkpt lat="49.18297" lon="1.86174">
        <ele>121.89</ele>
        <time>2018-03-04T11:42:15Z</time>
      </trkpt>
      <trkpt lat="49.18284" lon="1.86159">
        <ele>123.05</ele>
        <time>2018-03-04T11:42:30Z</time>
      </trkpt>
      <trkpt lat="49.1827" lon="1.86139">
        <ele>123.63</ele>
        <time>2018-03-04T11:42:48Z</time>
      </trkpt>
      <trkpt lat="49.18257" lon="1.86124">
        <ele>124.49</ele>
        <time>2018-03-04T11:43:03Z</time>
      </trkpt>
      <trkpt lat="49.18242" lon="1.86105">
        <ele>124.54</ele>
        <time>2018-03-04T11:43:20Z</time>
      </trkpt>
      <trkpt lat="49.18241" lon="1.86104">
        <ele>124.09</ele>
        <time>2018-03-04T11:43:21Z</time>
      </trkpt>
      <trkpt lat="49.18237" lon="1.861">
        <ele>124.42</ele>
        <time>2018-03-04T11:43:25Z</time>
      </trkpt>
      <trkpt lat="49.18222" lon="1.86079">
        <ele>126.11</ele>
        <time>2018-03-04T11:43:44Z</time>
      </trkpt>
      <trkpt lat="49.18211" lon="1.86065">
        <ele>126.45</ele>
        <time>2018-03-04T11:43:58Z</time>
      </trkpt>
      <trkpt lat="49.18194" lon="1.86045">
        <ele>126.47</ele>
        <time>2018-03-04T11:44:17Z</time>
      </trkpt>
      <trkpt lat="49.18178" lon="1.86024">
        <ele>127.55</ele>
        <time>2018-03-04T11:44:36Z</time>
      </trkpt>
      <trkpt lat="49.18169" lon="1.86011">
        <ele>127.92</ele>
        <time>2018-03-04T11:44:48Z</time>
      </trkpt>
      <trkpt lat="49.18154" lon="1.85992">
        <ele>128.53</ele>
        <time>2018-03-04T11:45:06Z</time>
      </trkpt>
      <trkpt lat="49.1814" lon="1.85974">
        <ele>128.35</ele>
        <time>2018-03-04T11:45:23Z</time>
      </trkpt>
      <trkpt lat="49.18126" lon="1.85956">
        <ele>128.89</ele>
        <time>2018-03-04T11:45:39Z</time>
      </trkpt>
      <trkpt lat="49.1811" lon="1.85939">
        <ele>128.73</ele>
        <time>2018-03-04T11:45:56Z</time>
      </trkpt>
      <trkpt lat="49.18096" lon="1.8592">
        <ele>128.96</ele>
        <time>2018-03-04T11:46:14Z</time>
      </trkpt>
      <trkpt lat="49.18089" lon="1.8591">
        <ele>129.44</ele>
        <time>2018-03-04T11:46:33Z</time>
      </trkpt>
      <trkpt lat="49.18077" lon="1.85894">
        <ele>129.24</ele>
        <time>2018-03-04T11:46:49Z</time>
      </trkpt>
      <trkpt lat="49.18076" lon="1.85893">
        <ele>129.31</ele>
        <time>2018-03-04T11:46:50Z</time>
      </trkpt>
      <trkpt lat="49.18074" lon="1.85886">
        <ele>129.5</ele>
        <time>2018-03-04T11:47:04Z</time>
      </trkpt>
      <trkpt lat="49.18073" lon="1.85883">
        <ele>129.31</ele>
        <time>2018-03-04T11:47:07Z</time>
      </trkpt>
      <trkpt lat="49.18068" lon="1.85862">
        <ele>127.57</ele>
        <time>2018-03-04T11:47:20Z</time>
      </trkpt>
      <trkpt lat="49.18071" lon="1.85841">
        <ele>127.02</ele>
        <time>2018-03-04T11:47:33Z</time>
      </trkpt>
      <trkpt lat="49.18081" lon="1.85825">
        <ele>127.73</ele>
        <time>2018-03-04T11:47:48Z</time>
      </trkpt>
      <trkpt lat="49.18091" lon="1.85817">
        <ele>128.3</ele>
        <time>2018-03-04T11:48:06Z</time>
      </trkpt>
      <trkpt lat="49.18102" lon="1.8581">
        <ele>129.3</ele>
        <time>2018-03-04T11:48:26Z</time>
      </trkpt>
      <trkpt lat="49.18103" lon="1.85811">
        <ele>125.48</ele>
        <time>2018-03-04T11:48:30Z</time>
      </trkpt>
      <trkpt lat="49.18103" lon="1.85811">
        <ele>132.17</ele>
        <time>2018-03-04T11:48:31Z</time>
      </trkpt>
      <trkpt lat="49.18104" lon="1.85811">
        <ele>128.76</ele>
        <time>2018-03-04T11:48:35Z</time>
      </trkpt>
      <trkpt lat="49.18107" lon="1.85806">
        <ele>128.91</ele>
        <time>2018-03-04T11:49:01Z</time>
      </trkpt>
      <trkpt lat="49.18098" lon="1.85811">
        <ele>128.48</ele>
        <time>2018-03-04T11:49:18Z</time>
      </trkpt>
      <trkpt lat="49.18096" lon="1.85813">
        <ele>128.23</ele>
        <time>2018-03-04T11:49:20Z</time>
      </trkpt>
      <trkpt lat="49.18083" lon="1.85823">
        <ele>128.05</ele>
        <time>2018-03-04T11:49:36Z</time>
      </trkpt>
      <trkpt lat="49.1808" lon="1.85825">
        <ele>128.09</ele>
        <time>2018-03-04T11:49:39Z</time>
      </trkpt>
      <trkpt lat="49.18077" lon="1.85829">
        <ele>128.01</ele>
        <time>2018-03-04T11:49:42Z</time>
      </trkpt>
      <trkpt lat="49.18071" lon="1.85839">
        <ele>128.51</ele>
        <time>2018-03-04T11:49:49Z</time>
      </trkpt>
      <trkpt lat="49.18066" lon="1.85864">
        <ele>129.97</ele>
        <time>2018-03-04T11:50:10Z</time>
      </trkpt>
      <trkpt lat="49.18065" lon="1.85867">
        <ele>130.39</ele>
        <time>2018-03-04T11:50:24Z</time>
      </trkpt>
      <trkpt lat="49.18067" lon="1.85867">
        <ele>129.86</ele>
        <time>2018-03-04T11:50:37Z</time>
      </trkpt>
      <trkpt lat="49.18067" lon="1.85866">
        <ele>130.1</ele>
        <time>2018-03-04T11:50:56Z</time>
      </trkpt>
      <trkpt lat="49.18067" lon="1.85857">
        <ele>129.98</ele>
        <time>2018-03-04T11:51:14Z</time>
      </trkpt>
      <trkpt lat="49.18068" lon="1.85854">
        <ele>129.34</ele>
        <time>2018-03-04T11:51:39Z</time>
      </trkpt>
      <trkpt lat="49.18069" lon="1.85851">
        <ele>129.38</ele>
        <time>2018-03-04T11:52:08Z</time>
      </trkpt>
      <trkpt lat="49.18068" lon="1.85851">
        <ele>129.5</ele>
        <time>2018-03-04T11:52:35Z</time>
      </trkpt>
      <trkpt lat="49.18067" lon="1.85853">
        <ele>129.31</ele>
        <time>2018-03-04T11:52:59Z</time>
      </trkpt>
      <trkpt lat="49.18066" lon="1.85853">
        <ele>129.5</ele>
        <time>2018-03-04T11:53:26Z</time>
      </trkpt>
      <trkpt lat="49.18063" lon="1.8585">
        <ele>129.28</ele>
        <time>2018-03-04T11:53:47Z</time>
      </trkpt>
      <trkpt lat="49.18055" lon="1.85858">
        <ele>127.88</ele>
        <time>2018-03-04T11:54:00Z</time>
      </trkpt>
      <trkpt lat="49.18044" lon="1.85871">
        <ele>126.43</ele>
        <time>2018-03-04T11:54:14Z</time>
      </trkpt>
      <trkpt lat="49.1803" lon="1.85886">
        <ele>125.2</ele>
        <time>2018-03-04T11:54:31Z</time>
      </trkpt>
      <trkpt lat="49.18017" lon="1.85899">
        <ele>124.81</ele>
        <time>2018-03-04T11:54:46Z</time>
      </trkpt>
      <trkpt lat="49.18002" lon="1.85916">
        <ele>123.33</ele>
        <time>2018-03-04T11:55:03Z</time>
      </trkpt>
      <trkpt lat="49.17986" lon="1.85932">
        <ele>122.58</ele>
        <time>2018-03-04T11:55:20Z</time>
      </trkpt>
      <trkpt lat="49.17974" lon="1.85946">
        <ele>121.12</ele>
        <time>2018-03-04T11:55:35Z</time>
      </trkpt>
      <trkpt lat="49.17962" lon="1.85959">
        <ele>120.25</ele>
        <time>2018-03-04T11:55:49Z</time>
      </trkpt>
      <trkpt lat="49.17947" lon="1.85977">
        <ele>118.67</ele>
        <time>2018-03-04T11:56:06Z</time>
      </trkpt>
      <trkpt lat="49.17935" lon="1.85992">
        <ele>118.13</ele>
        <time>2018-03-04T11:56:21Z</time>
      </trkpt>
      <trkpt lat="49.1792" lon="1.86009">
        <ele>117.84</ele>
        <time>2018-03-04T11:56:36Z</time>
      </trkpt>
      <trkpt lat="49.17903" lon="1.8603">
        <ele>117.69</ele>
        <time>2018-03-04T11:56:55Z</time>
      </trkpt>
      <trkpt lat="49.1789" lon="1.86045">
        <ele>116.47</ele>
        <time>2018-03-04T11:57:10Z</time>
      </trkpt>
      <trkpt lat="49.17876" lon="1.86062">
        <ele>115.68</ele>
        <time>2018-03-04T11:57:25Z</time>
      </trkpt>
      <trkpt lat="49.17857" lon="1.86085">
        <ele>115.15</ele>
        <time>2018-03-04T11:57:46Z</time>
      </trkpt>
      <trkpt lat="49.17839" lon="1.86105">
        <ele>114.33</ele>
        <time>2018-03-04T11:58:06Z</time>
      </trkpt>
      <trkpt lat="49.17825" lon="1.86122">
        <ele>113.75</ele>
        <time>2018-03-04T11:58:24Z</time>
      </trkpt>
      <trkpt lat="49.1781" lon="1.86141">
        <ele>114.45</ele>
        <time>2018-03-04T11:58:42Z</time>
      </trkpt>
      <trkpt lat="49.17794" lon="1.86161">
        <ele>113.26</ele>
        <time>2018-03-04T11:59:00Z</time>
      </trkpt>
      <trkpt lat="49.17777" lon="1.86181">
        <ele>113.54</ele>
        <time>2018-03-04T11:59:19Z</time>
      </trkpt>
      <trkpt lat="49.17761" lon="1.862">
        <ele>112.92</ele>
        <time>2018-03-04T11:59:37Z</time>
      </trkpt>
      <trkpt lat="49.17755" lon="1.86206">
        <ele>112.76</ele>
        <time>2018-03-04T11:59:44Z</time>
      </trkpt>
      <trkpt lat="49.17741" lon="1.86221">
        <ele>112.84</ele>
        <time>2018-03-04T12:00:00Z</time>
      </trkpt>
      <trkpt lat="49.17727" lon="1.86238">
        <ele>112.8</ele>
        <time>2018-03-04T12:00:17Z</time>
      </trkpt>
      <trkpt lat="49.17713" lon="1.86254">
        <ele>112.3</ele>
        <time>2018-03-04T12:00:35Z</time>
      </trkpt>
      <trkpt lat="49.177" lon="1.86268">
        <ele>111.91</ele>
        <time>2018-03-04T12:00:51Z</time>
      </trkpt>
      <trkpt lat="49.17687" lon="1.86286">
        <ele>111.72</ele>
        <time>2018-03-04T12:01:08Z</time>
      </trkpt>
      <trkpt lat="49.17672" lon="1.86303">
        <ele>111.86</ele>
        <time>2018-03-04T12:01:25Z</time>
      </trkpt>
      <trkpt lat="49.17658" lon="1.8632">
        <ele>111.36</ele>
        <time>2018-03-04T12:01:42Z</time>
      </trkpt>
      <trkpt lat="49.17644" lon="1.86339">
        <ele>112.11</ele>
        <time>2018-03-04T12:01:59Z</time>
      </trkpt>
      <trkpt lat="49.17643" lon="1.8634">
        <ele>112.43</ele>
        <time>2018-03-04T12:02:00Z</time>
      </trkpt>
      <trkpt lat="49.17628" lon="1.86356">
        <ele>112.37</ele>
        <time>2018-03-04T12:02:16Z</time>
      </trkpt>
      <trkpt lat="49.17613" lon="1.86374">
        <ele>112.52</ele>
        <time>2018-03-04T12:02:34Z</time>
      </trkpt>
      <trkpt lat="49.176" lon="1.8639">
        <ele>112.91</ele>
        <time>2018-03-04T12:02:50Z</time>
      </trkpt>
      <trkpt lat="49.1759" lon="1.86404">
        <ele>113.47</ele>
        <time>2018-03-04T12:03:04Z</time>
      </trkpt>
      <trkpt lat="49.17579" lon="1.86423">
        <ele>113.95</ele>
        <time>2018-03-04T12:03:20Z</time>
      </trkpt>
      <trkpt lat="49.17566" lon="1.86447">
        <ele>114.32</ele>
        <time>2018-03-04T12:03:38Z</time>
      </trkpt>
      <trkpt lat="49.17554" lon="1.86473">
        <ele>114.94</ele>
        <time>2018-03-04T12:03:55Z</time>
      </trkpt>
      <trkpt lat="49.1754" lon="1.86494">
        <ele>114.5</ele>
        <time>2018-03-04T12:04:12Z</time>
      </trkpt>
      <trkpt lat="49.17526" lon="1.86514">
        <ele>114.36</ele>
        <time>2018-03-04T12:04:30Z</time>
      </trkpt>
      <trkpt lat="49.17515" lon="1.8653">
        <ele>114.44</ele>
        <time>2018-03-04T12:04:46Z</time>
      </trkpt>
      <trkpt lat="49.17513" lon="1.86531">
        <ele>114.21</ele>
        <time>2018-03-04T12:04:48Z</time>
      </trkpt>
      <trkpt lat="49.17504" lon="1.86544">
        <ele>114.37</ele>
        <time>2018-03-04T12:05:00Z</time>
      </trkpt>
      <trkpt lat="49.1749" lon="1.86558">
        <ele>114.09</ele>
        <time>2018-03-04T12:05:15Z</time>
      </trkpt>
      <trkpt lat="49.17473" lon="1.86578">
        <ele>113.8</ele>
        <time>2018-03-04T12:05:35Z</time>
      </trkpt>
      <trkpt lat="49.17459" lon="1.86594">
        <ele>113.6</ele>
        <time>2018-03-04T12:05:53Z</time>
      </trkpt>
      <trkpt lat="49.17442" lon="1.86613">
        <ele>112.67</ele>
        <time>2018-03-04T12:06:11Z</time>
      </trkpt>
      <trkpt lat="49.17426" lon="1.86633">
        <ele>113.08</ele>
        <time>2018-03-04T12:06:29Z</time>
      </trkpt>
      <trkpt lat="49.17412" lon="1.86649">
        <ele>112.62</ele>
        <time>2018-03-04T12:06:46Z</time>
      </trkpt>
      <trkpt lat="49.17398" lon="1.86662">
        <ele>112.66</ele>
        <time>2018-03-04T12:07:02Z</time>
      </trkpt>
      <trkpt lat="49.17381" lon="1.86681">
        <ele>111.34</ele>
        <time>2018-03-04T12:07:21Z</time>
      </trkpt>
      <trkpt lat="49.17363" lon="1.86703">
        <ele>112.44</ele>
        <time>2018-03-04T12:07:42Z</time>
      </trkpt>
      <trkpt lat="49.17349" lon="1.86718">
        <ele>111.67</ele>
        <time>2018-03-04T12:07:59Z</time>
      </trkpt>
      <trkpt lat="49.17336" lon="1.86734">
        <ele>111.52</ele>
        <time>2018-03-04T12:08:15Z</time>
      </trkpt>
      <trkpt lat="49.17323" lon="1.86748">
        <ele>111.37</ele>
        <time>2018-03-04T12:08:30Z</time>
      </trkpt>
      <trkpt lat="49.17306" lon="1.86766">
        <ele>110.83</ele>
        <time>2018-03-04T12:08:49Z</time>
      </trkpt>
      <trkpt lat="49.17293" lon="1.86782">
        <ele>110.71</ele>
        <time>2018-03-04T12:09:06Z</time>
      </trkpt>
      <trkpt lat="49.17278" lon="1.868">
        <ele>110.35</ele>
        <time>2018-03-04T12:09:23Z</time>
      </trkpt>
      <trkpt lat="49.17265" lon="1.86815">
        <ele>109.95</ele>
        <time>2018-03-04T12:09:39Z</time>
      </trkpt>
      <trkpt lat="49.1725" lon="1.8683">
        <ele>110.69</ele>
        <time>2018-03-04T12:09:56Z</time>
      </trkpt>
      <trkpt lat="49.17235" lon="1.86848">
        <ele>110.37</ele>
        <time>2018-03-04T12:10:14Z</time>
      </trkpt>
      <trkpt lat="49.17219" lon="1.86867">
        <ele>110.42</ele>
        <time>2018-03-04T12:10:33Z</time>
      </trkpt>
      <trkpt lat="49.17204" lon="1.86882">
        <ele>109.72</ele>
        <time>2018-03-04T12:10:50Z</time>
      </trkpt>
      <trkpt lat="49.17189" lon="1.869">
        <ele>109.73</ele>
        <time>2018-03-04T12:11:08Z</time>
      </trkpt>
      <trkpt lat="49.17174" lon="1.86916">
        <ele>108.59</ele>
        <time>2018-03-04T12:11:26Z</time>
      </trkpt>
      <trkpt lat="49.17158" lon="1.86934">
        <ele>109.05</ele>
        <time>2018-03-04T12:11:44Z</time>
      </trkpt>
      <trkpt lat="49.17143" lon="1.8695">
        <ele>108.84</ele>
        <time>2018-03-04T12:12:02Z</time>
      </trkpt>
      <trkpt lat="49.1713" lon="1.86964">
        <ele>108.96</ele>
        <time>2018-03-04T12:12:19Z</time>
      </trkpt>
      <trkpt lat="49.17115" lon="1.8698">
        <ele>108.75</ele>
        <time>2018-03-04T12:12:37Z</time>
      </trkpt>
      <trkpt lat="49.17101" lon="1.86997">
        <ele>109.24</ele>
        <time>2018-03-04T12:12:55Z</time>
      </trkpt>
      <trkpt lat="49.17093" lon="1.87008">
        <ele>110.05</ele>
        <time>2018-03-04T12:13:05Z</time>
      </trkpt>
      <trkpt lat="49.17078" lon="1.87027">
        <ele>110.9</ele>
        <time>2018-03-04T12:13:24Z</time>
      </trkpt>
      <trkpt lat="49.17066" lon="1.87041">
        <ele>111.02</ele>
        <time>2018-03-04T12:13:39Z</time>
      </trkpt>
      <trkpt lat="49.17063" lon="1.87044">
        <ele>110.55</ele>
        <time>2018-03-04T12:13:43Z</time>
      </trkpt>
      <trkpt lat="49.1705" lon="1.87059">
        <ele>110.68</ele>
        <time>2018-03-04T12:13:59Z</time>
      </trkpt>
      <trkpt lat="49.17037" lon="1.87072">
        <ele>110.73</ele>
        <time>2018-03-04T12:14:14Z</time>
      </trkpt>
      <trkpt lat="49.17021" lon="1.87087">
        <ele>110.81</ele>
        <time>2018-03-04T12:14:32Z</time>
      </trkpt>
      <trkpt lat="49.17005" lon="1.87104">
        <ele>111.15</ele>
        <time>2018-03-04T12:14:49Z</time>
      </trkpt>
      <trkpt lat="49.16988" lon="1.87113">
        <ele>111.33</ele>
        <time>2018-03-04T12:15:07Z</time>
      </trkpt>
      <trkpt lat="49.16968" lon="1.87121">
        <ele>111.23</ele>
        <time>2018-03-04T12:15:27Z</time>
      </trkpt>
      <trkpt lat="49.16954" lon="1.87126">
        <ele>110.94</ele>
        <time>2018-03-04T12:15:44Z</time>
      </trkpt>
      <trkpt lat="49.16944" lon="1.87126">
        <ele>111.5</ele>
        <time>2018-03-04T12:15:57Z</time>
      </trkpt>
      <trkpt lat="49.16928" lon="1.8713">
        <ele>111.08</ele>
        <time>2018-03-04T12:16:13Z</time>
      </trkpt>
      <trkpt lat="49.16927" lon="1.8713">
        <ele>111.08</ele>
        <time>2018-03-04T12:16:14Z</time>
      </trkpt>
      <trkpt lat="49.16907" lon="1.87127">
        <ele>111.45</ele>
        <time>2018-03-04T12:16:33Z</time>
      </trkpt>
      <trkpt lat="49.16893" lon="1.87125">
        <ele>111.1</ele>
        <time>2018-03-04T12:16:45Z</time>
      </trkpt>
      <trkpt lat="49.16891" lon="1.87125">
        <ele>111.2</ele>
        <time>2018-03-04T12:16:47Z</time>
      </trkpt>
      <trkpt lat="49.16873" lon="1.87122">
        <ele>111.2</ele>
        <time>2018-03-04T12:17:04Z</time>
      </trkpt>
      <trkpt lat="49.16851" lon="1.87123">
        <ele>111.32</ele>
        <time>2018-03-04T12:17:22Z</time>
      </trkpt>
      <trkpt lat="49.1683" lon="1.87126">
        <ele>111.74</ele>
        <time>2018-03-04T12:17:39Z</time>
      </trkpt>
      <trkpt lat="49.16814" lon="1.87128">
        <ele>111.42</ele>
        <time>2018-03-04T12:17:54Z</time>
      </trkpt>
      <trkpt lat="49.16796" lon="1.87134">
        <ele>111.08</ele>
        <time>2018-03-04T12:18:10Z</time>
      </trkpt>
      <trkpt lat="49.16773" lon="1.87141">
        <ele>109.99</ele>
        <time>2018-03-04T12:18:30Z</time>
      </trkpt>
      <trkpt lat="49.1676" lon="1.87147">
        <ele>110.51</ele>
        <time>2018-03-04T12:18:43Z</time>
      </trkpt>
      <trkpt lat="49.16743" lon="1.87151">
        <ele>109.99</ele>
        <time>2018-03-04T12:18:59Z</time>
      </trkpt>
      <trkpt lat="49.16724" lon="1.87155">
        <ele>109.63</ele>
        <time>2018-03-04T12:19:16Z</time>
      </trkpt>
      <trkpt lat="49.16701" lon="1.87156">
        <ele>109.6</ele>
        <time>2018-03-04T12:19:38Z</time>
      </trkpt>
      <trkpt lat="49.1668" lon="1.87156">
        <ele>109.05</ele>
        <time>2018-03-04T12:19:56Z</time>
      </trkpt>
      <trkpt lat="49.16661" lon="1.87154">
        <ele>108.95</ele>
        <time>2018-03-04T12:20:12Z</time>
      </trkpt>
      <trkpt lat="49.16648" lon="1.87152">
        <ele>108.6</ele>
        <time>2018-03-04T12:20:24Z</time>
      </trkpt>
      <trkpt lat="49.16634" lon="1.87149">
        <ele>108.85</ele>
        <time>2018-03-04T12:20:36Z</time>
      </trkpt>
      <trkpt lat="49.16615" lon="1.87146">
        <ele>108.03</ele>
        <time>2018-03-04T12:20:54Z</time>
      </trkpt>
      <trkpt lat="49.16603" lon="1.87147">
        <ele>107.94</ele>
        <time>2018-03-04T12:21:05Z</time>
      </trkpt>
      <trkpt lat="49.16577" lon="1.87148">
        <ele>108.05</ele>
        <time>2018-03-04T12:21:26Z</time>
      </trkpt>
      <trkpt lat="49.16561" lon="1.87152">
        <ele>108.06</ele>
        <time>2018-03-04T12:21:41Z</time>
      </trkpt>
      <trkpt lat="49.16543" lon="1.87155">
        <ele>108.09</ele>
        <time>2018-03-04T12:21:57Z</time>
      </trkpt>
      <trkpt lat="49.16524" lon="1.87158">
        <ele>108.3</ele>
        <time>2018-03-04T12:22:14Z</time>
      </trkpt>
      <trkpt lat="49.16503" lon="1.87161">
        <ele>107.84</ele>
        <time>2018-03-04T12:22:32Z</time>
      </trkpt>
      <trkpt lat="49.16489" lon="1.87163">
        <ele>108.52</ele>
        <time>2018-03-04T12:22:46Z</time>
      </trkpt>
      <trkpt lat="49.16478" lon="1.87163">
        <ele>107.31</ele>
        <time>2018-03-04T12:22:56Z</time>
      </trkpt>
      <trkpt lat="49.1647" lon="1.87167">
        <ele>107.4</ele>
        <time>2018-03-04T12:23:10Z</time>
      </trkpt>
      <trkpt lat="49.16463" lon="1.87169">
        <ele>107.9</ele>
        <time>2018-03-04T12:23:16Z</time>
      </trkpt>
      <trkpt lat="49.16453" lon="1.87166">
        <ele>107.47</ele>
        <time>2018-03-04T12:23:30Z</time>
      </trkpt>
      <trkpt lat="49.16442" lon="1.87165">
        <ele>107.2</ele>
        <time>2018-03-04T12:23:40Z</time>
      </trkpt>
      <trkpt lat="49.1644" lon="1.87165">
        <ele>107.63</ele>
        <time>2018-03-04T12:23:42Z</time>
      </trkpt>
      <trkpt lat="49.16417" lon="1.87164">
        <ele>107.31</ele>
        <time>2018-03-04T12:24:01Z</time>
      </trkpt>
      <trkpt lat="49.16398" lon="1.87166">
        <ele>107.33</ele>
        <time>2018-03-04T12:24:18Z</time>
      </trkpt>
      <trkpt lat="49.16376" lon="1.87172">
        <ele>107.41</ele>
        <time>2018-03-04T12:24:36Z</time>
      </trkpt>
      <trkpt lat="49.1636" lon="1.8718">
        <ele>108.34</ele>
        <time>2018-03-04T12:24:51Z</time>
      </trkpt>
      <trkpt lat="49.16342" lon="1.87192">
        <ele>108.02</ele>
        <time>2018-03-04T12:25:09Z</time>
      </trkpt>
      <trkpt lat="49.16324" lon="1.87204">
        <ele>108</ele>
        <time>2018-03-04T12:25:27Z</time>
      </trkpt>
      <trkpt lat="49.16302" lon="1.87219">
        <ele>108.18</ele>
        <time>2018-03-04T12:25:46Z</time>
      </trkpt>
      <trkpt lat="49.16282" lon="1.87233">
        <ele>107.58</ele>
        <time>2018-03-04T12:26:04Z</time>
      </trkpt>
      <trkpt lat="49.16268" lon="1.87241">
        <ele>108.39</ele>
        <time>2018-03-04T12:26:18Z</time>
      </trkpt>
      <trkpt lat="49.16257" lon="1.87246">
        <ele>107.8</ele>
        <time>2018-03-04T12:26:27Z</time>
      </trkpt>
      <trkpt lat="49.16252" lon="1.87249">
        <ele>107.72</ele>
        <time>2018-03-04T12:26:31Z</time>
      </trkpt>
      <trkpt lat="49.16232" lon="1.87258">
        <ele>107.41</ele>
        <time>2018-03-04T12:26:49Z</time>
      </trkpt>
      <trkpt lat="49.16214" lon="1.87262">
        <ele>107.4</ele>
        <time>2018-03-04T12:27:05Z</time>
      </trkpt>
      <trkpt lat="49.16202" lon="1.87266">
        <ele>107.79</ele>
        <time>2018-03-04T12:27:16Z</time>
      </trkpt>
      <trkpt lat="49.16188" lon="1.87274">
        <ele>107.8</ele>
        <time>2018-03-04T12:27:31Z</time>
      </trkpt>
      <trkpt lat="49.16187" lon="1.87278">
        <ele>107.9</ele>
        <time>2018-03-04T12:27:50Z</time>
      </trkpt>
      <trkpt lat="49.16186" lon="1.87277">
        <ele>107.97</ele>
        <time>2018-03-04T12:28:12Z</time>
      </trkpt>
      <trkpt lat="49.16179" lon="1.87279">
        <ele>108.05</ele>
        <time>2018-03-04T12:28:32Z</time>
      </trkpt>
      <trkpt lat="49.16176" lon="1.87281">
        <ele>107.31</ele>
        <time>2018-03-04T12:28:36Z</time>
      </trkpt>
      <trkpt lat="49.1616" lon="1.8729">
        <ele>107.2</ele>
        <time>2018-03-04T12:28:52Z</time>
      </trkpt>
      <trkpt lat="49.16145" lon="1.87299">
        <ele>107.59</ele>
        <time>2018-03-04T12:29:07Z</time>
      </trkpt>
      <trkpt lat="49.16129" lon="1.87309">
        <ele>107.83</ele>
        <time>2018-03-04T12:29:23Z</time>
      </trkpt>
      <trkpt lat="49.16112" lon="1.87318">
        <ele>107.72</ele>
        <time>2018-03-04T12:29:40Z</time>
      </trkpt>
      <trkpt lat="49.16095" lon="1.87329">
        <ele>107.29</ele>
        <time>2018-03-04T12:29:57Z</time>
      </trkpt>
      <trkpt lat="49.16079" lon="1.87338">
        <ele>107.04</ele>
        <time>2018-03-04T12:30:12Z</time>
      </trkpt>
      <trkpt lat="49.16063" lon="1.8735">
        <ele>107.72</ele>
        <time>2018-03-04T12:30:29Z</time>
      </trkpt>
      <trkpt lat="49.16056" lon="1.87356">
        <ele>107.44</ele>
        <time>2018-03-04T12:30:39Z</time>
      </trkpt>
      <trkpt lat="49.16055" lon="1.87364">
        <ele>107.53</ele>
        <time>2018-03-04T12:30:46Z</time>
      </trkpt>
      <trkpt lat="49.16057" lon="1.87374">
        <ele>107.66</ele>
        <time>2018-03-04T12:30:52Z</time>
      </trkpt>
      <trkpt lat="49.16059" lon="1.87382">
        <ele>107.97</ele>
        <time>2018-03-04T12:30:57Z</time>
      </trkpt>
      <trkpt lat="49.16062" lon="1.87389">
        <ele>107.93</ele>
        <time>2018-03-04T12:31:02Z</time>
      </trkpt>
      <trkpt lat="49.16063" lon="1.87397">
        <ele>108.13</ele>
        <time>2018-03-04T12:31:07Z</time>
      </trkpt>
      <trkpt lat="49.16064" lon="1.87403">
        <ele>107.95</ele>
        <time>2018-03-04T12:31:11Z</time>
      </trkpt>
      <trkpt lat="49.16073" lon="1.87433">
        <ele>108.23</ele>
        <time>2018-03-04T12:31:30Z</time>
      </trkpt>
      <trkpt lat="49.16083" lon="1.8747">
        <ele>108.74</ele>
        <time>2018-03-04T12:31:52Z</time>
      </trkpt>
      <trkpt lat="49.16091" lon="1.87496">
        <ele>108.9</ele>
        <time>2018-03-04T12:32:09Z</time>
      </trkpt>
      <trkpt lat="49.161" lon="1.87526">
        <ele>109.69</ele>
        <time>2018-03-04T12:32:27Z</time>
      </trkpt>
      <trkpt lat="49.16109" lon="1.87554">
        <ele>109.58</ele>
        <time>2018-03-04T12:32:45Z</time>
      </trkpt>
      <trkpt lat="49.16116" lon="1.87585">
        <ele>110.03</ele>
        <time>2018-03-04T12:33:03Z</time>
      </trkpt>
      <trkpt lat="49.16125" lon="1.87618">
        <ele>109.92</ele>
        <time>2018-03-04T12:33:23Z</time>
      </trkpt>
      <trkpt lat="49.16129" lon="1.87629">
        <ele>110.61</ele>
        <time>2018-03-04T12:33:33Z</time>
      </trkpt>
      <trkpt lat="49.16132" lon="1.87642">
        <ele>110.56</ele>
        <time>2018-03-04T12:33:47Z</time>
      </trkpt>
      <trkpt lat="49.16134" lon="1.87654">
        <ele>110.28</ele>
        <time>2018-03-04T12:34:01Z</time>
      </trkpt>
      <trkpt lat="49.16137" lon="1.87668">
        <ele>110.37</ele>
        <time>2018-03-04T12:34:09Z</time>
      </trkpt>
      <trkpt lat="49.16143" lon="1.87708">
        <ele>111.22</ele>
        <time>2018-03-04T12:34:31Z</time>
      </trkpt>
      <trkpt lat="49.16148" lon="1.87741">
        <ele>111.17</ele>
        <time>2018-03-04T12:34:51Z</time>
      </trkpt>
      <trkpt lat="49.16151" lon="1.8777">
        <ele>111.34</ele>
        <time>2018-03-04T12:35:08Z</time>
      </trkpt>
      <trkpt lat="49.16154" lon="1.87803">
        <ele>111.37</ele>
        <time>2018-03-04T12:35:27Z</time>
      </trkpt>
      <trkpt lat="49.16157" lon="1.87835">
        <ele>111.86</ele>
        <time>2018-03-04T12:35:46Z</time>
      </trkpt>
      <trkpt lat="49.16157" lon="1.87863">
        <ele>112.13</ele>
        <time>2018-03-04T12:36:02Z</time>
      </trkpt>
      <trkpt lat="49.16157" lon="1.87896">
        <ele>113.48</ele>
        <time>2018-03-04T12:36:22Z</time>
      </trkpt>
      <trkpt lat="49.16155" lon="1.87919">
        <ele>113.11</ele>
        <time>2018-03-04T12:36:36Z</time>
      </trkpt>
      <trkpt lat="49.16156" lon="1.87944">
        <ele>113.01</ele>
        <time>2018-03-04T12:36:50Z</time>
      </trkpt>
      <trkpt lat="49.16155" lon="1.87955">
        <ele>113.53</ele>
        <time>2018-03-04T12:36:56Z</time>
      </trkpt>
      <trkpt lat="49.16155" lon="1.87991">
        <ele>113.31</ele>
        <time>2018-03-04T12:37:19Z</time>
      </trkpt>
      <trkpt lat="49.16155" lon="1.87995">
        <ele>112.95</ele>
        <time>2018-03-04T12:37:24Z</time>
      </trkpt>
      <trkpt lat="49.16155" lon="1.87998">
        <ele>113.07</ele>
        <time>2018-03-04T12:37:26Z</time>
      </trkpt>
      <trkpt lat="49.16153" lon="1.88035">
        <ele>113.04</ele>
        <time>2018-03-04T12:37:47Z</time>
      </trkpt>
      <trkpt lat="49.1615" lon="1.88065">
        <ele>113.39</ele>
        <time>2018-03-04T12:38:04Z</time>
      </trkpt>
      <trkpt lat="49.16147" lon="1.88103">
        <ele>113.03</ele>
        <time>2018-03-04T12:38:25Z</time>
      </trkpt>
      <trkpt lat="49.16147" lon="1.88141">
        <ele>113.21</ele>
        <time>2018-03-04T12:38:47Z</time>
      </trkpt>
      <trkpt lat="49.16145" lon="1.88175">
        <ele>112.57</ele>
        <time>2018-03-04T12:39:06Z</time>
      </trkpt>
      <trkpt lat="49.16145" lon="1.88189">
        <ele>112.99</ele>
        <time>2018-03-04T12:39:14Z</time>
      </trkpt>
      <trkpt lat="49.16145" lon="1.88224">
        <ele>112.31</ele>
        <time>2018-03-04T12:39:34Z</time>
      </trkpt>
      <trkpt lat="49.16143" lon="1.88257">
        <ele>112.61</ele>
        <time>2018-03-04T12:39:53Z</time>
      </trkpt>
      <trkpt lat="49.16143" lon="1.88276">
        <ele>112.95</ele>
        <time>2018-03-04T12:40:04Z</time>
      </trkpt>
      <trkpt lat="49.16156" lon="1.88281">
        <ele>112.24</ele>
        <time>2018-03-04T12:40:18Z</time>
      </trkpt>
      <trkpt lat="49.16159" lon="1.88282">
        <ele>112.77</ele>
        <time>2018-03-04T12:40:40Z</time>
      </trkpt>
      <trkpt lat="49.16159" lon="1.88282">
        <ele>112.4</ele>
        <time>2018-03-04T12:40:56Z</time>
      </trkpt>
      <trkpt lat="49.1616" lon="1.88285">
        <ele>112.35</ele>
        <time>2018-03-04T12:40:58Z</time>
      </trkpt>
      <trkpt lat="49.16155" lon="1.88294">
        <ele>113.32</ele>
        <time>2018-03-04T12:41:12Z</time>
      </trkpt>
      <trkpt lat="49.16155" lon="1.88299">
        <ele>112.37</ele>
        <time>2018-03-04T12:41:17Z</time>
      </trkpt>
      <trkpt lat="49.16155" lon="1.88306">
        <ele>112.59</ele>
        <time>2018-03-04T12:41:23Z</time>
      </trkpt>
      <trkpt lat="49.16158" lon="1.88324">
        <ele>112.93</ele>
        <time>2018-03-04T12:41:37Z</time>
      </trkpt>
      <trkpt lat="49.16164" lon="1.8835">
        <ele>112.63</ele>
        <time>2018-03-04T12:41:53Z</time>
      </trkpt>
      <trkpt lat="49.16165" lon="1.88354">
        <ele>112.51</ele>
        <time>2018-03-04T12:41:56Z</time>
      </trkpt>
      <trkpt lat="49.16166" lon="1.88356">
        <ele>112.23</ele>
        <time>2018-03-04T12:41:58Z</time>
      </trkpt>
      <trkpt lat="49.16175" lon="1.8839">
        <ele>111.68</ele>
        <time>2018-03-04T12:42:18Z</time>
      </trkpt>
      <trkpt lat="49.1618" lon="1.88414">
        <ele>111.89</ele>
        <time>2018-03-04T12:42:33Z</time>
      </trkpt>
      <trkpt lat="49.16188" lon="1.88444">
        <ele>112.42</ele>
        <time>2018-03-04T12:42:50Z</time>
      </trkpt>
      <trkpt lat="49.16196" lon="1.8848">
        <ele>111.67</ele>
        <time>2018-03-04T12:43:11Z</time>
      </trkpt>
      <trkpt lat="49.16204" lon="1.88512">
        <ele>112.16</ele>
        <time>2018-03-04T12:43:30Z</time>
      </trkpt>
      <trkpt lat="49.16211" lon="1.88541">
        <ele>111.38</ele>
        <time>2018-03-04T12:43:49Z</time>
      </trkpt>
      <trkpt lat="49.16217" lon="1.88566">
        <ele>111.69</ele>
        <time>2018-03-04T12:44:05Z</time>
      </trkpt>
      <trkpt lat="49.16218" lon="1.88571">
        <ele>111.79</ele>
        <time>2018-03-04T12:44:08Z</time>
      </trkpt>
      <trkpt lat="49.16222" lon="1.88587">
        <ele>111.86</ele>
        <time>2018-03-04T12:44:18Z</time>
      </trkpt>
      <trkpt lat="49.16224" lon="1.88595">
        <ele>111.46</ele>
        <time>2018-03-04T12:44:23Z</time>
      </trkpt>
      <trkpt lat="49.16231" lon="1.88623">
        <ele>111.17</ele>
        <time>2018-03-04T12:44:40Z</time>
      </trkpt>
      <trkpt lat="49.16236" lon="1.8865">
        <ele>111.41</ele>
        <time>2018-03-04T12:44:57Z</time>
      </trkpt>
      <trkpt lat="49.1624" lon="1.88668">
        <ele>112.27</ele>
        <time>2018-03-04T12:45:09Z</time>
      </trkpt>
      <trkpt lat="49.16241" lon="1.88675">
        <ele>111.74</ele>
        <time>2018-03-04T12:45:13Z</time>
      </trkpt>
      <trkpt lat="49.16247" lon="1.88707">
        <ele>111.93</ele>
        <time>2018-03-04T12:45:32Z</time>
      </trkpt>
      <trkpt lat="49.1625" lon="1.88722">
        <ele>112.25</ele>
        <time>2018-03-04T12:45:41Z</time>
      </trkpt>
      <trkpt lat="49.16254" lon="1.88759">
        <ele>112.25</ele>
        <time>2018-03-04T12:46:03Z</time>
      </trkpt>
      <trkpt lat="49.16256" lon="1.88786">
        <ele>112.16</ele>
        <time>2018-03-04T12:46:19Z</time>
      </trkpt>
      <trkpt lat="49.16257" lon="1.88799">
        <ele>112.12</ele>
        <time>2018-03-04T12:46:27Z</time>
      </trkpt>
      <trkpt lat="49.1626" lon="1.88825">
        <ele>112.63</ele>
        <time>2018-03-04T12:46:44Z</time>
      </trkpt>
      <trkpt lat="49.16263" lon="1.88855">
        <ele>111.94</ele>
        <time>2018-03-04T12:47:01Z</time>
      </trkpt>
      <trkpt lat="49.16263" lon="1.8886">
        <ele>112.39</ele>
        <time>2018-03-04T12:47:05Z</time>
      </trkpt>
      <trkpt lat="49.16265" lon="1.8887">
        <ele>111.8</ele>
        <time>2018-03-04T12:47:11Z</time>
      </trkpt>
      <trkpt lat="49.16269" lon="1.88903">
        <ele>112.41</ele>
        <time>2018-03-04T12:47:31Z</time>
      </trkpt>
      <trkpt lat="49.16274" lon="1.88939">
        <ele>112.15</ele>
        <time>2018-03-04T12:47:53Z</time>
      </trkpt>
      <trkpt lat="49.16278" lon="1.88966">
        <ele>113.15</ele>
        <time>2018-03-04T12:48:09Z</time>
      </trkpt>
      <trkpt lat="49.16286" lon="1.88995">
        <ele>112.79</ele>
        <time>2018-03-04T12:48:28Z</time>
      </trkpt>
      <trkpt lat="49.16296" lon="1.89014">
        <ele>112.51</ele>
        <time>2018-03-04T12:48:43Z</time>
      </trkpt>
      <trkpt lat="49.1631" lon="1.89026">
        <ele>112.03</ele>
        <time>2018-03-04T12:48:57Z</time>
      </trkpt>
      <trkpt lat="49.16329" lon="1.89037">
        <ele>112.03</ele>
        <time>2018-03-04T12:49:15Z</time>
      </trkpt>
      <trkpt lat="49.16346" lon="1.89049">
        <ele>111.66</ele>
        <time>2018-03-04T12:49:31Z</time>
      </trkpt>
      <trkpt lat="49.16366" lon="1.8906">
        <ele>111.3</ele>
        <time>2018-03-04T12:49:49Z</time>
      </trkpt>
      <trkpt lat="49.16384" lon="1.89072">
        <ele>111.18</ele>
        <time>2018-03-04T12:50:06Z</time>
      </trkpt>
      <trkpt lat="49.1639" lon="1.89076">
        <ele>111.03</ele>
        <time>2018-03-04T12:50:11Z</time>
      </trkpt>
      <trkpt lat="49.16405" lon="1.89086">
        <ele>110.62</ele>
        <time>2018-03-04T12:50:26Z</time>
      </trkpt>
      <trkpt lat="49.1642" lon="1.89095">
        <ele>110.53</ele>
        <time>2018-03-04T12:50:41Z</time>
      </trkpt>
      <trkpt lat="49.16434" lon="1.89104">
        <ele>110.69</ele>
        <time>2018-03-04T12:50:56Z</time>
      </trkpt>
      <trkpt lat="49.16449" lon="1.89115">
        <ele>110.74</ele>
        <time>2018-03-04T12:51:11Z</time>
      </trkpt>
      <trkpt lat="49.16468" lon="1.89129">
        <ele>110.48</ele>
        <time>2018-03-04T12:51:29Z</time>
      </trkpt>
      <trkpt lat="49.16486" lon="1.89142">
        <ele>109.52</ele>
        <time>2018-03-04T12:51:47Z</time>
      </trkpt>
      <trkpt lat="49.16506" lon="1.89157">
        <ele>110.21</ele>
        <time>2018-03-04T12:52:06Z</time>
      </trkpt>
      <trkpt lat="49.16521" lon="1.89168">
        <ele>109.74</ele>
        <time>2018-03-04T12:52:21Z</time>
      </trkpt>
      <trkpt lat="49.16541" lon="1.89182">
        <ele>110.12</ele>
        <time>2018-03-04T12:52:40Z</time>
      </trkpt>
      <trkpt lat="49.16556" lon="1.89194">
        <ele>109.67</ele>
        <time>2018-03-04T12:52:55Z</time>
      </trkpt>
      <trkpt lat="49.16572" lon="1.89206">
        <ele>110.1</ele>
        <time>2018-03-04T12:53:11Z</time>
      </trkpt>
      <trkpt lat="49.16593" lon="1.89221">
        <ele>109.27</ele>
        <time>2018-03-04T12:53:31Z</time>
      </trkpt>
      <trkpt lat="49.1661" lon="1.89234">
        <ele>108.83</ele>
        <time>2018-03-04T12:53:47Z</time>
      </trkpt>
      <trkpt lat="49.16626" lon="1.89245">
        <ele>109.19</ele>
        <time>2018-03-04T12:54:03Z</time>
      </trkpt>
      <trkpt lat="49.16646" lon="1.89259">
        <ele>108.87</ele>
        <time>2018-03-04T12:54:23Z</time>
      </trkpt>
      <trkpt lat="49.16664" lon="1.89271">
        <ele>108.03</ele>
        <time>2018-03-04T12:54:40Z</time>
      </trkpt>
      <trkpt lat="49.16665" lon="1.89272">
        <ele>108.4</ele>
        <time>2018-03-04T12:54:41Z</time>
      </trkpt>
      <trkpt lat="49.16681" lon="1.89284">
        <ele>107.5</ele>
        <time>2018-03-04T12:54:58Z</time>
      </trkpt>
      <trkpt lat="49.16684" lon="1.89287">
        <ele>108.22</ele>
        <time>2018-03-04T12:55:01Z</time>
      </trkpt>
      <trkpt lat="49.16694" lon="1.89297">
        <ele>107.51</ele>
        <time>2018-03-04T12:55:11Z</time>
      </trkpt>
      <trkpt lat="49.16712" lon="1.89315">
        <ele>107.46</ele>
        <time>2018-03-04T12:55:29Z</time>
      </trkpt>
      <trkpt lat="49.16726" lon="1.89332">
        <ele>107.54</ele>
        <time>2018-03-04T12:55:45Z</time>
      </trkpt>
      <trkpt lat="49.16737" lon="1.89347">
        <ele>107.67</ele>
        <time>2018-03-04T12:55:59Z</time>
      </trkpt>
      <trkpt lat="49.1675" lon="1.89365">
        <ele>107.21</ele>
        <time>2018-03-04T12:56:15Z</time>
      </trkpt>
      <trkpt lat="49.16766" lon="1.89387">
        <ele>106.85</ele>
        <time>2018-03-04T12:56:33Z</time>
      </trkpt>
      <trkpt lat="49.16768" lon="1.89391">
        <ele>106.71</ele>
        <time>2018-03-04T12:56:36Z</time>
      </trkpt>
      <trkpt lat="49.16779" lon="1.89407">
        <ele>106.97</ele>
        <time>2018-03-04T12:56:50Z</time>
      </trkpt>
      <trkpt lat="49.16793" lon="1.89429">
        <ele>105.81</ele>
        <time>2018-03-04T12:57:07Z</time>
      </trkpt>
      <trkpt lat="49.16808" lon="1.89453">
        <ele>106.08</ele>
        <time>2018-03-04T12:57:26Z</time>
      </trkpt>
      <trkpt lat="49.16821" lon="1.89474">
        <ele>106.07</ele>
        <time>2018-03-04T12:57:42Z</time>
      </trkpt>
      <trkpt lat="49.16834" lon="1.89492">
        <ele>105.85</ele>
        <time>2018-03-04T12:57:59Z</time>
      </trkpt>
      <trkpt lat="49.16845" lon="1.89512">
        <ele>105.55</ele>
        <time>2018-03-04T12:58:14Z</time>
      </trkpt>
      <trkpt lat="49.16855" lon="1.89527">
        <ele>105.25</ele>
        <time>2018-03-04T12:58:26Z</time>
      </trkpt>
      <trkpt lat="49.16856" lon="1.8953">
        <ele>105.04</ele>
        <time>2018-03-04T12:58:28Z</time>
      </trkpt>
      <trkpt lat="49.16871" lon="1.89555">
        <ele>105.32</ele>
        <time>2018-03-04T12:58:48Z</time>
      </trkpt>
      <trkpt lat="49.16883" lon="1.89577">
        <ele>104.88</ele>
        <time>2018-03-04T12:59:05Z</time>
      </trkpt>
      <trkpt lat="49.16895" lon="1.89597">
        <ele>105.64</ele>
        <time>2018-03-04T12:59:20Z</time>
      </trkpt>
      <trkpt lat="49.16909" lon="1.8962">
        <ele>104.77</ele>
        <time>2018-03-04T12:59:37Z</time>
      </trkpt>
      <trkpt lat="49.16922" lon="1.89644">
        <ele>104.95</ele>
        <time>2018-03-04T12:59:55Z</time>
      </trkpt>
      <trkpt lat="49.16935" lon="1.89666">
        <ele>104.33</ele>
        <time>2018-03-04T13:00:11Z</time>
      </trkpt>
      <trkpt lat="49.16949" lon="1.8969">
        <ele>104.79</ele>
        <time>2018-03-04T13:00:27Z</time>
      </trkpt>
      <trkpt lat="49.1695" lon="1.89693">
        <ele>104.08</ele>
        <time>2018-03-04T13:00:29Z</time>
      </trkpt>
      <trkpt lat="49.1696" lon="1.89713">
        <ele>104.41</ele>
        <time>2018-03-04T13:00:44Z</time>
      </trkpt>
      <trkpt lat="49.16971" lon="1.89732">
        <ele>104.39</ele>
        <time>2018-03-04T13:00:58Z</time>
      </trkpt>
      <trkpt lat="49.16974" lon="1.89736">
        <ele>104.29</ele>
        <time>2018-03-04T13:01:15Z</time>
      </trkpt>
      <trkpt lat="49.16973" lon="1.89739">
        <ele>103.99</ele>
        <time>2018-03-04T13:01:51Z</time>
      </trkpt>
      <trkpt lat="49.16972" lon="1.89739">
        <ele>104.01</ele>
        <time>2018-03-04T13:02:19Z</time>
      </trkpt>
      <trkpt lat="49.16973" lon="1.89739">
        <ele>103.88</ele>
        <time>2018-03-04T13:02:45Z</time>
      </trkpt>
      <trkpt lat="49.16972" lon="1.89734">
        <ele>104.18</ele>
        <time>2018-03-04T13:02:54Z</time>
      </trkpt>
      <trkpt lat="49.16964" lon="1.89721">
        <ele>104.2</ele>
        <time>2018-03-04T13:03:09Z</time>
      </trkpt>
      <trkpt lat="49.16962" lon="1.89718">
        <ele>104.39</ele>
        <time>2018-03-04T13:03:12Z</time>
      </trkpt>
      <trkpt lat="49.1696" lon="1.89713">
        <ele>104.04</ele>
        <time>2018-03-04T13:03:16Z</time>
      </trkpt>
      <trkpt lat="49.16946" lon="1.89686">
        <ele>104.23</ele>
        <time>2018-03-04T13:03:34Z</time>
      </trkpt>
      <trkpt lat="49.16934" lon="1.89662">
        <ele>104.49</ele>
        <time>2018-03-04T13:03:51Z</time>
      </trkpt>
      <trkpt lat="49.1692" lon="1.89638">
        <ele>104.66</ele>
        <time>2018-03-04T13:04:10Z</time>
      </trkpt>
      <trkpt lat="49.16918" lon="1.89635">
        <ele>104.25</ele>
        <time>2018-03-04T13:04:12Z</time>
      </trkpt>
      <trkpt lat="49.16916" lon="1.89629">
        <ele>104.49</ele>
        <time>2018-03-04T13:04:16Z</time>
      </trkpt>
      <trkpt lat="49.16901" lon="1.89606">
        <ele>103.99</ele>
        <time>2018-03-04T13:04:33Z</time>
      </trkpt>
      <trkpt lat="49.16887" lon="1.89584">
        <ele>105.03</ele>
        <time>2018-03-04T13:04:49Z</time>
      </trkpt>
      <trkpt lat="49.16874" lon="1.8956">
        <ele>104.36</ele>
        <time>2018-03-04T13:05:05Z</time>
      </trkpt>
      <trkpt lat="49.1687" lon="1.89553">
        <ele>104.74</ele>
        <time>2018-03-04T13:05:11Z</time>
      </trkpt>
      <trkpt lat="49.16859" lon="1.89531">
        <ele>104.61</ele>
        <time>2018-03-04T13:05:26Z</time>
      </trkpt>
      <trkpt lat="49.16843" lon="1.89504">
        <ele>103.89</ele>
        <time>2018-03-04T13:05:44Z</time>
      </trkpt>
      <trkpt lat="49.16831" lon="1.89485">
        <ele>104.34</ele>
        <time>2018-03-04T13:05:58Z</time>
      </trkpt>
      <trkpt lat="49.16817" lon="1.89461">
        <ele>104.25</ele>
        <time>2018-03-04T13:06:15Z</time>
      </trkpt>
      <trkpt lat="49.16801" lon="1.89438">
        <ele>104.47</ele>
        <time>2018-03-04T13:06:33Z</time>
      </trkpt>
      <trkpt lat="49.16786" lon="1.89414">
        <ele>104.35</ele>
        <time>2018-03-04T13:06:51Z</time>
      </trkpt>
      <trkpt lat="49.16768" lon="1.89389">
        <ele>105.1</ele>
        <time>2018-03-04T13:07:11Z</time>
      </trkpt>
      <trkpt lat="49.16756" lon="1.8937">
        <ele>105.02</ele>
        <time>2018-03-04T13:07:26Z</time>
      </trkpt>
      <trkpt lat="49.16742" lon="1.8935">
        <ele>105.64</ele>
        <time>2018-03-04T13:07:41Z</time>
      </trkpt>
      <trkpt lat="49.16728" lon="1.89333">
        <ele>105.85</ele>
        <time>2018-03-04T13:07:57Z</time>
      </trkpt>
      <trkpt lat="49.16712" lon="1.89315">
        <ele>106.34</ele>
        <time>2018-03-04T13:08:13Z</time>
      </trkpt>
      <trkpt lat="49.16696" lon="1.89299">
        <ele>106.77</ele>
        <time>2018-03-04T13:08:29Z</time>
      </trkpt>
      <trkpt lat="49.16679" lon="1.89284">
        <ele>106.97</ele>
        <time>2018-03-04T13:08:45Z</time>
      </trkpt>
      <trkpt lat="49.16665" lon="1.89272">
        <ele>107.16</ele>
        <time>2018-03-04T13:08:59Z</time>
      </trkpt>
      <trkpt lat="49.16647" lon="1.89259">
        <ele>107.13</ele>
        <time>2018-03-04T13:09:15Z</time>
      </trkpt>
      <trkpt lat="49.1663" lon="1.89248">
        <ele>107.04</ele>
        <time>2018-03-04T13:09:30Z</time>
      </trkpt>
      <trkpt lat="49.16611" lon="1.89237">
        <ele>107.28</ele>
        <time>2018-03-04T13:09:47Z</time>
      </trkpt>
      <trkpt lat="49.16602" lon="1.89237">
        <ele>107.3</ele>
        <time>2018-03-04T13:09:57Z</time>
      </trkpt>
      <trkpt lat="49.16597" lon="1.89238">
        <ele>107.38</ele>
        <time>2018-03-04T13:10:01Z</time>
      </trkpt>
      <trkpt lat="49.16588" lon="1.89242">
        <ele>107.61</ele>
        <time>2018-03-04T13:10:10Z</time>
      </trkpt>
      <trkpt lat="49.16585" lon="1.89242">
        <ele>107.56</ele>
        <time>2018-03-04T13:10:13Z</time>
      </trkpt>
      <trkpt lat="49.16565" lon="1.89247">
        <ele>107.78</ele>
        <time>2018-03-04T13:10:30Z</time>
      </trkpt>
      <trkpt lat="49.16546" lon="1.89251">
        <ele>107.44</ele>
        <time>2018-03-04T13:10:45Z</time>
      </trkpt>
      <trkpt lat="49.16525" lon="1.89256">
        <ele>106.91</ele>
        <time>2018-03-04T13:11:02Z</time>
      </trkpt>
      <trkpt lat="49.16504" lon="1.8926">
        <ele>107.31</ele>
        <time>2018-03-04T13:11:19Z</time>
      </trkpt>
      <trkpt lat="49.16487" lon="1.89264">
        <ele>107.1</ele>
        <time>2018-03-04T13:11:34Z</time>
      </trkpt>
      <trkpt lat="49.16469" lon="1.89276">
        <ele>106.7</ele>
        <time>2018-03-04T13:11:51Z</time>
      </trkpt>
      <trkpt lat="49.16451" lon="1.89289">
        <ele>106.45</ele>
        <time>2018-03-04T13:12:07Z</time>
      </trkpt>
      <trkpt lat="49.16431" lon="1.89307">
        <ele>107.14</ele>
        <time>2018-03-04T13:12:26Z</time>
      </trkpt>
      <trkpt lat="49.16413" lon="1.8932">
        <ele>106.41</ele>
        <time>2018-03-04T13:12:42Z</time>
      </trkpt>
      <trkpt lat="49.16396" lon="1.89334">
        <ele>106.09</ele>
        <time>2018-03-04T13:12:58Z</time>
      </trkpt>
      <trkpt lat="49.16392" lon="1.89337">
        <ele>105.77</ele>
        <time>2018-03-04T13:13:05Z</time>
      </trkpt>
      <trkpt lat="49.16384" lon="1.89341">
        <ele>105.62</ele>
        <time>2018-03-04T13:13:16Z</time>
      </trkpt>
      <trkpt lat="49.1638" lon="1.89344">
        <ele>105.9</ele>
        <time>2018-03-04T13:13:20Z</time>
      </trkpt>
      <trkpt lat="49.16366" lon="1.89355">
        <ele>105.49</ele>
        <time>2018-03-04T13:13:35Z</time>
      </trkpt>
      <trkpt lat="49.16362" lon="1.89365">
        <ele>105.02</ele>
        <time>2018-03-04T13:13:42Z</time>
      </trkpt>
      <trkpt lat="49.16362" lon="1.89376">
        <ele>105.11</ele>
        <time>2018-03-04T13:13:48Z</time>
      </trkpt>
      <trkpt lat="49.16363" lon="1.89383">
        <ele>104.83</ele>
        <time>2018-03-04T13:13:52Z</time>
      </trkpt>
      <trkpt lat="49.16366" lon="1.89414">
        <ele>104.27</ele>
        <time>2018-03-04T13:14:09Z</time>
      </trkpt>
      <trkpt lat="49.16369" lon="1.8945">
        <ele>103.4</ele>
        <time>2018-03-04T13:14:28Z</time>
      </trkpt>
      <trkpt lat="49.16374" lon="1.89489">
        <ele>102.28</ele>
        <time>2018-03-04T13:14:50Z</time>
      </trkpt>
      <trkpt lat="49.16378" lon="1.89517">
        <ele>101.9</ele>
        <time>2018-03-04T13:15:06Z</time>
      </trkpt>
      <trkpt lat="49.16382" lon="1.89541">
        <ele>102.18</ele>
        <time>2018-03-04T13:15:20Z</time>
      </trkpt>
      <trkpt lat="49.16382" lon="1.89552">
        <ele>102.26</ele>
        <time>2018-03-04T13:15:26Z</time>
      </trkpt>
      <trkpt lat="49.16386" lon="1.8958">
        <ele>101.67</ele>
        <time>2018-03-04T13:15:42Z</time>
      </trkpt>
      <trkpt lat="49.16389" lon="1.89606">
        <ele>101.54</ele>
        <time>2018-03-04T13:15:56Z</time>
      </trkpt>
      <trkpt lat="49.1639" lon="1.89646">
        <ele>101.61</ele>
        <time>2018-03-04T13:16:17Z</time>
      </trkpt>
      <trkpt lat="49.1639" lon="1.89657">
        <ele>101.21</ele>
        <time>2018-03-04T13:16:23Z</time>
      </trkpt>
      <trkpt lat="49.16392" lon="1.89691">
        <ele>101.52</ele>
        <time>2018-03-04T13:16:41Z</time>
      </trkpt>
      <trkpt lat="49.16394" lon="1.89722">
        <ele>101.36</ele>
        <time>2018-03-04T13:16:57Z</time>
      </trkpt>
      <trkpt lat="49.16396" lon="1.89756">
        <ele>99.79</ele>
        <time>2018-03-04T13:17:15Z</time>
      </trkpt>
      <trkpt lat="49.16396" lon="1.89759">
        <ele>101.16</ele>
        <time>2018-03-04T13:17:17Z</time>
      </trkpt>
      <trkpt lat="49.16396" lon="1.89794">
        <ele>100.06</ele>
        <time>2018-03-04T13:17:35Z</time>
      </trkpt>
      <trkpt lat="49.16396" lon="1.89801">
        <ele>100.73</ele>
        <time>2018-03-04T13:17:42Z</time>
      </trkpt>
      <trkpt lat="49.16396" lon="1.89807">
        <ele>99.74</ele>
        <time>2018-03-04T13:17:58Z</time>
      </trkpt>
      <trkpt lat="49.16397" lon="1.8981">
        <ele>99.58</ele>
        <time>2018-03-04T13:18:02Z</time>
      </trkpt>
      <trkpt lat="49.16397" lon="1.89817">
        <ele>100.03</ele>
        <time>2018-03-04T13:18:06Z</time>
      </trkpt>
      <trkpt lat="49.16398" lon="1.89821">
        <ele>100.05</ele>
        <time>2018-03-04T13:18:08Z</time>
      </trkpt>
      <trkpt lat="49.16399" lon="1.89854">
        <ele>99.07</ele>
        <time>2018-03-04T13:18:26Z</time>
      </trkpt>
      <trkpt lat="49.16399" lon="1.89876">
        <ele>99.27</ele>
        <time>2018-03-04T13:18:38Z</time>
      </trkpt>
      <trkpt lat="49.16399" lon="1.89903">
        <ele>100.08</ele>
        <time>2018-03-04T13:18:54Z</time>
      </trkpt>
      <trkpt lat="49.16399" lon="1.89932">
        <ele>99.1</ele>
        <time>2018-03-04T13:19:09Z</time>
      </trkpt>
      <trkpt lat="49.16398" lon="1.89963">
        <ele>98.83</ele>
        <time>2018-03-04T13:19:25Z</time>
      </trkpt>
      <trkpt lat="49.16397" lon="1.89972">
        <ele>98.84</ele>
        <time>2018-03-04T13:19:30Z</time>
      </trkpt>
      <trkpt lat="49.16397" lon="1.90006">
        <ele>98.55</ele>
        <time>2018-03-04T13:19:49Z</time>
      </trkpt>
      <trkpt lat="49.16398" lon="1.90032">
        <ele>98.54</ele>
        <time>2018-03-04T13:20:04Z</time>
      </trkpt>
      <trkpt lat="49.164" lon="1.90061">
        <ele>98.6</ele>
        <time>2018-03-04T13:20:20Z</time>
      </trkpt>
      <trkpt lat="49.16401" lon="1.90076">
        <ele>98.58</ele>
        <time>2018-03-04T13:20:29Z</time>
      </trkpt>
      <trkpt lat="49.16403" lon="1.90093">
        <ele>98.51</ele>
        <time>2018-03-04T13:20:38Z</time>
      </trkpt>
      <trkpt lat="49.16404" lon="1.90133">
        <ele>97.51</ele>
        <time>2018-03-04T13:20:58Z</time>
      </trkpt>
      <trkpt lat="49.16406" lon="1.90166">
        <ele>98.05</ele>
        <time>2018-03-04T13:21:17Z</time>
      </trkpt>
      <trkpt lat="49.16407" lon="1.90193">
        <ele>97.89</ele>
        <time>2018-03-04T13:21:33Z</time>
      </trkpt>
      <trkpt lat="49.16409" lon="1.90202">
        <ele>97.24</ele>
        <time>2018-03-04T13:21:41Z</time>
      </trkpt>
      <trkpt lat="49.16413" lon="1.90238">
        <ele>96.89</ele>
        <time>2018-03-04T13:22:01Z</time>
      </trkpt>
      <trkpt lat="49.16414" lon="1.90257">
        <ele>97.24</ele>
        <time>2018-03-04T13:22:19Z</time>
      </trkpt>
      <trkpt lat="49.16414" lon="1.90262">
        <ele>97.08</ele>
        <time>2018-03-04T13:22:30Z</time>
      </trkpt>
      <trkpt lat="49.16415" lon="1.90269">
        <ele>97.37</ele>
        <time>2018-03-04T13:22:34Z</time>
      </trkpt>
      <trkpt lat="49.16418" lon="1.90296">
        <ele>97.61</ele>
        <time>2018-03-04T13:22:49Z</time>
      </trkpt>
      <trkpt lat="49.16423" lon="1.90328">
        <ele>97.22</ele>
        <time>2018-03-04T13:23:07Z</time>
      </trkpt>
      <trkpt lat="49.16424" lon="1.90363">
        <ele>96.59</ele>
        <time>2018-03-04T13:23:26Z</time>
      </trkpt>
      <trkpt lat="49.16422" lon="1.90398">
        <ele>96.49</ele>
        <time>2018-03-04T13:23:45Z</time>
      </trkpt>
      <trkpt lat="49.16422" lon="1.90425">
        <ele>96.41</ele>
        <time>2018-03-04T13:24:00Z</time>
      </trkpt>
      <trkpt lat="49.16421" lon="1.9046">
        <ele>96.28</ele>
        <time>2018-03-04T13:24:19Z</time>
      </trkpt>
      <trkpt lat="49.16424" lon="1.90493">
        <ele>95.71</ele>
        <time>2018-03-04T13:24:37Z</time>
      </trkpt>
      <trkpt lat="49.16429" lon="1.90522">
        <ele>95.79</ele>
        <time>2018-03-04T13:24:53Z</time>
      </trkpt>
      <trkpt lat="49.16434" lon="1.90546">
        <ele>95.69</ele>
        <time>2018-03-04T13:25:07Z</time>
      </trkpt>
      <trkpt lat="49.16434" lon="1.90555">
        <ele>95.91</ele>
        <time>2018-03-04T13:25:12Z</time>
      </trkpt>
      <trkpt lat="49.16437" lon="1.90587">
        <ele>95.34</ele>
        <time>2018-03-04T13:25:30Z</time>
      </trkpt>
      <trkpt lat="49.16438" lon="1.90603">
        <ele>95.87</ele>
        <time>2018-03-04T13:25:38Z</time>
      </trkpt>
      <trkpt lat="49.16439" lon="1.90641">
        <ele>94.35</ele>
        <time>2018-03-04T13:25:58Z</time>
      </trkpt>
      <trkpt lat="49.16435" lon="1.90683">
        <ele>94.65</ele>
        <time>2018-03-04T13:26:20Z</time>
      </trkpt>
      <trkpt lat="49.1643" lon="1.90711">
        <ele>94.34</ele>
        <time>2018-03-04T13:26:36Z</time>
      </trkpt>
      <trkpt lat="49.16423" lon="1.90744">
        <ele>94.5</ele>
        <time>2018-03-04T13:26:55Z</time>
      </trkpt>
      <trkpt lat="49.16415" lon="1.90774">
        <ele>94.56</ele>
        <time>2018-03-04T13:27:12Z</time>
      </trkpt>
      <trkpt lat="49.16406" lon="1.90803">
        <ele>94.06</ele>
        <time>2018-03-04T13:27:30Z</time>
      </trkpt>
      <trkpt lat="49.16398" lon="1.90831">
        <ele>95.14</ele>
        <time>2018-03-04T13:27:46Z</time>
      </trkpt>
      <trkpt lat="49.16391" lon="1.90859">
        <ele>94.43</ele>
        <time>2018-03-04T13:28:03Z</time>
      </trkpt>
      <trkpt lat="49.16381" lon="1.90891">
        <ele>94.29</ele>
        <time>2018-03-04T13:28:22Z</time>
      </trkpt>
      <trkpt lat="49.16376" lon="1.90909">
        <ele>94.48</ele>
        <time>2018-03-04T13:28:37Z</time>
      </trkpt>
      <trkpt lat="49.16374" lon="1.90917">
        <ele>95</ele>
        <time>2018-03-04T13:28:46Z</time>
      </trkpt>
      <trkpt lat="49.16373" lon="1.90921">
        <ele>94.88</ele>
        <time>2018-03-04T13:28:49Z</time>
      </trkpt>
      <trkpt lat="49.16369" lon="1.90933">
        <ele>95.02</ele>
        <time>2018-03-04T13:29:04Z</time>
      </trkpt>
      <trkpt lat="49.16368" lon="1.90937">
        <ele>94.52</ele>
        <time>2018-03-04T13:29:26Z</time>
      </trkpt>
      <trkpt lat="49.16369" lon="1.90938">
        <ele>94.83</ele>
        <time>2018-03-04T13:29:49Z</time>
      </trkpt>
      <trkpt lat="49.16367" lon="1.90938">
        <ele>94.7</ele>
        <time>2018-03-04T13:30:13Z</time>
      </trkpt>
      <trkpt lat="49.16366" lon="1.90937">
        <ele>94.64</ele>
        <time>2018-03-04T13:30:36Z</time>
      </trkpt>
      <trkpt lat="49.1636" lon="1.9097">
        <ele>94.06</ele>
        <time>2018-03-04T13:30:56Z</time>
      </trkpt>
      <trkpt lat="49.16358" lon="1.90977">
        <ele>94.72</ele>
        <time>2018-03-04T13:31:12Z</time>
      </trkpt>
      <trkpt lat="49.16358" lon="1.9098">
        <ele>94.13</ele>
        <time>2018-03-04T13:31:16Z</time>
      </trkpt>
      <trkpt lat="49.16356" lon="1.90987">
        <ele>94</ele>
        <time>2018-03-04T13:31:20Z</time>
      </trkpt>
      <trkpt lat="49.16349" lon="1.91021">
        <ele>93.42</ele>
        <time>2018-03-04T13:31:39Z</time>
      </trkpt>
      <trkpt lat="49.16345" lon="1.91048">
        <ele>93.93</ele>
        <time>2018-03-04T13:31:54Z</time>
      </trkpt>
      <trkpt lat="49.1634" lon="1.91075">
        <ele>93.98</ele>
        <time>2018-03-04T13:32:09Z</time>
      </trkpt>
      <trkpt lat="49.16336" lon="1.91108">
        <ele>94.61</ele>
        <time>2018-03-04T13:32:26Z</time>
      </trkpt>
      <trkpt lat="49.16329" lon="1.9114">
        <ele>93.72</ele>
        <time>2018-03-04T13:32:44Z</time>
      </trkpt>
      <trkpt lat="49.16325" lon="1.91165">
        <ele>94.39</ele>
        <time>2018-03-04T13:32:58Z</time>
      </trkpt>
      <trkpt lat="49.16318" lon="1.91198">
        <ele>94.15</ele>
        <time>2018-03-04T13:33:16Z</time>
      </trkpt>
      <trkpt lat="49.16313" lon="1.91218">
        <ele>94.58</ele>
        <time>2018-03-04T13:33:28Z</time>
      </trkpt>
      <trkpt lat="49.16309" lon="1.91233">
        <ele>94.58</ele>
        <time>2018-03-04T13:33:36Z</time>
      </trkpt>
      <trkpt lat="49.16309" lon="1.91236">
        <ele>94.27</ele>
        <time>2018-03-04T13:33:38Z</time>
      </trkpt>
      <trkpt lat="49.16302" lon="1.91263">
        <ele>94.39</ele>
        <time>2018-03-04T13:33:53Z</time>
      </trkpt>
      <trkpt lat="49.16302" lon="1.91265">
        <ele>94.36</ele>
        <time>2018-03-04T13:33:54Z</time>
      </trkpt>
      <trkpt lat="49.16293" lon="1.91297">
        <ele>93.6</ele>
        <time>2018-03-04T13:34:11Z</time>
      </trkpt>
      <trkpt lat="49.16286" lon="1.91325">
        <ele>94.18</ele>
        <time>2018-03-04T13:34:27Z</time>
      </trkpt>
      <trkpt lat="49.16282" lon="1.91355">
        <ele>93.7</ele>
        <time>2018-03-04T13:34:43Z</time>
      </trkpt>
      <trkpt lat="49.16279" lon="1.91384">
        <ele>93.74</ele>
        <time>2018-03-04T13:34:58Z</time>
      </trkpt>
      <trkpt lat="49.16275" lon="1.9141">
        <ele>93.59</ele>
        <time>2018-03-04T13:35:13Z</time>
      </trkpt>
      <trkpt lat="49.16275" lon="1.91414">
        <ele>92.99</ele>
        <time>2018-03-04T13:35:15Z</time>
      </trkpt>
      <trkpt lat="49.16272" lon="1.91446">
        <ele>94.02</ele>
        <time>2018-03-04T13:35:31Z</time>
      </trkpt>
      <trkpt lat="49.16268" lon="1.91483">
        <ele>93.19</ele>
        <time>2018-03-04T13:35:50Z</time>
      </trkpt>
      <trkpt lat="49.16264" lon="1.91512">
        <ele>93.61</ele>
        <time>2018-03-04T13:36:06Z</time>
      </trkpt>
      <trkpt lat="49.16258" lon="1.91541">
        <ele>92.71</ele>
        <time>2018-03-04T13:36:22Z</time>
      </trkpt>
      <trkpt lat="49.1625" lon="1.91573">
        <ele>91.83</ele>
        <time>2018-03-04T13:36:41Z</time>
      </trkpt>
      <trkpt lat="49.16249" lon="1.91578">
        <ele>92.13</ele>
        <time>2018-03-04T13:36:44Z</time>
      </trkpt>
      <trkpt lat="49.16238" lon="1.91604">
        <ele>91.56</ele>
        <time>2018-03-04T13:37:01Z</time>
      </trkpt>
      <trkpt lat="49.16228" lon="1.9163">
        <ele>92.2</ele>
        <time>2018-03-04T13:37:17Z</time>
      </trkpt>
      <trkpt lat="49.16214" lon="1.91656">
        <ele>91.57</ele>
        <time>2018-03-04T13:37:35Z</time>
      </trkpt>
      <trkpt lat="49.16203" lon="1.91679">
        <ele>91.13</ele>
        <time>2018-03-04T13:37:50Z</time>
      </trkpt>
      <trkpt lat="49.1619" lon="1.91707">
        <ele>90.17</ele>
        <time>2018-03-04T13:38:08Z</time>
      </trkpt>
      <trkpt lat="49.1618" lon="1.9173">
        <ele>89.81</ele>
        <time>2018-03-04T13:38:23Z</time>
      </trkpt>
      <trkpt lat="49.16169" lon="1.91758">
        <ele>89.61</ele>
        <time>2018-03-04T13:38:40Z</time>
      </trkpt>
      <trkpt lat="49.16159" lon="1.91789">
        <ele>89.45</ele>
        <time>2018-03-04T13:38:58Z</time>
      </trkpt>
      <trkpt lat="49.16157" lon="1.91796">
        <ele>89.69</ele>
        <time>2018-03-04T13:39:02Z</time>
      </trkpt>
      <trkpt lat="49.16151" lon="1.91826">
        <ele>89.13</ele>
        <time>2018-03-04T13:39:19Z</time>
      </trkpt>
      <trkpt lat="49.16149" lon="1.91862">
        <ele>88.19</ele>
        <time>2018-03-04T13:39:38Z</time>
      </trkpt>
      <trkpt lat="49.16148" lon="1.91887">
        <ele>88.23</ele>
        <time>2018-03-04T13:39:53Z</time>
      </trkpt>
      <trkpt lat="49.16147" lon="1.91888">
        <ele>88.32</ele>
        <time>2018-03-04T13:40:16Z</time>
      </trkpt>
      <trkpt lat="49.16147" lon="1.91886">
        <ele>88.48</ele>
        <time>2018-03-04T13:40:40Z</time>
      </trkpt>
      <trkpt lat="49.1615" lon="1.91885">
        <ele>88.38</ele>
        <time>2018-03-04T13:40:59Z</time>
      </trkpt>
      <trkpt lat="49.1615" lon="1.91884">
        <ele>87.86</ele>
        <time>2018-03-04T13:41:42Z</time>
      </trkpt>
      <trkpt lat="49.1615" lon="1.91886">
        <ele>87.62</ele>
        <time>2018-03-04T13:42:01Z</time>
      </trkpt>
      <trkpt lat="49.1615" lon="1.91894">
        <ele>87.6</ele>
        <time>2018-03-04T13:42:06Z</time>
      </trkpt>
      <trkpt lat="49.16164" lon="1.91927">
        <ele>87.77</ele>
        <time>2018-03-04T13:42:25Z</time>
      </trkpt>
      <trkpt lat="49.16172" lon="1.91959">
        <ele>86.82</ele>
        <time>2018-03-04T13:42:44Z</time>
      </trkpt>
      <trkpt lat="49.16172" lon="1.91987">
        <ele>86.59</ele>
        <time>2018-03-04T13:43:02Z</time>
      </trkpt>
      <trkpt lat="49.16172" lon="1.91989">
        <ele>86.76</ele>
        <time>2018-03-04T13:43:04Z</time>
      </trkpt>
      <trkpt lat="49.16171" lon="1.91992">
        <ele>86.69</ele>
        <time>2018-03-04T13:43:06Z</time>
      </trkpt>
      <trkpt lat="49.16162" lon="1.92022">
        <ele>86.78</ele>
        <time>2018-03-04T13:43:24Z</time>
      </trkpt>
      <trkpt lat="49.16155" lon="1.92054">
        <ele>87.36</ele>
        <time>2018-03-04T13:43:43Z</time>
      </trkpt>
      <trkpt lat="49.16154" lon="1.9208">
        <ele>87.77</ele>
        <time>2018-03-04T13:43:58Z</time>
      </trkpt>
      <trkpt lat="49.16152" lon="1.92084">
        <ele>87.7</ele>
        <time>2018-03-04T13:44:02Z</time>
      </trkpt>
      <trkpt lat="49.16148" lon="1.92099">
        <ele>86.64</ele>
        <time>2018-03-04T13:44:11Z</time>
      </trkpt>
      <trkpt lat="49.16147" lon="1.92127">
        <ele>86.86</ele>
        <time>2018-03-04T13:44:28Z</time>
      </trkpt>
      <trkpt lat="49.16144" lon="1.92158">
        <ele>87.59</ele>
        <time>2018-03-04T13:44:45Z</time>
      </trkpt>
      <trkpt lat="49.16141" lon="1.92189">
        <ele>86.77</ele>
        <time>2018-03-04T13:45:02Z</time>
      </trkpt>
      <trkpt lat="49.16141" lon="1.92203">
        <ele>86.98</ele>
        <time>2018-03-04T13:45:11Z</time>
      </trkpt>
      <trkpt lat="49.1614" lon="1.92218">
        <ele>87.47</ele>
        <time>2018-03-04T13:45:18Z</time>
      </trkpt>
      <trkpt lat="49.16139" lon="1.92252">
        <ele>86.61</ele>
        <time>2018-03-04T13:45:37Z</time>
      </trkpt>
      <trkpt lat="49.1614" lon="1.92278">
        <ele>86.3</ele>
        <time>2018-03-04T13:45:51Z</time>
      </trkpt>
      <trkpt lat="49.16138" lon="1.92308">
        <ele>86.04</ele>
        <time>2018-03-04T13:46:06Z</time>
      </trkpt>
      <trkpt lat="49.16139" lon="1.92314">
        <ele>85.71</ele>
        <time>2018-03-04T13:46:09Z</time>
      </trkpt>
      <trkpt lat="49.16139" lon="1.92349">
        <ele>85.62</ele>
        <time>2018-03-04T13:46:26Z</time>
      </trkpt>
      <trkpt lat="49.16141" lon="1.92382">
        <ele>85.72</ele>
        <time>2018-03-04T13:46:43Z</time>
      </trkpt>
      <trkpt lat="49.16139" lon="1.92408">
        <ele>85.5</ele>
        <time>2018-03-04T13:46:57Z</time>
      </trkpt>
      <trkpt lat="49.16139" lon="1.92447">
        <ele>85.02</ele>
        <time>2018-03-04T13:47:18Z</time>
      </trkpt>
      <trkpt lat="49.1614" lon="1.92469">
        <ele>85.06</ele>
        <time>2018-03-04T13:47:32Z</time>
      </trkpt>
      <trkpt lat="49.16137" lon="1.92498">
        <ele>84.93</ele>
        <time>2018-03-04T13:47:47Z</time>
      </trkpt>
      <trkpt lat="49.16133" lon="1.92538">
        <ele>84.63</ele>
        <time>2018-03-04T13:48:08Z</time>
      </trkpt>
      <trkpt lat="49.16133" lon="1.92567">
        <ele>83.95</ele>
        <time>2018-03-04T13:48:24Z</time>
      </trkpt>
      <trkpt lat="49.16137" lon="1.92599">
        <ele>84.62</ele>
        <time>2018-03-04T13:48:42Z</time>
      </trkpt>
      <trkpt lat="49.16137" lon="1.92601">
        <ele>85</ele>
        <time>2018-03-04T13:48:43Z</time>
      </trkpt>
      <trkpt lat="49.16138" lon="1.92604">
        <ele>84.17</ele>
        <time>2018-03-04T13:48:45Z</time>
      </trkpt>
      <trkpt lat="49.16134" lon="1.92636">
        <ele>84.23</ele>
        <time>2018-03-04T13:49:02Z</time>
      </trkpt>
      <trkpt lat="49.16127" lon="1.9267">
        <ele>82.29</ele>
        <time>2018-03-04T13:49:21Z</time>
      </trkpt>
      <trkpt lat="49.1612" lon="1.92697">
        <ele>81.32</ele>
        <time>2018-03-04T13:49:38Z</time>
      </trkpt>
      <trkpt lat="49.16112" lon="1.92727">
        <ele>80.63</ele>
        <time>2018-03-04T13:49:56Z</time>
      </trkpt>
      <trkpt lat="49.16112" lon="1.92749">
        <ele>80.38</ele>
        <time>2018-03-04T13:50:08Z</time>
      </trkpt>
      <trkpt lat="49.16111" lon="1.92778">
        <ele>80.14</ele>
        <time>2018-03-04T13:50:24Z</time>
      </trkpt>
      <trkpt lat="49.16113" lon="1.92809">
        <ele>81.45</ele>
        <time>2018-03-04T13:50:41Z</time>
      </trkpt>
      <trkpt lat="49.16114" lon="1.92838">
        <ele>82.67</ele>
        <time>2018-03-04T13:50:56Z</time>
      </trkpt>
      <trkpt lat="49.16118" lon="1.92853">
        <ele>82.63</ele>
        <time>2018-03-04T13:51:05Z</time>
      </trkpt>
      <trkpt lat="49.16119" lon="1.9286">
        <ele>82.62</ele>
        <time>2018-03-04T13:51:09Z</time>
      </trkpt>
      <trkpt lat="49.16125" lon="1.92879">
        <ele>83.04</ele>
        <time>2018-03-04T13:51:23Z</time>
      </trkpt>
      <trkpt lat="49.16128" lon="1.9291">
        <ele>83.3</ele>
        <time>2018-03-04T13:51:39Z</time>
      </trkpt>
      <trkpt lat="49.16129" lon="1.92923">
        <ele>83.76</ele>
        <time>2018-03-04T13:51:47Z</time>
      </trkpt>
      <trkpt lat="49.16136" lon="1.92949">
        <ele>82.88</ele>
        <time>2018-03-04T13:52:03Z</time>
      </trkpt>
      <trkpt lat="49.16136" lon="1.92968">
        <ele>83.17</ele>
        <time>2018-03-04T13:52:13Z</time>
      </trkpt>
      <trkpt lat="49.1614" lon="1.92989">
        <ele>83.12</ele>
        <time>2018-03-04T13:52:26Z</time>
      </trkpt>
      <trkpt lat="49.16142" lon="1.92999">
        <ele>82.31</ele>
        <time>2018-03-04T13:52:31Z</time>
      </trkpt>
      <trkpt lat="49.16146" lon="1.93017">
        <ele>81.24</ele>
        <time>2018-03-04T13:52:41Z</time>
      </trkpt>
      <trkpt lat="49.16147" lon="1.93029">
        <ele>81.37</ele>
        <time>2018-03-04T13:52:49Z</time>
      </trkpt>
      <trkpt lat="49.1615" lon="1.93037">
        <ele>81.37</ele>
        <time>2018-03-04T13:52:54Z</time>
      </trkpt>
      <trkpt lat="49.16152" lon="1.93041">
        <ele>81.29</ele>
        <time>2018-03-04T13:52:58Z</time>
      </trkpt>
      <trkpt lat="49.16155" lon="1.93045">
        <ele>81.33</ele>
        <time>2018-03-04T13:53:02Z</time>
      </trkpt>
      <trkpt lat="49.16152" lon="1.93079">
        <ele>78.6</ele>
        <time>2018-03-04T13:53:21Z</time>
      </trkpt>
      <trkpt lat="49.16145" lon="1.93105">
        <ele>76.98</ele>
        <time>2018-03-04T13:53:37Z</time>
      </trkpt>
      <trkpt lat="49.16138" lon="1.93141">
        <ele>73.66</ele>
        <time>2018-03-04T13:53:55Z</time>
      </trkpt>
      <trkpt lat="49.16135" lon="1.93167">
        <ele>71.65</ele>
        <time>2018-03-04T13:54:10Z</time>
      </trkpt>
      <trkpt lat="49.1613" lon="1.93193">
        <ele>70.59</ele>
        <time>2018-03-04T13:54:24Z</time>
      </trkpt>
      <trkpt lat="49.16126" lon="1.93206">
        <ele>69.71</ele>
        <time>2018-03-04T13:54:35Z</time>
      </trkpt>
      <trkpt lat="49.16118" lon="1.93228">
        <ele>67.44</ele>
        <time>2018-03-04T13:54:50Z</time>
      </trkpt>
      <trkpt lat="49.16118" lon="1.93231">
        <ele>67.32</ele>
        <time>2018-03-04T13:54:52Z</time>
      </trkpt>
      <trkpt lat="49.16111" lon="1.93247">
        <ele>66.77</ele>
        <time>2018-03-04T13:55:02Z</time>
      </trkpt>
      <trkpt lat="49.1611" lon="1.93256">
        <ele>65.56</ele>
        <time>2018-03-04T13:55:09Z</time>
      </trkpt>
      <trkpt lat="49.16104" lon="1.93279">
        <ele>64.62</ele>
        <time>2018-03-04T13:55:25Z</time>
      </trkpt>
      <trkpt lat="49.16103" lon="1.93286">
        <ele>64.36</ele>
        <time>2018-03-04T13:55:30Z</time>
      </trkpt>
      <trkpt lat="49.16097" lon="1.93297">
        <ele>63.49</ele>
        <time>2018-03-04T13:55:43Z</time>
      </trkpt>
      <trkpt lat="49.16095" lon="1.93299">
        <ele>63.36</ele>
        <time>2018-03-04T13:55:45Z</time>
      </trkpt>
      <trkpt lat="49.16085" lon="1.93325">
        <ele>61.85</ele>
        <time>2018-03-04T13:56:03Z</time>
      </trkpt>
      <trkpt lat="49.16077" lon="1.93348">
        <ele>59.98</ele>
        <time>2018-03-04T13:56:19Z</time>
      </trkpt>
      <trkpt lat="49.16071" lon="1.9337">
        <ele>59.31</ele>
        <time>2018-03-04T13:56:35Z</time>
      </trkpt>
      <trkpt lat="49.16062" lon="1.93399">
        <ele>58.19</ele>
        <time>2018-03-04T13:56:51Z</time>
      </trkpt>
      <trkpt lat="49.16053" lon="1.93426">
        <ele>57.74</ele>
        <time>2018-03-04T13:57:08Z</time>
      </trkpt>
      <trkpt lat="49.16041" lon="1.93461">
        <ele>55.88</ele>
        <time>2018-03-04T13:57:29Z</time>
      </trkpt>
      <trkpt lat="49.1604" lon="1.93464">
        <ele>57.28</ele>
        <time>2018-03-04T13:57:32Z</time>
      </trkpt>
      <trkpt lat="49.16031" lon="1.93502">
        <ele>55.85</ele>
        <time>2018-03-04T13:57:53Z</time>
      </trkpt>
      <trkpt lat="49.16029" lon="1.93547">
        <ele>56.07</ele>
        <time>2018-03-04T13:58:15Z</time>
      </trkpt>
      <trkpt lat="49.16028" lon="1.93572">
        <ele>56.12</ele>
        <time>2018-03-04T13:58:32Z</time>
      </trkpt>
      <trkpt lat="49.16027" lon="1.93582">
        <ele>55.29</ele>
        <time>2018-03-04T13:58:48Z</time>
      </trkpt>
      <trkpt lat="49.16032" lon="1.93581">
        <ele>55.93</ele>
        <time>2018-03-04T13:59:02Z</time>
      </trkpt>
      <trkpt lat="49.16047" lon="1.93583">
        <ele>54.85</ele>
        <time>2018-03-04T13:59:17Z</time>
      </trkpt>
      <trkpt lat="49.16048" lon="1.93583">
        <ele>54.5</ele>
        <time>2018-03-04T13:59:18Z</time>
      </trkpt>
      <trkpt lat="49.16057" lon="1.93597">
        <ele>55.01</ele>
        <time>2018-03-04T13:59:39Z</time>
      </trkpt>
      <trkpt lat="49.16083" lon="1.93604">
        <ele>55.02</ele>
        <time>2018-03-04T13:59:58Z</time>
      </trkpt>
      <trkpt lat="49.16096" lon="1.93619">
        <ele>55.04</ele>
        <time>2018-03-04T14:00:11Z</time>
      </trkpt>
      <trkpt lat="49.16099" lon="1.93624">
        <ele>54.45</ele>
        <time>2018-03-04T14:00:37Z</time>
      </trkpt>
      <trkpt lat="49.1611" lon="1.93631">
        <ele>54.38</ele>
        <time>2018-03-04T14:00:55Z</time>
      </trkpt>
      <trkpt lat="49.16114" lon="1.93635">
        <ele>54.15</ele>
        <time>2018-03-04T14:00:59Z</time>
      </trkpt>
      <trkpt lat="49.16128" lon="1.93643">
        <ele>54.28</ele>
        <time>2018-03-04T14:01:14Z</time>
      </trkpt>
      <trkpt lat="49.16151" lon="1.9365">
        <ele>53.79</ele>
        <time>2018-03-04T14:01:29Z</time>
      </trkpt>
      <trkpt lat="49.16155" lon="1.93651">
        <ele>53.98</ele>
        <time>2018-03-04T14:01:32Z</time>
      </trkpt>
      <trkpt lat="49.16171" lon="1.93655">
        <ele>54.41</ele>
        <time>2018-03-04T14:01:47Z</time>
      </trkpt>
      <trkpt lat="49.16189" lon="1.93657">
        <ele>54.43</ele>
        <time>2018-03-04T14:02:04Z</time>
      </trkpt>
      <trkpt lat="49.16195" lon="1.93658">
        <ele>54.39</ele>
        <time>2018-03-04T14:02:11Z</time>
      </trkpt>
      <trkpt lat="49.162" lon="1.93658">
        <ele>54.26</ele>
        <time>2018-03-04T14:02:15Z</time>
      </trkpt>
      <trkpt lat="49.16217" lon="1.9366">
        <ele>55.06</ele>
        <time>2018-03-04T14:02:27Z</time>
      </trkpt>
    </trkseg>
  </trk>
</gpx>